SondeTracker

Meteorological Radiosondes Database

Operations

Sounding was ended - last measurement: 2022-12-06 13:56:55z

MAP
About Radiosonde

Number: U0220566

Launch Site: Madrid (ES)

Type: RS41

AUX: NO

Frequency: 403.000 MHz

Max Speed: 72 km/h at 13852 m

Average Speed: 30.67 km/h

Max Altitude: 25876 m

Average Ascent Speed: 4.11 m/s

Average Descent Speed: 6.87 m/s

Status: UNKNOWN

Status Changes
Launch Site Type AUX Frequency Status Finder Landing Point Description Changes made by
APRS Statistics

Received Frames: 878

First Frame [UTC]: 2022-12-06 11:17:28z

Last Frame [UTC]: 2022-12-06 13:56:55z

Receivers: EA1JAY-16, EA4CP-14, EA4EKH-11, EA4EKH-12, EA4GBR-10, EA4GBR-9, EA4GSU-11, LETO2-14

Flight Time: 02:39:27 h

Distance From First Measurement: 72.47 km

Nearest City: Guadalajara (ES) [45.37 km]

Nearest Hunter: EA4EKH [29.38 km]

Ground Altitude: 711 m

Distance from QTH: 0.00 km

APRS Data
Receiver Number Date/Time [UTC] φ λ Course [°] Speed [km/h] Altitude [m] Description
EA4EKH-11U02205662022-12-06 13:56:5540.3995-2.727815821195Clb=-3.5m/s t=7.7C h=96.5% p=884.6hPa 403.000 MHz Type=RS41-SGP ser=U0220566 Radiosonde
EA4EKH-11U02205662022-12-06 13:56:2440.3995-2.727833321211Clb=-3.4m/s t=7.6C h=97.4% p=883.0hPa 403.000 MHz Type=RS41-SGP ser=U0220566 Radiosonde
EA4EKH-11U02205662022-12-06 13:55:5340.4-2.72874171111323Clb=-3.1m/s t=6.7C h=98.0% p=870.9hPa 403.000 MHz Type=RS41-SGP ser=U0220566 Radiosonde
EA4EKH-11U02205662022-12-06 13:55:2240.4005-2.7283824861408Clb=-3.4m/s t=6.3C h=94.7% p=862.1hPa 403.000 MHz Type=RS41-SGP ser=U0220566 Radiosonde
EA4EKH-11U02205662022-12-06 13:54:5040.4007-2.7285420171508Clb=-3.4m/s t=6.0C h=84.1% p=851.7hPa 403.000 MHz Type=RS41-SGP ser=U0220566 Radiosonde
EA4EKH-11U02205662022-12-06 13:54:1940.4012-2.7281619991608Clb=-3.1m/s t=5.2C h=87.5% p=841.4hPa 403.000 MHz Type=RS41-SGP ser=U0220566 Radiosonde
EA4EKH-11U02205662022-12-06 13:53:4840.4014-2.7275619991709Clb=-3.3m/s t=4.6C h=86.9% p=831.0hPa 403.000 MHz Type=RS41-SGP ser=U0220566 Radiosonde
EA4EKH-11U02205662022-12-06 13:53:1740.4015-2.7274226271812Clb=-3.4m/s t=3.7C h=89.6% p=820.5hPa 403.000 MHz Type=RS41-SGP ser=U0220566 Radiosonde
EA4EKH-11U02205662022-12-06 13:52:4640.4015-2.7273234591916Clb=-3.3m/s t=2.8C h=93.0% p=810.2hPa 403.000 MHz Type=RS41-SGP ser=U0220566 Radiosonde
EA4EKH-11U02205662022-12-06 13:52:1540.4014-2.7268322112021Clb=-3.4m/s t=2.2C h=95.6% p=799.9hPa 403.000 MHz Type=RS41-SGP ser=U0220566 Radiosonde
EA4EKH-11U02205662022-12-06 13:51:4440.4014-2.7256833942129Clb=-3.5m/s t=1.7C h=92.0% p=789.1hPa 403.000 MHz Type=RS41-SGP ser=U0220566 Radiosonde
EA4EKH-11U02205662022-12-06 13:51:1340.4011-2.7246426272250Clb=-3.7m/s t=0.9C h=91.9% p=777.4hPa 403.000 MHz Type=RS41-SGP ser=U0220566 Radiosonde
EA4EKH-11U02205662022-12-06 13:50:4240.4006-2.72383288132377Clb=-3.8m/s t=0.0C h=95.1% p=765.4hPa 403.000 MHz Type=RS41-SGP ser=U0220566 Radiosonde
EA4EKH-11U02205662022-12-06 13:50:1140.3997-2.72309305192500Clb=-3.7m/s t=-0.7C h=94.8% p=753.4hPa 403.000 MHz Type=RS41-SGP ser=U0220566 Radiosonde
EA4EKH-11U02205662022-12-06 13:49:4040.3989-2.72201288172622Clb=-3.8m/s t=-1.7C h=99.6% p=742.1hPa 403.000 MHz Type=RS41-SGP ser=U0220566 Radiosonde
EA4EKH-11U02205662022-12-06 13:49:0940.3981-2.72106319222728Clb=-3.4m/s t=-2.3C h=100.0% p=732.2hPa 403.000 MHz Type=RS41-SGP ser=U0220566 Radiosonde
EA4EKH-11U02205662022-12-06 13:48:3840.3971-2.71992323222828Clb=-3.5m/s t=-2.9C h=100.0% p=723.0hPa 403.000 MHz Type=RS41-SGP ser=U0220566 Radiosonde
EA4EKH-11U02205662022-12-06 13:48:0740.3964-2.718833862931Clb=-3.0m/s t=-3.4C h=100.0% p=713.9hPa 403.000 MHz Type=RS41-SGP ser=U0220566 Radiosonde
EA4EKH-11U02205662022-12-06 13:47:3640.3955-2.7184430893045Clb=-3.9m/s t=-2.5C h=82.4% p=703.8hPa 403.000 MHz Type=RS41-SGP ser=U0220566 Radiosonde
EA4EKH-11U02205662022-12-06 13:47:0540.3954-2.718274843163Clb=-3.6m/s t=-2.9C h=77.4% p=693.1hPa 403.000 MHz Type=RS41-SGP ser=U0220566 Radiosonde
EA4EKH-11U02205662022-12-06 13:46:3440.3953-2.717811223282Clb=-4.0m/s t=-3.6C h=76.1% p=682.9hPa 403.000 MHz Type=RS41-SGP ser=U0220566 Radiosonde
EA4CP-14U02205662022-12-06 13:46:0740.3951-2.718146113381Clb=-3.9m/s p=674.4hPa t=-4.2C h=75.4% 403.00MHz Type=RS41-SGP Details on http://radiosondy.info
EA4EKH-11U02205662022-12-06 13:46:0340.3949-2.71812343133400Clb=-3.8m/s t=-4.4C h=73.2% p=672.8hPa 403.000 MHz Type=RS41-SGP ser=U0220566 Radiosonde
EA4EKH-11U02205662022-12-06 13:45:3140.3947-2.717748073517Clb=-3.8m/s t=-4.5C h=68.9% p=663.0hPa 403.000 MHz Type=RS41-SGP ser=U0220566 Radiosonde
EA4CP-14U02205662022-12-06 13:45:0840.3942-2.71818360113601Clb=-3.1m/s p=656.0hPa t=-4.8C h=69.8% 403.00MHz Type=RS41-SGP batt=2.7V Details on http://radiosondy.info
EA4EKH-11U02205662022-12-06 13:45:0040.3943-2.71834102113629Clb=-3.4m/s t=-5.0C h=68.5% p=653.6hPa 403.000 MHz Type=RS41-SGP ser=U0220566 Radiosonde
EA4CP-14U02205662022-12-06 13:44:5240.3942-2.7187866153659Clb=-3.2m/s p=651.1hPa t=-5.3C h=71.8% 403.00MHz Type=RS41-SGP Details on http://radiosondy.info
EA4CP-14U02205662022-12-06 13:44:3740.3938-2.719263293714Clb=-3.3m/s p=646.4hPa t=-5.4C h=70.5% 403.00MHz Type=RS41-SGP Details on http://radiosondy.info
EA4EKH-11U02205662022-12-06 13:44:3140.3938-2.7193711563738Clb=-3.5m/s t=-5.3C h=65.5% p=644.5hPa 403.000 MHz Type=RS41-SGP ser=U0220566 Radiosonde
EA4CP-14U02205662022-12-06 13:44:2140.3939-2.7196499153766Clb=-3.3m/s p=642.2hPa t=-5.3C h=67.4% 403.00MHz Type=RS41-SGP batt=2.7V Details on http://radiosondy.info
EA4CP-14U02205662022-12-06 13:44:0640.3937-2.7203152113817Clb=-3.4m/s p=637.9hPa t=-5.2C h=59.5% 403.00MHz Type=RS41-SGP Details on http://radiosondy.info
EA4EKH-11U02205662022-12-06 13:43:5840.3935-2.720522793845Clb=-3.4m/s t=-5.4C h=58.1% p=635.8hPa 403.000 MHz Type=RS41-SGP ser=U0220566 Radiosonde
EA4CP-14U02205662022-12-06 13:43:5040.3934-2.7205634773872Clb=-3.6m/s p=633.4hPa t=-5.4C h=60.2% 403.00MHz Type=RS41-SGP TxOff=7h36m Details on http://radiosondy.info
EA4CP-14U02205662022-12-06 13:43:3440.3936-2.72083130153932Clb=-4.0m/s p=628.7hPa t=-5.7C h=58.9% 403.00MHz Type=RS41-SGP batt=2.7V Details on http://radiosondy.info
EA4EKH-11U02205662022-12-06 13:43:2740.3937-2.72104133133959Clb=-3.7m/s t=-6.0C h=57.6% p=626.5hPa 403.000 MHz Type=RS41-SGP ser=U0220566 Radiosonde
EA4CP-14U02205662022-12-06 13:43:1840.3939-2.72144101173992Clb=-4.1m/s p=624.0hPa t=-6.1C h=59.5% 403.00MHz Type=RS41-SGP Details on http://radiosondy.info
EA4CP-14U02205662022-12-06 13:43:0240.3941-2.7223496114057Clb=-3.9m/s p=618.7hPa t=-6.7C h=61.7% 403.00MHz Type=RS41-SGP Details on http://radiosondy.info
EA4EKH-11U02205662022-12-06 13:42:5640.3941-2.7225413294080Clb=-3.8m/s t=-7.0C h=60.8% p=617.0hPa 403.000 MHz Type=RS41-SGP ser=U0220566 Radiosonde
EA4CP-14U02205662022-12-06 13:42:4640.3943-2.72277150194120Clb=-3.5m/s p=613.7hPa t=-7.2C h=63.5% 403.00MHz Type=RS41-SGP batt=2.7V Details on http://radiosondy.info
EA4CP-14U02205662022-12-06 13:42:3040.395-2.72332145244182Clb=-3.7m/s p=608.8hPa t=-7.7C h=65.6% 403.00MHz Type=RS41-SGP Details on http://radiosondy.info
EA4EKH-11U02205662022-12-06 13:42:2540.3953-2.7236134264201Clb=-3.7m/s t=-7.9C h=63.9% p=607.5hPa 403.000 MHz Type=RS41-SGP ser=U0220566 Radiosonde
EA4CP-14U02205662022-12-06 13:42:1440.3956-2.72432121204244Clb=-3.6m/s p=604.1hPa t=-8.3C h=67.4% 403.00MHz Type=RS41-SGP Details on http://radiosondy.info
EA4CP-14U02205662022-12-06 13:41:5740.3963-2.72501134304310Clb=-4.1m/s p=598.8hPa t=-8.9C h=70.4% 403.00MHz Type=RS41-SGP batt=2.6V Details on http://radiosondy.info
EA4EKH-11U02205662022-12-06 13:41:5440.3965-2.72525124304322Clb=-4.1m/s t=-9.0C h=68.3% p=598.1hPa 403.000 MHz Type=RS41-SGP ser=U0220566 Radiosonde
EA4CP-14U02205662022-12-06 13:41:4240.3969-2.72626115224371Clb=-4.2m/s p=594.2hPa t=-9.2C h=69.9% 403.00MHz Type=RS41-SGP TxOff=7h38m Details on http://radiosondy.info
EA4CP-14U02205662022-12-06 13:41:2640.3972-2.72732118194438Clb=-4.1m/s p=589.1hPa t=-9.8C h=72.4% 403.00MHz Type=RS41-SGP Details on http://radiosondy.info
EA4EKH-11U02205662022-12-06 13:41:2340.3972-2.72747124174450Clb=-4.1m/s t=-9.9C h=69.6% p=588.2hPa 403.000 MHz Type=RS41-SGP ser=U0220566 Radiosonde
EA4CP-14U02205662022-12-06 13:41:1040.3975-2.7281130174503Clb=-4.0m/s p=584.2hPa t=-10.2C h=73.0% 403.00MHz Type=RS41-SGP batt=2.7V Details on http://radiosondy.info
EA4CP-14U02205662022-12-06 13:40:5540.398-2.72871136194569Clb=-4.0m/s p=579.2hPa t=-10.5C h=68.8% 403.00MHz Type=RS41-SGP Details on http://radiosondy.info
EA4EKH-11U02205662022-12-06 13:40:5240.3981-2.72878138154577Clb=-4.1m/s t=-10.6C h=65.8% p=578.7hPa 403.000 MHz Type=RS41-SGP ser=U0220566 Radiosonde
EA4CP-14U02205662022-12-06 13:40:3940.3987-2.72916153264630Clb=-4.0m/s p=574.6hPa t=-10.7C h=66.0% 403.00MHz Type=RS41-SGP Details on http://radiosondy.info
EA4CP-14U02205662022-12-06 13:40:2440.3994-2.73004128154695Clb=-3.9m/s p=569.7hPa t=-11.2C h=67.9% 403.00MHz Type=RS41-SGP batt=2.7V Details on http://radiosondy.info
EA4EKH-11U02205662022-12-06 13:40:2240.3995-2.73015142154707Clb=-4.3m/s t=-11.4C h=65.1% p=568.9hPa 403.000 MHz Type=RS41-SGP ser=U0220566 Radiosonde
EA4CP-14U02205662022-12-06 13:40:1140.3999-2.73038168174762Clb=-4.1m/s p=564.9hPa t=-11.6C h=65.0% 403.00MHz Type=RS41-SGP Details on http://radiosondy.info
EA4CP-14U02205662022-12-06 13:39:5240.4006-2.73034180244823Clb=-4.1m/s p=560.3hPa t=-12.0C h=63.9% 403.00MHz Type=RS41-SGP Details on http://radiosondy.info
EA4EKH-11U02205662022-12-06 13:39:5040.4007-2.73035176244835Clb=-3.9m/s t=-12.2C h=61.1% p=559.5hPa 403.000 MHz Type=RS41-SGP ser=U0220566 Radiosonde
EA4CP-14U02205662022-12-06 13:39:3640.4015-2.73036170204889Clb=-4.1m/s p=555.4hPa t=-12.4C h=64.2% 403.00MHz Type=RS41-SGP TxOff=7h40m batt=2.7V Details on http://radiosondy.info
EA4CP-14U02205662022-12-06 13:39:2140.4023-2.7306315794952Clb=-4.3m/s p=550.9hPa t=-12.7C h=57.8% 403.00MHz Type=RS41-SGP Details on http://radiosondy.info
EA4EKH-11U02205662022-12-06 13:39:1940.4024-2.73068153114965Clb=-4.3m/s t=-12.8C h=52.4% p=550.2hPa 403.000 MHz Type=RS41-SGP ser=U0220566 Radiosonde
EA4CP-14U02205662022-12-06 13:39:0640.4026-2.73069205135015Clb=-4.2m/s p=546.5hPa t=-13.0C h=54.3% 403.00MHz Type=RS41-SGP Details on http://radiosondy.info
EA4CP-14U02205662022-12-06 13:38:5140.403-2.73042210115080Clb=-4.4m/s p=541.8hPa t=-13.2C h=51.9% 403.00MHz Type=RS41-SGP batt=2.6V Details on http://radiosondy.info
EA4EKH-11U02205662022-12-06 13:38:4840.4032-2.73035206115098Clb=-4.7m/s t=-13.4C h=49.9% p=540.6hPa 403.000 MHz Type=RS41-SGP ser=U0220566 Radiosonde
EA4CP-14U02205662022-12-06 13:38:3540.4034-2.7301423665152Clb=-4.3m/s p=536.8hPa t=-13.7C h=51.2% 403.00MHz Type=RS41-SGP Details on http://radiosondy.info
EA4CP-14U02205662022-12-06 13:38:1940.4035-2.7298726765226Clb=-4.4m/s p=531.6hPa t=-14.3C h=52.1% 403.00MHz Type=RS41-SGP Details on http://radiosondy.info
EA4EKH-11U02205662022-12-06 13:38:1740.4035-2.7298227465240Clb=-4.5m/s t=-14.5C h=50.0% p=530.7hPa 403.000 MHz Type=RS41-SGP ser=U0220566 Radiosonde
EA4CP-14U02205662022-12-06 13:38:0240.4035-2.72961445305Clb=-4.4m/s p=526.0hPa t=-15.1C h=53.5% 403.00MHz Type=RS41-SGP batt=2.6V Details on http://radiosondy.info
EA4CP-14U02205662022-12-06 13:37:4740.4035-2.729522265368Clb=-4.4m/s p=521.7hPa t=-15.4C h=52.8% 403.00MHz Type=RS41-SGP Details on http://radiosondy.info
EA4EKH-11U02205662022-12-06 13:37:4640.4035-2.7294821025377Clb=-4.3m/s t=-15.6C h=50.3% p=520.9hPa 403.000 MHz Type=RS41-SGP ser=U0220566 Radiosonde
EA4CP-14U02205662022-12-06 13:37:3140.4036-2.7295915495433Clb=-3.5m/s p=517.0hPa t=-15.8C h=50.9% 403.00MHz Type=RS41-SGP TxOff=7h42m Details on http://radiosondy.info
EA4CP-14U02205662022-12-06 13:37:1540.4039-2.72996140205496Clb=-4.0m/s p=512.8hPa t=-16.0C h=49.8% 403.00MHz Type=RS41-SGP batt=2.6V Details on http://radiosondy.info
EA4CP-14U02205662022-12-06 13:37:0140.4044-2.7306132225556Clb=-4.0m/s p=508.7hPa t=-16.2C h=47.8% 403.00MHz Type=RS41-SGP Details on http://radiosondy.info
EA4CP-14U02205662022-12-06 13:36:4440.4051-2.73141139245623Clb=-4.3m/s p=504.2hPa t=-16.8C h=46.8% 403.00MHz Type=RS41-SGP Details on http://radiosondy.info
EA4EKH-11U02205662022-12-06 13:36:4340.4051-2.73146137225627Clb=-4.2m/s t=-16.9C h=44.2% p=504.0hPa 403.000 MHz Type=RS41-SGP ser=U0220566 Radiosonde
EA4CP-14U02205662022-12-06 13:36:2840.4057-2.73244122245689Clb=-3.8m/s p=499.8hPa t=-17.4C h=47.1% 403.00MHz Type=RS41-SGP batt=2.6V Details on http://radiosondy.info
EA4EKH-11U02205662022-12-06 13:36:1240.4062-2.73341111245757Clb=-4.1m/s t=-18.0C h=45.6% p=495.5hPa 403.000 MHz Type=RS41-SGP ser=U0220566 Radiosonde
EA4CP-14U02205662022-12-06 13:36:0940.4063-2.73363108175770Clb=-4.1m/s p=494.6hPa t=-18.0C h=48.1% 403.00MHz Type=RS41-SGP Details on http://radiosondy.info
EA4CP-14U02205662022-12-06 13:35:5440.4063-2.73438109175829Clb=-4.1m/s p=490.6hPa t=-18.5C h=47.4% 403.00MHz Type=RS41-SGP Details on http://radiosondy.info
EA4EKH-11U02205662022-12-06 13:35:4240.4067-2.73491117265882Clb=-4.0m/s t=-19.0C h=44.9% p=487.2hPa 403.000 MHz Type=RS41-SGP ser=U0220566 Radiosonde
EA4CP-14U02205662022-12-06 13:35:3940.4068-2.73515103175894Clb=-3.7m/s p=486.4hPa t=-19.1C h=47.8% 403.00MHz Type=RS41-SGP batt=2.6V Details on http://radiosondy.info
EA4CP-14U02205662022-12-06 13:35:2440.407-2.73579138245948Clb=-3.9m/s p=482.8hPa t=-19.3C h=43.9% 403.00MHz Type=RS41-SGP TxOff=7h44m Details on http://radiosondy.info
EA4EKH-11U02205662022-12-06 13:35:1140.4072-2.7367798136005Clb=-4.0m/s t=-19.9C h=40.4% p=479.3hPa 403.000 MHz Type=RS41-SGP ser=U0220566 Radiosonde
EA4CP-14U02205662022-12-06 13:35:0840.4073-2.73685114226013Clb=-3.7m/s p=478.6hPa t=-19.9C h=43.1% 403.00MHz Type=RS41-SGP Details on http://radiosondy.info
EA4CP-14U02205662022-12-06 13:34:5240.4077-2.7378397206077Clb=-3.8m/s p=474.7hPa t=-20.3C h=40.2% 403.00MHz Type=RS41-SGP batt=2.6V Details on http://radiosondy.info
EA4EKH-11U02205662022-12-06 13:34:3940.408-2.73849134246131Clb=-4.0m/s t=-20.8C h=37.9% p=471.2hPa 403.000 MHz Type=RS41-SGP ser=U0220566 Radiosonde
EA4CP-14U02205662022-12-06 13:34:3640.4081-2.7387122226142Clb=-3.8m/s p=470.5hPa t=-20.9C h=40.9% 403.00MHz Type=RS41-SGP Details on http://radiosondy.info
EA4CP-14U02205662022-12-06 13:34:2040.4084-2.73967145266206Clb=-3.6m/s p=466.3hPa t=-21.5C h=42.0% 403.00MHz Type=RS41-SGP Details on http://radiosondy.info
EA4EKH-11U02205662022-12-06 13:34:0840.4089-2.74052102246255Clb=-4.0m/s t=-22.0C h=40.0% p=463.3hPa 403.000 MHz Type=RS41-SGP ser=U0220566 Radiosonde
EA4CP-14U02205662022-12-06 13:34:0440.4089-2.7408103196271Clb=-3.7m/s p=462.3hPa t=-22.1C h=43.5% 403.00MHz Type=RS41-SGP batt=2.6V Details on http://radiosondy.info
EA4GBR-10U02205662022-12-06 13:34:0240.4089-2.74085110176275Clb=-4.0m/s p=462.0hPa t=-22.2C h=40.7% 403.000MHz Type=RS41-SGP rdzTTGOsonde
EA4CP-14U02205662022-12-06 13:33:4940.4094-2.74154122226331Clb=-4.2m/s p=458.4hPa t=-22.7C h=44.9% 403.00MHz Type=RS41-SGP Details on http://radiosondy.info
EA4GBR-10U02205662022-12-06 13:33:3740.4097-2.74227145156380Clb=-4.2m/s p=455.5hPa t=-23.2C h=43.2% 403.000MHz Type=RS41-SGP rdzTTGOsonde
EA4CP-14U02205662022-12-06 13:33:3440.4098-2.74236147266392Clb=-4.0m/s p=454.6hPa t=-23.2C h=46.8% 403.00MHz Type=RS41-SGP Details on http://radiosondy.info
EA4CP-14U02205662022-12-06 13:33:1840.4103-2.74342124226457Clb=-4.0m/s p=450.7hPa t=-23.8C h=48.6% 403.00MHz Type=RS41-SGP TxOff=7h47m batt=2.5V Details on http://radiosondy.info
EA4GBR-10U02205662022-12-06 13:33:1440.4104-2.7436138206473Clb=-3.9m/s p=449.7hPa t=-24.0C h=45.8% 403.000MHz Type=RS41-SGP TxOff=7h47m rdzTTGOsonde
EA4EKH-11U02205662022-12-06 13:33:0640.4108-2.74397137266506Clb=-4.4m/s t=-24.3C h=45.1% p=447.7hPa 403.000 MHz Type=RS41-SGP ser=U0220566 Radiosonde
EA4CP-14U02205662022-12-06 13:33:0240.411-2.74426124306524Clb=-4.1m/s p=446.6hPa t=-24.4C h=48.7% 403.00MHz Type=RS41-SGP Details on http://radiosondy.info
EA4GBR-10U02205662022-12-06 13:32:5240.4112-2.74515103306563Clb=-4.1m/s p=444.4hPa t=-24.8C h=46.4% 403.000MHz Type=RS41-SGP TxOff=7h47m rdzTTGOsonde
EA4CP-14U02205662022-12-06 13:32:4640.4113-2.74566121306592Clb=-3.9m/s p=442.5hPa t=-24.8C h=43.2% 403.00MHz Type=RS41-SGP Details on http://radiosondy.info
EA4EKH-11U02205662022-12-06 13:32:3540.4118-2.74662114376643Clb=-4.3m/s t=-25.1C h=35.7% p=439.6hPa 403.000 MHz Type=RS41-SGP ser=U0220566 Radiosonde
EA4GBR-10U02205662022-12-06 13:32:3040.4119-2.74708106376660Clb=-4.4m/s p=438.6hPa t=-25.2C h=35.8% 403.000MHz Type=RS41-SGP rdzTTGOsonde
EA4CP-14U02205662022-12-06 13:32:1340.4123-2.74858121336734Clb=-4.3m/s p=434.0hPa t=-25.8C h=39.8% 403.00MHz Type=RS41-SGP Details on http://radiosondy.info
EA4GBR-10U02205662022-12-06 13:32:0840.4124-2.74897124316758Clb=-4.4m/s p=432.7hPa t=-26.0C h=36.6% 403.000MHz Type=RS41-SGP rdzTTGOsonde
EA4EKH-11U02205662022-12-06 13:32:0440.4127-2.74948111376781Clb=-4.4m/s t=-26.2C h=35.3% p=431.2hPa 403.000 MHz Type=RS41-SGP ser=U0220566 Radiosonde
EA4CP-14U02205662022-12-06 13:31:5740.4128-2.75018100396807Clb=-4.5m/s p=429.7hPa t=-26.4C h=36.9% 403.00MHz Type=RS41-SGP Details on http://radiosondy.info
EA4GBR-10U02205662022-12-06 13:31:4540.4131-2.75151104396856Clb=-4.0m/s p=426.7hPa t=-26.9C h=35.8% 403.000MHz Type=RS41-SGP rdzTTGOsonde
EA4CP-14U02205662022-12-06 13:31:4140.4131-2.752191266875Clb=-3.9m/s p=425.7hPa t=-27.1C h=39.7% 403.00MHz Type=RS41-SGP batt=2.6V Details on http://radiosondy.info
EA4EKH-11U02205662022-12-06 13:31:3340.4132-2.75283116226915Clb=-4.3m/s t=-27.5C h=36.9% p=423.3hPa 403.000 MHz Type=RS41-SGP ser=U0220566 Radiosonde
EA4CP-14U02205662022-12-06 13:31:2540.4135-2.75336125376947Clb=-4.1m/s p=421.4hPa t=-27.7C h=41.1% 403.00MHz Type=RS41-SGP Details on http://radiosondy.info
EA4GBR-10U02205662022-12-06 13:31:2340.4135-2.75345122376952Clb=-4.5m/s p=421.2hPa t=-27.8C h=38.0% 403.000MHz Type=RS41-SGP rdzTTGOsonde
EA4CP-14U02205662022-12-06 13:31:1040.4138-2.7550794307014Clb=-4.5m/s p=417.5hPa t=-28.5C h=42.0% 403.00MHz Type=RS41-SGP TxOff=7h49m Details on http://radiosondy.info
EA4EKH-11U02205662022-12-06 13:31:0240.4138-2.75690267054Clb=-4.1m/s t=-28.8C h=37.3% p=415.2hPa 403.000 MHz Type=RS41-SGP ser=U0220566 Radiosonde
EA4GBR-10U02205662022-12-06 13:31:0140.4138-2.7559991287054Clb=-4.1m/s p=415.2hPa t=-28.8C h=37.3% 403.000MHz Type=RS41-SGP rdzTTGOsonde
EA4CP-14U02205662022-12-06 13:30:5540.4139-2.75647106307080Clb=-3.9m/s p=413.6hPa t=-29.0C h=40.3% 403.00MHz Type=RS41-SGP batt=2.6V Details on http://radiosondy.info
EA4CP-14U02205662022-12-06 13:30:3940.4144-2.75792107397149Clb=-4.2m/s p=409.7hPa t=-29.5C h=38.3% 403.00MHz Type=RS41-SGP Details on http://radiosondy.info
EA4GBR-10U02205662022-12-06 13:30:3740.4144-2.75805105397154Clb=-4.2m/s p=409.5hPa t=-29.6C h=34.5% 403.000MHz Type=RS41-SGP TxOff=7h50m rdzTTGOsonde
EA4EKH-11U02205662022-12-06 13:30:3140.4145-2.7590690377188Clb=-4.2m/s t=-29.9C h=33.1% p=407.4hPa 403.000 MHz Type=RS41-SGP ser=U0220566 Radiosonde
EA4CP-14U02205662022-12-06 13:30:2440.4145-2.7597785357215Clb=-4.1m/s p=405.8hPa t=-30.0C h=32.3% 403.00MHz Type=RS41-SGP Details on http://radiosondy.info
EA4GBR-10U02205662022-12-06 13:30:1640.4144-2.7607185377250Clb=-4.5m/s p=403.9hPa t=-30.3C h=27.9% 403.000MHz Type=RS41-SGP TxOff=7h50m rdzTTGOsonde
EA4CP-14U02205662022-12-06 13:30:1140.4143-2.7615786287285Clb=-4.4m/s p=401.9hPa t=-30.5C h=31.2% 403.00MHz Type=RS41-SGP batt=2.5V Details on http://radiosondy.info
EA4EKH-11U02205662022-12-06 13:30:0140.4143-2.762483287325Clb=-4.3m/s t=-31.0C h=29.4% p=399.7hPa 403.000 MHz Type=RS41-SGP ser=U0220566 Radiosonde
EA4GBR-10U02205662022-12-06 13:29:5240.4142-2.7629687287352Clb=-4.4m/s p=398.2hPa t=-31.2C h=29.3% 403.000MHz Type=RS41-SGP TxOff=7h51m rdzTTGOsonde
EA4CP-14U02205662022-12-06 13:29:4340.4143-2.76387105337397Clb=-4.0m/s p=395.8hPa t=-31.5C h=33.1% 403.00MHz Type=RS41-SGP Details on http://radiosondy.info
EA4GBR-10U02205662022-12-06 13:29:3240.4146-2.76498106337445Clb=-4.6m/s p=393.0hPa t=-32.0C h=30.2% 403.000MHz Type=RS41-SGP TxOff=7h51m rdzTTGOsonde
EA4EKH-11U02205662022-12-06 13:29:2940.4146-2.76543104377463Clb=-4.4m/s t=-32.2C h=29.8% p=392.0hPa 403.000 MHz Type=RS41-SGP ser=U0220566 Radiosonde
EA4CP-14U02205662022-12-06 13:29:2740.4147-2.76554105397468Clb=-4.3m/s p=391.7hPa t=-32.2C h=32.9% 403.00MHz Type=RS41-SGP Details on http://radiosondy.info
EA4CP-14U02205662022-12-06 13:29:1240.415-2.7674100447535Clb=-4.3m/s p=388.0hPa t=-32.7C h=30.5% 403.00MHz Type=RS41-SGP batt=2.5V Details on http://radiosondy.info
EA4GBR-10U02205662022-12-06 13:29:0940.415-2.76782101437548Clb=-4.3m/s p=387.3hPa t=-32.9C h=27.6% 403.000MHz Type=RS41-SGP rdzTTGOsonde
EA4EKH-11U02205662022-12-06 13:28:5740.4151-2.769688447601Clb=-4.5m/s t=-33.4C h=27.8% p=384.3hPa 403.000 MHz Type=RS41-SGP ser=U0220566 Radiosonde
EA4GBR-10U02205662022-12-06 13:28:4540.4151-2.7712192467651Clb=-4.2m/s p=381.7hPa t=-33.8C h=24.7% 403.000MHz Type=RS41-SGP rdzTTGOsonde
EA4CP-14U02205662022-12-06 13:28:4240.4151-2.7718193467669Clb=-4.3m/s p=380.7hPa t=-33.8C h=26.2% 403.00MHz Type=RS41-SGP Details on http://radiosondy.info
EA4CP-14U02205662022-12-06 13:28:2640.4151-2.7742181357741Clb=-4.5m/s p=376.7hPa t=-34.4C h=24.3% 403.00MHz Type=RS41-SGP batt=2.6V Details on http://radiosondy.info
EA4GBR-10U02205662022-12-06 13:28:2440.415-2.7744780397750Clb=-4.4m/s p=376.4hPa 403.000MHz Type=RS41-SGP rdzTTGOsonde
EA4CP-14U02205662022-12-06 13:28:1240.4148-2.7758887317808Clb=-4.2m/s p=373.2hPa t=-34.9C h=22.7% 403.00MHz Type=RS41-SGP Details on http://radiosondy.info
EA4GBR-10U02205662022-12-06 13:27:5740.4149-2.77718100317866Clb=-4.6m/s p=370.1hPa 403.000MHz Type=RS41 rdzTTGOsonde
EA4CP-14U02205662022-12-06 13:27:5540.4149-2.77749100397879Clb=-4.4m/s p=369.3hPa t=-35.4C h=17.1% 403.00MHz Type=RS41-SGP Details on http://radiosondy.info
EA4CP-14U02205662022-12-06 13:27:3940.4153-2.7796499447956Clb=-4.5m/s p=365.2hPa t=-36.1C h=17.3% 403.00MHz Type=RS41-SGP batt=2.5V Details on http://radiosondy.info
EA4GBR-10U02205662022-12-06 13:27:3740.4153-2.7797999467961Clb=-4.8m/s p=365.1hPa 403.000MHz Type=RS41 rdzTTGOsonde
EA4EKH-11U02205662022-12-06 13:27:2440.4154-2.7816489338021Clb=-4.9m/s t=-36.7C h=12.5% p=361.9hPa 403.000 MHz Type=RS41-SGP ser=U0220566 Radiosonde
EA4CP-14U02205662022-12-06 13:27:2340.4154-2.7817591338026Clb=-4.7m/s p=361.6hPa t=-36.6C h=14.4% 403.00MHz Type=RS41-SGP Details on http://radiosondy.info
EA4GBR-10U02205662022-12-06 13:27:1440.4154-2.78258100318065Clb=-4.7m/s 403.000MHz Type=RS41 TxOff=7h53m rdzTTGOsonde
EA4CP-14U02205662022-12-06 13:27:0840.4155-2.7833397378097Clb=-4.6m/s p=358.0hPa t=-37.1C h=10.2% 403.00MHz Type=RS41-SGP Details on http://radiosondy.info
EA4EKH-11U02205662022-12-06 13:26:5340.4157-2.78511103378164Clb=-4.5m/s t=-36.9C h=5.3% p=354.5hPa 403.000 MHz Type=RS41-SGP ser=U0220566 Radiosonde
EA4CP-14U02205662022-12-06 13:26:5240.4157-2.78523105418168Clb=-4.2m/s p=354.3hPa t=-36.9C h=6.8% 403.00MHz Type=RS41-SGP TxOff=7h53m batt=2.5V Details on http://radiosondy.info
EA4CP-14U02205662022-12-06 13:26:3640.4163-2.78728112488242Clb=-4.9m/s p=350.4hPa t=-37.5C h=6.2% 403.00MHz Type=RS41-SGP Details on http://radiosondy.info
EA4GBR-10U02205662022-12-06 13:26:3140.4165-2.78798114468266Clb=-4.9m/s 403.000MHz Type=RS41 rdzTTGOsonde
EA4EKH-11U02205662022-12-06 13:26:2240.4169-2.78931109468307Clb=-4.7m/s t=-38.2C h=4.9% p=347.1hPa 403.000 MHz Type=RS41-SGP ser=U0220566 Radiosonde
EA4CP-14U02205662022-12-06 13:26:2040.417-2.78959107528317Clb=-4.5m/s p=346.6hPa t=-38.3C h=6.6% 403.00MHz Type=RS41-SGP Details on http://radiosondy.info
EA4GBR-10U02205662022-12-06 13:26:0940.4174-2.79126110568368Clb=-5.3m/s 403.000MHz Type=RS41 rdzTTGOsonde
EA4CP-14U02205662022-12-06 13:26:0540.4176-2.79199109638387Clb=-4.6m/s p=343.1hPa t=-38.9C h=7.6% 403.00MHz Type=RS41-SGP batt=2.6V Details on http://radiosondy.info
EA4EKH-11U02205662022-12-06 13:25:5140.4183-2.79472103638453Clb=-4.9m/s t=-39.5C h=6.8% p=339.8hPa 403.000 MHz Type=RS41-SGP ser=U0220566 Radiosonde
EA4CP-14U02205662022-12-06 13:25:4940.4184-2.79512103658462Clb=-4.5m/s p=339.4hPa t=-39.6C h=8.8% 403.00MHz Type=RS41-SGP Details on http://radiosondy.info
EA4CP-14U02205662022-12-06 13:25:3740.4188-2.7982497548533Clb=-4.9m/s p=335.9hPa t=-40.1C h=10.3% 403.00MHz Type=RS41-SGP Details on http://radiosondy.info
EA4GBR-10U02205662022-12-06 13:25:2440.419-2.800796488601Clb=-5.1m/s 403.000MHz Type=RS41 rdzTTGOsonde
EA4CP-14U02205662022-12-06 13:25:2040.419-2.8010197448611Clb=-4.6m/s p=332.2hPa t=-40.7C h=9.5% 403.00MHz Type=RS41-SGP batt=2.6V Details on http://radiosondy.info
EA4CP-14U02205662022-12-06 13:25:0340.4193-2.80332102448686Clb=-4.5m/s p=328.4hPa t=-41.2C h=10.1% 403.00MHz Type=RS41-SGP Details on http://radiosondy.info
EA4GBR-10U02205662022-12-06 13:24:5140.4196-2.8049107468737Clb=-4.7m/s p=326.1hPa t=-41.6C h=8.3% 403.000MHz Type=RS41-SGP TxOff=7h56m rdzTTGOsonde
EA4EKH-11U02205662022-12-06 13:24:5040.4197-2.80533106448752Clb=-4.7m/s t=-41.8C h=8.4% p=325.4hPa 403.000 MHz Type=RS41-SGP ser=U0220566 Radiosonde
EA4CP-14U02205662022-12-06 13:24:4740.4197-2.80547108488757Clb=-4.5m/s p=325.1hPa t=-41.7C h=10.7% 403.00MHz Type=RS41-SGP TxOff=7h55m Details on http://radiosondy.info
EA4CP-14U02205662022-12-06 13:24:3340.4203-2.80791110508833Clb=-4.6m/s p=321.5hPa t=-42.5C h=11.0% 403.00MHz Type=RS41-SGP batt=2.5V Details on http://radiosondy.info
EA4GBR-10U02205662022-12-06 13:24:2340.4206-2.80909108508870Clb=-4.5m/s p=319.8hPa t=-42.8C h=8.5% 403.000MHz Type=RS41-SGP TxOff=7h56m rdzTTGOsonde
EA4EKH-11U02205662022-12-06 13:24:1840.4208-2.81026104528902Clb=-4.5m/s t=-43.1C h=8.3% p=318.2hPa 403.000 MHz Type=RS41-SGP ser=U0220566 Radiosonde
EA4CP-14U02205662022-12-06 13:24:1640.4208-2.81026105508902Clb=-4.5m/s p=318.2hPa t=-43.0C h=10.7% 403.00MHz Type=RS41-SGP Details on http://radiosondy.info
EA4CP-14U02205662022-12-06 13:24:0340.4215-2.8126107528971Clb=-4.7m/s p=314.9hPa t=-43.4C h=11.1% 403.00MHz Type=RS41-SGP Details on http://radiosondy.info
EA4GBR-10U02205662022-12-06 13:24:0040.4215-2.81277108528975Clb=-4.6m/s p=314.8hPa t=-43.5C h=8.6% 403.000MHz Type=RS41-SGP TxOff=7h57m rdzTTGOsonde
EA4EKH-11U02205662022-12-06 13:23:4740.422-2.81502107509039Clb=-4.5m/s t=-43.7C h=8.0% p=311.9hPa 403.000 MHz Type=RS41-SGP ser=U0220566 Radiosonde
EA4CP-14U02205662022-12-06 13:23:4640.4221-2.81518108529043Clb=-4.4m/s p=311.5hPa t=-43.7C h=10.5% 403.00MHz Type=RS41-SGP batt=2.5V Details on http://radiosondy.info
EA4GBR-10U02205662022-12-06 13:23:3840.4223-2.81634105549075Clb=-4.5m/s p=310.2hPa t=-43.9C h=7.9% 403.000MHz Type=RS41-SGP TxOff=7h57m rdzTTGOsonde
EA1JAY-16U02205662022-12-06 13:23:2440.4157-2.96825784313490Clb=-6.2m/s p=155.7hPa t=-57.2C h=2.1% 403.000MHz Type=RS41-SGP rdzTTGOsonde
EA4CP-14U02205662022-12-06 13:23:2340.4157-2.96839736513496Clb=-5.8m/s p=155.5hPa t=-57.2C h=5.2% 403.00MHz Type=RS41-SGP Details on http://radiosondy.info
EA4GBR-10U02205662022-12-06 13:23:1940.4155-2.96884665613514Clb=-6.0m/s p=155.1hPa t=-57.4C h=2.2% 403.000MHz Type=RS41-SGP rdzTTGOsonde
EA4CP-14U02205662022-12-06 13:23:0140.415-2.9718925413601Clb=-6.3m/s p=152.9hPa t=-57.0C h=5.3% 403.00MHz Type=RS41-SGP TxOff=8h10m batt=2.6V Details on http://radiosondy.info
EA4EKH-11U02205662022-12-06 13:22:5340.4148-2.97302604613653Clb=-6.6m/s t=-57.3C h=2.0% p=151.7hPa 403.000 MHz Type=RS41-SGP ser=U0220566 Radiosonde
EA4GBR-10U02205662022-12-06 13:22:5140.4148-2.97302614813653Clb=-6.6m/s p=151.7hPa t=-57.3C h=2.1% 403.000MHz Type=RS41-SGP rdzTTGOsonde
EA1JAY-16U02205662022-12-06 13:22:4940.4147-2.97331595613666Clb=-6.6m/s p=151.4hPa t=-57.4C h=2.1% 403.000MHz Type=RS41-SGP TxOff=8h11m rdzTTGOsonde
EA4CP-14U02205662022-12-06 13:22:4440.4143-2.97425685413699Clb=-6.7m/s p=150.6hPa t=-57.4C h=5.2% 403.00MHz Type=RS41-SGP Details on http://radiosondy.info
EA4GBR-10U02205662022-12-06 13:22:2140.4138-2.97658524413791Clb=-6.3m/s p=148.5hPa t=-57.8C h=2.5% 403.000MHz Type=RS41-SGP rdzTTGOsonde
EA4CP-14U02205662022-12-06 13:22:1940.4136-2.97682496513803Clb=-6.0m/s p=148.1hPa t=-57.9C h=5.8% 403.00MHz Type=RS41-SGP Details on http://radiosondy.info
EA1JAY-16U02205662022-12-06 13:22:1740.4135-2.97696505913809Clb=-6.0m/s p=148.0hPa t=-58.0C h=2.1% 403.000MHz Type=RS41-SGP TxOff=8h11m rdzTTGOsonde
EA4EKH-11U02205662022-12-06 13:22:1140.4129-2.97828677213852Clb=-6.7m/s t=-58.3C h=2.0% p=147.1hPa 403.000 MHz Type=RS41-SGP ser=U0220566 Radiosonde
EA4CP-14U02205662022-12-06 13:21:5940.4125-2.97995636313910Clb=-6.3m/s p=145.6hPa t=-58.8C h=6.2% 403.00MHz Type=RS41-SGP batt=2.6V Details on http://radiosondy.info
EA4GBR-10U02205662022-12-06 13:21:5640.4124-2.9802544613922Clb=-6.0m/s p=145.4hPa t=-58.9C h=2.3% 403.000MHz Type=RS41-SGP TxOff=8h12m rdzTTGOsonde
EA1JAY-16U02205662022-12-06 13:21:5240.4121-2.98059505713941Clb=-6.0m/s p=145.0hPa t=-59.2C h=2.2% 403.000MHz Type=RS41-SGP TxOff=8h12m rdzTTGOsonde
EA4CP-14U02205662022-12-06 13:21:4040.4111-2.9828746114010Clb=-6.5m/s p=143.4hPa t=-59.1C h=5.6% 403.00MHz Type=RS41-SGP Details on http://radiosondy.info
EA4EKH-11U02205662022-12-06 13:21:3440.4109-2.98409815714049Clb=-6.5m/s t=-59.2C h=2.3% p=142.5hPa 403.000 MHz Type=RS41-SGP ser=U0220566 Radiosonde
EA4GBR-10U02205662022-12-06 13:21:3240.4109-2.98409825914049Clb=-6.5m/s p=142.5hPa t=-59.2C h=2.3% 403.000MHz Type=RS41-SGP TxOff=8h12m rdzTTGOsonde
EA1JAY-16U02205662022-12-06 13:21:2740.4108-2.98476714814074Clb=-6.7m/s p=141.9hPa t=-59.4C h=2.4% 403.000MHz Type=RS41-SGP TxOff=8h12m rdzTTGOsonde
EA4CP-14U02205662022-12-06 13:21:2240.4105-2.98554606514108Clb=-6.5m/s p=141.1hPa t=-59.6C h=6.1% 403.00MHz Type=RS41-SGP Details on http://radiosondy.info
EA4GBR-10U02205662022-12-06 13:21:0840.41-2.98792916514180Clb=-6.3m/s p=139.6hPa t=-59.6C h=2.6% 403.000MHz Type=RS41-SGP rdzTTGOsonde
EA1JAY-16U02205662022-12-06 13:21:0240.41-2.98884954814213Clb=-6.6m/s p=138.8hPa t=-59.5C h=2.6% 403.000MHz Type=RS41-SGP rdzTTGOsonde
EA4EKH-11U02205662022-12-06 13:20:5540.41-2.9896713514252Clb=-7.0m/s t=-59.3C h=2.4% p=138.0hPa 403.000 MHz Type=RS41-SGP ser=U0220566 Radiosonde
EA4CP-14U02205662022-12-06 13:20:4240.4095-2.99131873914327Clb=-6.8m/s p=136.2hPa t=-59.1C h=6.0% 403.00MHz Type=RS41-SGP Details on http://radiosondy.info
EA1JAY-16U02205662022-12-06 13:20:3640.4095-2.99186985214348Clb=-6.6m/s p=135.9hPa t=-59.2C h=2.3% 403.000MHz Type=RS41-SGP rdzTTGOsonde
EA4CP-14U02205662022-12-06 13:20:2040.4095-2.99316655214430Clb=-6.8m/s p=134.1hPa t=-59.4C h=6.2% 403.00MHz Type=RS41-SGP Details on http://radiosondy.info
EA4EKH-11U02205662022-12-06 13:20:1440.4093-2.99386725214464Clb=-6.8m/s t=-59.3C h=2.7% p=133.4hPa 403.000 MHz Type=RS41-SGP ser=U0220566 Radiosonde
EA1JAY-16U02205662022-12-06 13:20:0240.4092-2.99458875914492Clb=-7.2m/s p=132.8hPa t=-59.0C h=2.2% 403.000MHz Type=RS41-SGP rdzTTGOsonde
EA4CP-14U02205662022-12-06 13:19:5440.4093-2.995751044414540Clb=-6.6m/s p=131.7hPa t=-59.3C h=6.2% 403.00MHz Type=RS41-SGP TxOff=8h13m batt=2.5V Details on http://radiosondy.info
EA4GBR-10U02205662022-12-06 13:19:3840.409-2.99706695914617Clb=-6.8m/s p=130.2hPa t=-59.9C h=2.3% 403.000MHz Type=RS41-SGP rdzTTGOsonde
EA1JAY-16U02205662022-12-06 13:19:3640.4089-2.99744776314630Clb=-6.7m/s p=129.9hPa t=-60.0C h=2.8% 403.000MHz Type=RS41-SGP TxOff=8h14m rdzTTGOsonde
EA4CP-14U02205662022-12-06 13:19:3140.4089-2.99805894414650Clb=-6.5m/s p=129.5hPa t=-60.1C h=6.4% 403.00MHz Type=RS41-SGP Details on http://radiosondy.info
EA4EKH-11U02205662022-12-06 13:19:2640.4089-2.99872964114677Clb=-6.8m/s t=-60.4C h=3.1% p=128.9hPa 403.000 MHz Type=RS41-SGP ser=U0220566 Radiosonde
EA4CP-14U02205662022-12-06 13:19:0840.4084-3.00035725414764Clb=-6.7m/s p=127.1hPa t=-61.0C h=6.4% 403.00MHz Type=RS41-SGP Details on http://radiosondy.info
EA1JAY-16U02205662022-12-06 13:19:0740.4084-3.00035726114764Clb=-6.7m/s p=127.1hPa t=-61.0C h=2.6% 403.000MHz Type=RS41-SGP TxOff=8h14m rdzTTGOsonde
EA4CP-14U02205662022-12-06 13:18:4740.4084-3.00302865214871Clb=-6.5m/s p=124.9hPa t=-61.6C h=7.3% 403.00MHz Type=RS41-SGP batt=2.5V Details on http://radiosondy.info
EA4EKH-11U02205662022-12-06 13:18:4540.4084-3.00324723714884Clb=-6.5m/s t=-61.8C h=3.3% p=124.7hPa 403.000 MHz Type=RS41-SGP ser=U0220566 Radiosonde
EA1JAY-16U02205662022-12-06 13:18:4340.4083-3.00349704414897Clb=-6.4m/s p=124.5hPa t=-62.0C h=3.0% 403.000MHz Type=RS41-SGP TxOff=8h14m rdzTTGOsonde
EA4CP-14U02205662022-12-06 13:18:2740.4082-3.005691093914975Clb=-6.4m/s p=122.8hPa t=-62.4C h=8.0% 403.00MHz Type=RS41-SGP Details on http://radiosondy.info
EA1JAY-16U02205662022-12-06 13:18:1640.4085-3.00669833015036Clb=-7.1m/s p=121.6hPa t=-62.7C h=3.5% 403.000MHz Type=RS41-SGP TxOff=8h14m rdzTTGOsonde
EA4GBR-10U02205662022-12-06 13:18:1240.4084-3.00702764115057Clb=-6.7m/s p=121.2hPa t=-62.7C h=3.3% 403.000MHz Type=RS41-SGP rdzTTGOsonde
EA4CP-14U02205662022-12-06 13:18:0740.4083-3.00766884615084Clb=-6.8m/s p=120.7hPa t=-62.8C h=8.3% 403.00MHz Type=RS41-SGP Details on http://radiosondy.info
EA4EKH-11U02205662022-12-06 13:18:0640.4083-3.00785925615091Clb=-6.9m/s t=-62.9C h=3.7% p=120.6hPa 403.000 MHz Type=RS41-SGP ser=U0220566 Radiosonde
EA1JAY-16U02205662022-12-06 13:17:4840.4088-3.009531203115173Clb=-6.6m/s p=119.0hPa t=-63.2C h=3.4% 403.000MHz Type=RS41-SGP TxOff=8h14m rdzTTGOsonde
EA4CP-14U02205662022-12-06 13:17:4640.4089-3.00971173015186Clb=-6.7m/s p=118.7hPa t=-63.1C h=7.5% 403.00MHz Type=RS41-SGP batt=2.5V Details on http://radiosondy.info
EA4CP-14U02205662022-12-06 13:17:2340.4089-3.011271053115296Clb=-7.1m/s p=116.6hPa t=-63.4C h=8.6% 403.00MHz Type=RS41-SGP Details on http://radiosondy.info
EA4EKH-11U02205662022-12-06 13:17:2140.4089-3.011431094815303Clb=-7.0m/s t=-63.5C h=3.8% p=116.5hPa 403.000 MHz Type=RS41-SGP ser=U0220566 Radiosonde
EA1JAY-16U02205662022-12-06 13:17:1840.409-3.01171214415317Clb=-6.8m/s p=116.2hPa t=-63.5C h=3.7% 403.000MHz Type=RS41-SGP TxOff=8h15m rdzTTGOsonde
EA4CP-14U02205662022-12-06 13:16:5840.4093-3.01264755015407Clb=-7.1m/s p=114.5hPa t=-63.6C h=9.2% 403.00MHz Type=RS41-SGP Details on http://radiosondy.info
EA1JAY-16U02205662022-12-06 13:16:4940.4093-3.013721005615456Clb=-6.8m/s p=113.6hPa t=-63.5C h=3.7% 403.000MHz Type=RS41-SGP TxOff=8h15m rdzTTGOsonde
EA4CP-14U02205662022-12-06 13:16:3940.4097-3.014961223915518Clb=-7.0m/s p=112.4hPa t=-63.3C h=8.3% 403.00MHz Type=RS41-SGP TxOff=8h15m batt=2.6V Details on http://radiosondy.info
EA4GBR-10U02205662022-12-06 13:16:3740.4097-3.015041192615526Clb=-6.8m/s p=112.3hPa t=-63.4C h=3.6% 403.000MHz Type=RS41-SGP TxOff=8h15m rdzTTGOsonde
EA1JAY-16U02205662022-12-06 13:16:2440.4096-3.01609825215598Clb=-7.2m/s p=111.0hPa t=-63.2C h=3.7% 403.000MHz Type=RS41-SGP TxOff=8h16m rdzTTGOsonde
EA4CP-14U02205662022-12-06 13:16:1940.4097-3.017021083715634Clb=-7.4m/s p=110.3hPa t=-63.2C h=8.3% 403.00MHz Type=RS41-SGP Details on http://radiosondy.info
EA4EKH-11U02205662022-12-06 13:16:0140.41-3.01869774815742Clb=-7.1m/s t=-63.4C h=3.9% p=108.4hPa 403.000 MHz Type=RS41-SGP ser=U0220566 Radiosonde
EA1JAY-16U02205662022-12-06 13:16:0040.41-3.01869794815743Clb=-7.1m/s p=108.4hPa t=-63.4C h=3.9% 403.000MHz Type=RS41-SGP TxOff=8h16m rdzTTGOsonde
EA4GBR-10U02205662022-12-06 13:15:4640.4103-3.020051282015820Clb=-7.4m/s p=107.1hPa t=-63.8C h=3.6% 403.000MHz Type=RS41-SGP rdzTTGOsonde
EA4CP-14U02205662022-12-06 13:15:4040.4103-3.02026623515857Clb=-7.3m/s p=106.4hPa t=-63.7C h=8.8% 403.00MHz Type=RS41-SGP batt=2.6V Details on http://radiosondy.info
EA1JAY-16U02205662022-12-06 13:15:3240.4101-3.0206603315895Clb=-7.7m/s p=105.8hPa t=-63.7C h=3.9% 403.000MHz Type=RS41-SGP TxOff=8h16m rdzTTGOsonde
EA4EKH-11U02205662022-12-06 13:15:1740.4101-3.021921163915972Clb=-7.7m/s t=-63.7C h=3.5% p=104.5hPa 403.000 MHz Type=RS41-SGP ser=U0220566 Radiosonde
EA4CP-14U02205662022-12-06 13:15:1540.4101-3.022031242815979Clb=-7.3m/s p=104.3hPa t=-63.6C h=8.4% 403.00MHz Type=RS41-SGP Details on http://radiosondy.info
EA1JAY-16U02205662022-12-06 13:15:0040.4104-3.02275832816055Clb=-7.6m/s p=103.1hPa t=-63.6C h=3.8% 403.000MHz Type=RS41-SGP TxOff=8h17m rdzTTGOsonde
EA4CP-14U02205662022-12-06 13:14:5340.4102-3.02329664116101Clb=-7.7m/s p=102.3hPa t=-63.6C h=8.7% 403.00MHz Type=RS41-SGP Details on http://radiosondy.info
EA1JAY-16U02205662022-12-06 13:14:3540.4102-3.025131114316207Clb=-7.5m/s p=100.6hPa t=-63.8C h=4.0% 403.000MHz Type=RS41-SGP TxOff=8h17m rdzTTGOsonde
EA4CP-14U02205662022-12-06 13:14:3340.4103-3.025391173116222Clb=-7.8m/s p=100.3hPa t=-63.8C h=8.8% 403.00MHz Type=RS41-SGP batt=2.6V Details on http://radiosondy.info
EA4GBR-10U02205662022-12-06 13:14:1840.4106-3.02632742616306Clb=-7.8m/s p=99.0hPa t=-63.7C h=3.9% 403.000MHz Type=RS41-SGP TxOff=8h17m rdzTTGOsonde
EA4CP-14U02205662022-12-06 13:14:1240.4105-3.0269864116344Clb=-7.2m/s p=98.3hPa t=-63.7C h=9.4% 403.00MHz Type=RS41-SGP Details on http://radiosondy.info
EA1JAY-16U02205662022-12-06 13:14:0940.4105-3.02723975416360Clb=-7.6m/s p=98.1hPa t=-63.7C h=3.7% 403.000MHz Type=RS41-SGP TxOff=8h18m rdzTTGOsonde
EA4EKH-11U02205662022-12-06 13:13:5540.411-3.0286981916470Clb=-8.0m/s t=-64.0C h=3.8% p=96.3hPa 403.000 MHz Type=RS41-SGP ser=U0220566 Radiosonde
EA4CP-14U02205662022-12-06 13:13:5240.411-3.02869823316470Clb=-7.9m/s p=96.3hPa t=-63.9C h=8.7% 403.00MHz Type=RS41-SGP Details on http://radiosondy.info
EA1JAY-16U02205662022-12-06 13:13:4240.4109-3.0291733516517Clb=-7.3m/s p=95.7hPa t=-64.2C h=4.1% 403.000MHz Type=RS41-SGP TxOff=8h18m rdzTTGOsonde
EA4CP-14U02205662022-12-06 13:13:2740.411-3.030451203316595Clb=-8.4m/s p=94.3hPa t=-64.5C h=9.1% 403.00MHz Type=RS41-SGP TxOff=8h18m batt=2.5V Details on http://radiosondy.info
EA4GBR-10U02205662022-12-06 13:13:2240.4111-3.030681191916619Clb=-7.5m/s p=94.1hPa t=-64.6C h=3.9% 403.000MHz Type=RS41-SGP rdzTTGOsonde
EA1JAY-16U02205662022-12-06 13:13:1140.4108-3.03124564616684Clb=-8.1m/s p=93.0hPa t=-64.4C h=3.9% 403.000MHz Type=RS41-SGP TxOff=8h18m rdzTTGOsonde
EA4EKH-11U02205662022-12-06 13:13:1040.4107-3.03152625416700Clb=-8.2m/s t=-64.5C h=3.9% p=92.8hPa 403.000 MHz Type=RS41-SGP ser=U0220566 Radiosonde
EA4CP-14U02205662022-12-06 13:13:0440.4106-3.03203803316725Clb=-7.9m/s p=92.3hPa t=-64.6C h=9.4% 403.00MHz Type=RS41-SGP Details on http://radiosondy.info
EA1JAY-16U02205662022-12-06 13:12:4140.4104-3.03345524116845Clb=-8.0m/s p=90.6hPa t=-65.0C h=3.9% 403.000MHz Type=RS41-SGP TxOff=8h19m rdzTTGOsonde
EA4CP-14U02205662022-12-06 13:12:4040.4103-3.03356574316853Clb=-7.6m/s p=90.5hPa t=-65.0C h=9.6% 403.00MHz Type=RS41-SGP Details on http://radiosondy.info
EA4GBR-10U02205662022-12-06 13:12:2440.4101-3.035211073916943Clb=-8.2m/s p=89.2hPa t=-65.3C h=3.9% 403.000MHz Type=RS41-SGP rdzTTGOsonde
EA4CP-14U02205662022-12-06 13:12:1740.4102-3.035631102816983Clb=-8.1m/s p=88.6hPa t=-65.4C h=9.2% 403.00MHz Type=RS41-SGP batt=2.5V Details on http://radiosondy.info
EA1JAY-16U02205662022-12-06 13:12:1340.4102-3.0357559917007Clb=-8.6m/s p=88.2hPa t=-65.5C h=3.7% 403.000MHz Type=RS41-SGP TxOff=8h19m rdzTTGOsonde
EA4CP-14U02205662022-12-06 13:12:0140.4097-3.03686862217115Clb=-8.3m/s p=86.6hPa t=-65.3C h=9.1% 403.00MHz Type=RS41-SGP Details on http://radiosondy.info
EA4CP-14U02205662022-12-06 13:12:0040.4096-3.03767473017246Clb=-8.0m/s p=84.8hPa t=-65.6C h=9.6% 403.00MHz Type=RS41-SGP Details on http://radiosondy.info
EA1JAY-16U02205662022-12-06 13:11:5740.4095-3.038961181717346Clb=-8.6m/s p=83.5hPa t=-65.9C h=3.6% 403.000MHz Type=RS41-SGP rdzTTGOsonde
EA4CP-14U02205662022-12-06 13:11:5640.4095-3.03911663317381Clb=-8.4m/s p=83.0hPa t=-65.5C h=8.9% 403.00MHz Type=RS41-SGP batt=2.5V Details on http://radiosondy.info
EA4EKH-11U02205662022-12-06 13:11:5440.4088-3.0399575217473Clb=-8.5m/s t=-65.3C h=3.6% p=81.8hPa 403.000 MHz Type=RS41-SGP ser=U0220566 Radiosonde
EA4GBR-10U02205662022-12-06 13:11:5340.4088-3.04005645417481Clb=-8.4m/s p=81.6hPa t=-65.2C h=3.6% 403.000MHz Type=RS41-SGP TxOff=8h20m rdzTTGOsonde
EA1JAY-16U02205662022-12-06 13:11:5240.4086-3.04083904417522Clb=-8.4m/s p=81.1hPa t=-65.4C h=3.5% 403.000MHz Type=RS41-SGP rdzTTGOsonde
EA4CP-14U02205662022-12-06 13:11:4940.408-3.04205455717632Clb=-9.0m/s p=79.6hPa t=-64.8C h=9.1% 403.00MHz Type=RS41-SGP Details on http://radiosondy.info
EA1JAY-16U02205662022-12-06 13:11:4740.4075-3.04364916117702Clb=-8.0m/s p=78.8hPa t=-64.8C h=3.2% 403.000MHz Type=RS41-SGP TxOff=8h20m rdzTTGOsonde
EA4CP-14U02205662022-12-06 13:11:4640.4076-3.0446755617761Clb=-8.4m/s p=77.9hPa t=-64.6C h=8.1% 403.00MHz Type=RS41-SGP TxOff=8h20m batt=2.5V Details on http://radiosondy.info
EA1JAY-16U02205662022-12-06 13:11:4240.4071-3.046991026717879Clb=-8.8m/s p=76.5hPa t=-64.8C h=3.1% 403.000MHz Type=RS41-SGP TxOff=8h20m rdzTTGOsonde
EA4EKH-11U02205662022-12-06 13:11:3940.4072-3.04886715017988Clb=-9.1m/s t=-65.0C h=3.2% p=75.2hPa 403.000 MHz Type=RS41-SGP ser=U0220566 Radiosonde
EA1JAY-16U02205662022-12-06 13:11:3840.4072-3.050511066518061Clb=-9.0m/s p=74.3hPa t=-64.9C h=2.9% 403.000MHz Type=RS41-SGP TxOff=8h21m rdzTTGOsonde
EA1JAY-16U02205662022-12-06 13:11:3740.4073-3.05341976718248Clb=-9.3m/s p=72.0hPa t=-65.3C h=2.9% 403.000MHz Type=RS41-SGP TxOff=8h21m rdzTTGOsonde
EA1JAY-16U02205662022-12-06 13:11:3640.4073-3.0556684818434Clb=-9.1m/s p=69.9hPa t=-65.8C h=3.1% 403.000MHz Type=RS41-SGP TxOff=8h21m rdzTTGOsonde
EA4CP-14U02205662022-12-06 13:11:3540.4072-3.05609765618462Clb=-9.3m/s p=69.5hPa t=-65.5C h=8.6% 403.00MHz Type=RS41-SGP Details on http://radiosondy.info
EA4EKH-11U02205662022-12-06 13:11:2940.4074-3.058021195018561Clb=-8.6m/s t=-64.9C h=2.6% p=68.4hPa 403.000 MHz Type=RS41-SGP ser=U0220566 Radiosonde
EA4CP-14U02205662022-12-06 13:11:2740.4077-3.058551313118597Clb=-9.0m/s p=68.0hPa t=-64.8C h=7.9% 403.00MHz Type=RS41-SGP batt=2.5V Details on http://radiosondy.info
EA1JAY-16U02205662022-12-06 13:11:2540.4079-3.058861384118625Clb=-9.1m/s p=67.7hPa t=-64.8C h=2.7% 403.000MHz Type=RS41-SGP TxOff=8h22m rdzTTGOsonde
EA4CP-14U02205662022-12-06 13:11:1440.4085-3.059581113318742Clb=-9.9m/s p=66.4hPa t=-63.9C h=7.2% 403.00MHz Type=RS41-SGP Details on http://radiosondy.info
EA4GBR-10U02205662022-12-06 13:11:0840.4085-3.05977712218780Clb=-9.4m/s p=66.1hPa t=-64.1C h=2.6% 403.000MHz Type=RS41-SGP rdzTTGOsonde
EA4EKH-11U02205662022-12-06 13:10:5940.4085-3.060581054818847Clb=-9.7m/s t=-63.7C h=2.4% p=65.3hPa 403.000 MHz Type=RS41-SGP ser=U0220566 Radiosonde
EA1JAY-16U02205662022-12-06 13:10:5740.4085-3.060581075018847Clb=-9.7m/s p=65.3hPa t=-63.7C h=2.4% 403.000MHz Type=RS41-SGP TxOff=8h22m rdzTTGOsonde
EA4CP-14U02205662022-12-06 13:10:5440.4087-3.061181323318888Clb=-9.9m/s p=64.8hPa t=-63.6C h=7.5% 403.00MHz Type=RS41-SGP Details on http://radiosondy.info
EA4CP-14U02205662022-12-06 13:10:3040.4097-3.06191003319043Clb=-9.6m/s p=63.2hPa t=-62.8C h=7.2% 403.00MHz Type=RS41-SGP TxOff=8h22m batt=2.6V Details on http://radiosondy.info
EA1JAY-16U02205662022-12-06 13:10:2840.4098-3.061991053119053Clb=-9.8m/s p=63.1hPa t=-62.8C h=2.4% 403.000MHz Type=RS41-SGP TxOff=8h23m rdzTTGOsonde
EA4EKH-11U02205662022-12-06 13:10:1240.4104-3.062921573519149Clb=-9.9m/s t=-62.5C h=2.2% p=62.2hPa 403.000 MHz Type=RS41-SGP ser=U0220566 Radiosonde
EA4CP-14U02205662022-12-06 13:10:0340.4107-3.0631881319198Clb=-9.5m/s p=61.7hPa t=-62.3C h=6.8% 403.00MHz Type=RS41-SGP Details on http://radiosondy.info
EA1JAY-16U02205662022-12-06 13:09:5240.4108-3.06294297419248Clb=-10.0m/s p=61.2hPa t=-62.5C h=2.2% 403.000MHz Type=RS41-SGP TxOff=8h23m rdzTTGOsonde
EA4CP-14U02205662022-12-06 13:09:3740.4104-3.06342682819348Clb=-10.5m/s p=60.2hPa t=-62.2C h=7.1% 403.00MHz Type=RS41-SGP Details on http://radiosondy.info
EA4GBR-10U02205662022-12-06 13:09:1740.4106-3.064421601919446Clb=-10.2m/s p=59.3hPa t=-61.8C h=2.0% 403.000MHz Type=RS41-SGP rdzTTGOsonde
EA1JAY-16U02205662022-12-06 13:09:1640.4106-3.064431691519457Clb=-10.6m/s p=59.2hPa t=-61.8C h=2.1% 403.000MHz Type=RS41-SGP TxOff=8h24m rdzTTGOsonde
EA4CP-14U02205662022-12-06 13:09:0840.4106-3.06443183119507Clb=-9.7m/s p=58.7hPa t=-61.8C h=6.4% 403.00MHz Type=RS41-SGP batt=2.6V Details on http://radiosondy.info
EA4CP-14U02205662022-12-06 13:08:4140.4107-3.065791632219669Clb=-10.4m/s p=57.1hPa t=-62.4C h=6.5% 403.00MHz Type=RS41-SGP Details on http://radiosondy.info
EA1JAY-16U02205662022-12-06 13:08:3940.4107-3.065791632219669Clb=-10.5m/s p=57.2hPa t=-62.4C h=2.1% 403.000MHz Type=RS41-SGP TxOff=8h24m rdzTTGOsonde
EA4EKH-11U02205662022-12-06 13:08:2340.4106-3.06603462219770Clb=-10.3m/s t=-62.3C h=2.2% p=56.2hPa 403.000 MHz Type=RS41-SGP ser=U0220566 Radiosonde
EA4CP-14U02205662022-12-06 13:08:1140.4104-3.06659873719843Clb=-10.3m/s p=55.5hPa t=-62.6C h=7.3% 403.00MHz Type=RS41-SGP Details on http://radiosondy.info
EA4GBR-10U02205662022-12-06 13:08:0540.4104-3.066821063719864Clb=-10.5m/s p=55.4hPa t=-62.3C h=2.2% 403.000MHz Type=RS41-SGP rdzTTGOsonde
EA1JAY-16U02205662022-12-06 13:08:0040.4105-3.067051184119885Clb=-11.0m/s p=55.3hPa t=-62.1C h=2.1% 403.000MHz Type=RS41-SGP TxOff=8h24m rdzTTGOsonde
EA4CP-14U02205662022-12-06 13:07:3940.4113-3.067512352820010Clb=-11.0m/s p=54.0hPa t=-61.5C h=6.1% 403.00MHz Type=RS41-SGP batt=2.6V Details on http://radiosondy.info
EA4GBR-10U02205662022-12-06 13:07:2440.4112-3.06772933520084Clb=-10.6m/s p=53.5hPa t=-61.8C h=2.0% 403.000MHz Type=RS41-SGP TxOff=8h25m rdzTTGOsonde
EA4EKH-11U02205662022-12-06 13:07:2240.4113-3.067971114320104Clb=-10.2m/s t=-61.8C h=2.0% p=53.3hPa 403.000 MHz Type=RS41-SGP ser=U0220566 Radiosonde
EA1JAY-16U02205662022-12-06 13:07:2040.4113-3.06811234420115Clb=-10.6m/s p=53.2hPa t=-61.8C h=2.0% 403.000MHz Type=RS41-SGP TxOff=8h25m rdzTTGOsonde
EA4CP-14U02205662022-12-06 13:07:1340.4117-3.068451742020164Clb=-9.9m/s p=52.8hPa t=-62.2C h=6.4% 403.00MHz Type=RS41-SGP Details on http://radiosondy.info
EA4CP-14U02205662022-12-06 13:06:4840.412-3.068481022820321Clb=-10.6m/s p=51.4hPa t=-62.0C h=6.6% 403.00MHz Type=RS41-SGP Details on http://radiosondy.info
EA1JAY-16U02205662022-12-06 13:06:4740.412-3.068481023020321Clb=-10.6m/s p=51.5hPa t=-62.0C h=2.0% 403.000MHz Type=RS41-SGP TxOff=8h25m rdzTTGOsonde
EA4EKH-11U02205662022-12-06 13:06:3440.4126-3.068822332220431Clb=-11.4m/s t=-62.1C h=1.9% p=50.6hPa 403.000 MHz Type=RS41-SGP ser=U0220566 Radiosonde
EA4CP-14U02205662022-12-06 13:06:2540.4124-3.0685522620498Clb=-11.2m/s p=50.0hPa t=-61.6C h=6.7% 403.00MHz Type=RS41-SGP TxOff=8h25m batt=2.6V Details on http://radiosondy.info
EA4GBR-10U02205662022-12-06 13:06:2040.4122-3.06867433520531Clb=-10.8m/s p=49.7hPa t=-61.5C h=2.0% 403.000MHz Type=RS41-SGP rdzTTGOsonde
EA1JAY-16U02205662022-12-06 13:06:1940.4122-3.06876563720542Clb=-10.8m/s p=49.7hPa t=-61.4C h=1.9% 403.000MHz Type=RS41-SGP TxOff=8h26m rdzTTGOsonde
EA4CP-14U02205662022-12-06 13:05:5140.4119-3.06985404420741Clb=-10.8m/s p=48.1hPa t=-61.1C h=6.7% 403.00MHz Type=RS41-SGP Details on http://radiosondy.info
EA4EKH-11U02205662022-12-06 13:05:4840.4116-3.07026645620773Clb=-10.8m/s t=-60.9C h=2.0% p=47.9hPa 403.000 MHz Type=RS41-SGP ser=U0220566 Radiosonde
EA4GBR-10U02205662022-12-06 13:05:4740.4116-3.07026665720773Clb=-10.8m/s p=47.9hPa t=-60.9C h=2.0% 403.000MHz Type=RS41-SGP rdzTTGOsonde
EA4CP-14U02205662022-12-06 13:05:2840.412-3.071712443320922Clb=-11.4m/s p=46.7hPa t=-60.6C h=5.7% 403.00MHz Type=RS41-SGP Details on http://radiosondy.info
EA1JAY-16U02205662022-12-06 13:05:1540.4116-3.07214754621016Clb=-12.7m/s p=46.1hPa t=-61.0C h=2.1% 403.000MHz Type=RS41-SGP TxOff=8h26m rdzTTGOsonde
EA4GBR-10U02205662022-12-06 13:05:1340.4116-3.072441014621040Clb=-11.8m/s p=45.8hPa t=-61.1C h=1.8% 403.000MHz Type=RS41-SGP rdzTTGOsonde
EA4CP-14U02205662022-12-06 13:05:0640.412-3.072861792621096Clb=-11.4m/s p=45.4hPa t=-61.3C h=6.2% 403.00MHz Type=RS41-SGP batt=2.5V Details on http://radiosondy.info
EA4EKH-11U02205662022-12-06 13:04:5940.4122-3.072772142821132Clb=-12.0m/s t=-61.2C h=1.7% p=45.2hPa 403.000 MHz Type=RS41-SGP ser=U0220566 Radiosonde
EA1JAY-16U02205662022-12-06 13:04:4440.412-3.07282583521252Clb=-12.0m/s p=44.3hPa t=-61.1C h=2.1% 403.000MHz Type=RS41-SGP TxOff=8h26m rdzTTGOsonde
EA4CP-14U02205662022-12-06 13:04:4240.4119-3.07305782221275Clb=-9.9m/s p=44.1hPa t=-61.1C h=6.1% 403.00MHz Type=RS41-SGP Details on http://radiosondy.info
EA4CP-14U02205662022-12-06 13:04:0840.412-3.07391304121487Clb=-12.1m/s p=42.6hPa t=-62.4C h=6.8% 403.00MHz Type=RS41-SGP Details on http://radiosondy.info
EA4EKH-11U02205662022-12-06 13:04:0640.4119-3.07398403721499Clb=-12.0m/s t=-62.5C h=2.0% p=42.6hPa 403.000 MHz Type=RS41-SGP ser=U0220566 Radiosonde
EA1JAY-16U02205662022-12-06 13:04:0540.4119-3.07397423721499Clb=-12.0m/s p=42.6hPa t=-62.5C h=2.0% 403.000MHz Type=RS41-SGP TxOff=8h26m rdzTTGOsonde
EA4CP-14U02205662022-12-06 13:03:4140.412-3.075451793321668Clb=-12.9m/s p=41.4hPa t=-61.8C h=6.3% 403.00MHz Type=RS41-SGP batt=2.7V Details on http://radiosondy.info
EA1JAY-16U02205662022-12-06 13:03:2440.412-3.07555603121760Clb=-13.3m/s p=40.8hPa t=-61.2C h=1.8% 403.000MHz Type=RS41-SGP TxOff=8h27m rdzTTGOsonde
EA4CP-14U02205662022-12-06 13:03:1540.4123-3.076961453321876Clb=-12.7m/s p=40.0hPa t=-61.9C h=6.0% 403.00MHz Type=RS41-SGP Details on http://radiosondy.info
EA4GBR-10U02205662022-12-06 13:03:1440.4123-3.076961456321876Clb=-12.8m/s p=40.0hPa t=-61.9C h=1.8% 403.000MHz Type=RS41-SGP rdzTTGOsonde
EA4EKH-11U02205662022-12-06 13:03:1340.4125-3.077131645621901Clb=-11.2m/s t=-62.0C h=1.8% p=39.9hPa 403.000 MHz Type=RS41-SGP ser=U0220566 Radiosonde
EA1JAY-16U02205662022-12-06 13:02:5840.4131-3.0769841922024Clb=-11.6m/s p=39.2hPa t=-62.4C h=1.9% 403.000MHz Type=RS41-SGP TxOff=8h27m rdzTTGOsonde
EA4CP-14U02205662022-12-06 13:02:5240.4132-3.077361154422072Clb=-12.5m/s p=38.8hPa t=-62.7C h=6.2% 403.00MHz Type=RS41-SGP Details on http://radiosondy.info
EA4GBR-10U02205662022-12-06 13:02:4440.4136-3.077861734622139Clb=-12.2m/s p=38.4hPa t=-63.0C h=1.8% 403.000MHz Type=RS41-SGP rdzTTGOsonde
EA4CP-14U02205662022-12-06 13:02:2940.4141-3.07721192822280Clb=-13.1m/s p=37.5hPa t=-63.5C h=6.9% 403.00MHz Type=RS41-SGP TxOff=8h27m batt=2.5V Details on http://radiosondy.info
EA1JAY-16U02205662022-12-06 13:02:2840.4141-3.07721191322281Clb=-13.1m/s p=37.5hPa t=-63.5C h=1.9% 403.000MHz Type=RS41-SGP TxOff=8h27m rdzTTGOsonde
EA4GBR-10U02205662022-12-06 13:02:1140.4144-3.077961614422409Clb=-12.7m/s p=36.8hPa t=-63.0C h=1.9% 403.000MHz Type=RS41-SGP rdzTTGOsonde
EA4CP-14U02205662022-12-06 13:01:5940.4149-3.077832563022502Clb=-12.9m/s p=36.2hPa t=-62.5C h=6.9% 403.00MHz Type=RS41-SGP Details on http://radiosondy.info
EA1JAY-16U02205662022-12-06 13:01:5340.4148-3.0777231722555Clb=-14.6m/s p=35.9hPa t=-62.0C h=2.0% 403.000MHz Type=RS41-SGP TxOff=8h28m rdzTTGOsonde
EA4EKH-11U02205662022-12-06 13:01:4140.4151-3.078671425222695Clb=-15.0m/s t=-61.1C h=1.7% p=35.1hPa 403.000 MHz Type=RS41-SGP ser=U0220566 Radiosonde
EA4CP-14U02205662022-12-06 13:01:4040.4152-3.078761543122709Clb=-14.5m/s p=35.0hPa t=-61.1C h=6.1% 403.00MHz Type=RS41-SGP Details on http://radiosondy.info
EA1JAY-16U02205662022-12-06 13:01:2340.416-3.07861167622834Clb=-12.9m/s p=34.4hPa t=-61.3C h=1.7% 403.000MHz Type=RS41-SGP TxOff=8h28m rdzTTGOsonde
EA4CP-14U02205662022-12-06 13:01:1140.416-3.079231082622925Clb=-13.8m/s p=33.8hPa t=-61.4C h=6.3% 403.00MHz Type=RS41-SGP batt=2.6V Details on http://radiosondy.info
EA1JAY-16U02205662022-12-06 13:00:4340.4167-3.079771583023169Clb=-33.2m/s p=32.8hPa t=-61.3C h=1.6% 403.000MHz Type=RS41-SGP TxOff=8h29m rdzTTGOsonde
EA4CP-14U02205662022-12-06 13:00:1440.4181-3.080081871723645Clb=-31.1m/s p=30.3hPa t=-60.0C h=5.7% 403.00MHz Type=RS41-SGP Details on http://radiosondy.info
EA4GBR-10U02205662022-12-06 13:00:1140.4181-3.080081883523645Clb=-31.2m/s p=30.4hPa t=-60.0C h=1.5% 403.000MHz Type=RS41-SGP rdzTTGOsonde
EA1JAY-16U02205662022-12-06 12:59:5940.4184-3.080021922023772Clb=-31.0m/s p=29.8hPa t=-59.9C h=1.5% 403.000MHz Type=RS41-SGP TxOff=8h29m rdzTTGOsonde
EA4EKH-11U02205662022-12-06 12:59:4140.4188-3.080021831924124Clb=-32.0m/s t=-59.4C h=1.4% p=28.1hPa 403.000 MHz Type=RS41-SGP ser=U0220566 Radiosonde
EA4CP-14U02205662022-12-06 12:59:3840.4188-3.080011911924155Clb=-31.4m/s p=27.9hPa t=-59.1C h=5.3% 403.00MHz Type=RS41-SGP batt=2.6V Details on http://radiosondy.info
EA1JAY-16U02205662022-12-06 12:59:1940.4191-3.07985201924376Clb=-25.7m/s p=26.9hPa t=-59.0C h=1.5% 403.000MHz Type=RS41-SGP TxOff=8h29m rdzTTGOsonde
EA4CP-14U02205662022-12-06 12:59:0340.4195-3.07981781924575Clb=-28.0m/s p=26.0hPa t=-59.9C h=5.7% 403.00MHz Type=RS41-SGP Details on http://radiosondy.info
EA1JAY-16U02205662022-12-06 12:58:3840.4201-3.08011741324899Clb=-22.6m/s p=24.7hPa t=-59.4C h=1.5% 403.000MHz Type=RS41-SGP rdzTTGOsonde
EA4EKH-11U02205662022-12-06 12:58:3740.4201-3.080091921124945Clb=-22.2m/s t=-59.6C h=1.6% p=24.6hPa 403.000 MHz Type=RS41-SGP ser=U0220566 Radiosonde
EA4CP-14U02205662022-12-06 12:58:3240.4202-3.080071971324992Clb=-25.0m/s p=24.3hPa t=-59.7C h=5.8% 403.00MHz Type=RS41-SGP Details on http://radiosondy.info
EA1JAY-16U02205662022-12-06 12:57:5140.4208-3.080611742225396Clb=-22.8m/s p=22.9hPa t=-58.2C h=1.4% 403.000MHz Type=RS41-SGP rdzTTGOsonde
EA4GBR-10U02205662022-12-06 12:57:4440.421-3.080641692225482Clb=-20.7m/s p=22.6hPa t=-58.3C h=1.4% 403.000MHz Type=RS41-SGP rdzTTGOsonde
EA4CP-14U02205662022-12-06 12:57:4040.4212-3.080731443025543Clb=-19.8m/s p=22.3hPa t=-58.2C h=5.2% 403.00MHz Type=RS41-SGP TxPastBurst=8h30m batt=2.6V Details on http://radiosondy.info
EA4EKH-11U02205662022-12-06 12:57:3140.4215-3.081051423025649Clb=-17.4m/s t=-58.2C h=1.4% p=22.0hPa 403.000 MHz Type=RS41-SGP ser=U0220566 Radiosonde
EA1JAY-16U02205662022-12-06 12:57:1240.4217-3.0818873925782Clb=-20.1m/s p=21.5hPa t=-58.0C h=1.4% 403.000MHz Type=RS41-SGP rdzTTGOsonde
EA4CP-14U02205662022-12-06 12:57:0740.4216-3.08215813325843Clb=-15.7m/s 403.00MHz Type=RS41-SGP Details on http://radiosondy.info
EA4GBR-10U02205662022-12-06 12:57:0140.4216-3.08244813025876Clb=1.4m/s p=21.2hPa t=-56.7C h=1.2% 403.000MHz Type=RS41-SGP rdzTTGOsonde
EA4CP-14U02205662022-12-06 12:56:4040.4215-3.0839923525812Clb=5.8m/s p=21.3hPa t=-57.8C h=4.8% 403.00MHz Type=RS41-SGP Details on http://radiosondy.info
EA1JAY-16U02205662022-12-06 12:56:3640.4215-3.08413903525802Clb=4.1m/s p=21.4hPa t=-58.1C h=1.4% 403.000MHz Type=RS41-SGP rdzTTGOsonde
EA4GBR-10U02205662022-12-06 12:56:2140.4217-3.085041053725763Clb=4.8m/s p=21.5hPa t=-58.3C h=1.3% 403.000MHz Type=RS41-SGP rdzTTGOsonde
EA4CP-14U02205662022-12-06 12:56:1040.4219-3.085791133025728Clb=3.8m/s p=21.5hPa t=-58.2C h=5.4% 403.00MHz Type=RS41-SGP batt=2.7V Details on http://radiosondy.info
EA1JAY-16U02205662022-12-06 12:56:0140.4221-3.086231304125704Clb=4.7m/s p=21.7hPa t=-58.2C h=1.4% 403.000MHz Type=RS41-SGP rdzTTGOsonde
EA4CP-14U02205662022-12-06 12:55:4340.4226-3.086941612825648Clb=5.6m/s p=21.9hPa t=-57.9C h=5.2% 403.00MHz Type=RS41-SGP Details on http://radiosondy.info
EA4EKH-11U02205662022-12-06 12:55:4240.4226-3.086981543025643Clb=4.6m/s t=-57.9C h=1.4% p=21.9hPa 403.000 MHz Type=RS41-SGP ser=U0220566 Radiosonde
EA1JAY-16U02205662022-12-06 12:55:2240.4231-3.087641412625598Clb=5.0m/s p=22.1hPa t=-58.0C h=1.4% 403.000MHz Type=RS41-SGP rdzTTGOsonde
EA4CP-14U02205662022-12-06 12:55:1240.4234-3.087761802625568Clb=4.9m/s p=22.1hPa t=-58.1C h=5.1% 403.00MHz Type=RS41-SGP Details on http://radiosondy.info
EA4GBR-10U02205662022-12-06 12:54:5040.424-3.088071702225511Clb=4.6m/s p=22.4hPa t=-58.0C h=1.5% 403.000MHz Type=RS41-SGP rdzTTGOsonde
EA1JAY-16U02205662022-12-06 12:54:4240.4243-3.088111733525490Clb=4.7m/s p=22.5hPa t=-58.1C h=1.3% 403.000MHz Type=RS41-SGP rdzTTGOsonde
EA4CP-14U02205662022-12-06 12:54:1240.4253-3.088781492225391Clb=5.4m/s p=22.8hPa t=-57.8C h=4.7% 403.00MHz Type=RS41-SGP Details on http://radiosondy.info
EA4GBR-10U02205662022-12-06 12:54:1140.4253-3.088781492025391Clb=5.5m/s p=22.8hPa t=-57.8C h=1.2% 403.000MHz Type=RS41-SGP rdzTTGOsonde
EA1JAY-16U02205662022-12-06 12:54:0840.4254-3.088841552025381Clb=5.2m/s p=22.9hPa t=-58.1C h=1.2% 403.000MHz Type=RS41-SGP rdzTTGOsonde
EA4EKH-11U02205662022-12-06 12:53:5040.4259-3.089241292225322Clb=6.0m/s t=-59.4C h=1.4% p=23.1hPa 403.000 MHz Type=RS41-SGP ser=U0220566 Radiosonde
EA4CP-14U02205662022-12-06 12:53:4440.426-3.08941292225307Clb=5.8m/s p=23.1hPa t=-59.5C h=5.5% 403.00MHz Type=RS41-SGP Details on http://radiosondy.info
EA1JAY-16U02205662022-12-06 12:53:3140.4263-3.08961701925276Clb=4.5m/s p=23.3hPa t=-59.5C h=1.5% 403.000MHz Type=RS41-SGP rdzTTGOsonde
EA4GBR-10U02205662022-12-06 12:53:3040.4263-3.089611621725272Clb=5.0m/s p=23.3hPa t=-59.6C h=1.5% 403.000MHz Type=RS41-SGP rdzTTGOsonde
EA4CP-14U02205662022-12-06 12:53:1840.4266-3.090121291925231Clb=5.5m/s p=23.4hPa t=-59.2C h=5.6% 403.00MHz Type=RS41-SGP TxPastBurst=8h30m batt=2.6V Details on http://radiosondy.info
EA1JAY-16U02205662022-12-06 12:52:5540.427-3.090491471925170Clb=4.9m/s p=23.7hPa t=-58.9C h=1.3% 403.000MHz Type=RS41-SGP rdzTTGOsonde
EA4GBR-10U02205662022-12-06 12:52:5240.4271-3.090581292025160Clb=5.9m/s p=23.7hPa t=-58.9C h=1.4% 403.000MHz Type=RS41-SGP rdzTTGOsonde
EA4CP-14U02205662022-12-06 12:52:4940.4271-3.090691161325148Clb=5.0m/s p=23.7hPa t=-59.0C h=5.4% 403.00MHz Type=RS41-SGP Details on http://radiosondy.info
EA4CP-14U02205662022-12-06 12:52:1440.4275-3.09095181925069Clb=5.6m/s p=24.0hPa t=-59.4C h=5.5% 403.00MHz Type=RS41-SGP Details on http://radiosondy.info
EA1JAY-16U02205662022-12-06 12:52:1240.4275-3.090951811125069Clb=5.7m/s p=24.1hPa t=-59.4C h=1.5% 403.000MHz Type=RS41-SGP rdzTTGOsonde
EA4GBR-10U02205662022-12-06 12:52:0540.4276-3.090922011525053Clb=5.3m/s p=24.0hPa t=-59.5C h=1.5% 403.000MHz Type=RS41-SGP rdzTTGOsonde
EA4EKH-11U02205662022-12-06 12:51:4840.4278-3.09083176225008Clb=4.7m/s t=-59.4C h=1.4% p=24.2hPa 403.000 MHz Type=RS41-SGP ser=U0220566 Radiosonde
EA4CP-14U02205662022-12-06 12:51:4040.4279-3.090791881724988Clb=4.6m/s p=24.3hPa t=-59.4C h=5.5% 403.00MHz Type=RS41-SGP batt=2.7V Details on http://radiosondy.info
EA1JAY-16U02205662022-12-06 12:51:3140.4281-3.090821651924968Clb=5.2m/s p=24.4hPa t=-59.3C h=1.6% 403.000MHz Type=RS41-SGP rdzTTGOsonde
EA4GBR-10U02205662022-12-06 12:51:2040.4283-3.090961121724938Clb=4.4m/s p=24.5hPa t=-59.3C h=1.4% 403.000MHz Type=RS41-SGP rdzTTGOsonde
EA4CP-14U02205662022-12-06 12:51:0940.4284-3.091111641524909Clb=5.5m/s p=24.6hPa t=-59.0C h=5.3% 403.00MHz Type=RS41-SGP Details on http://radiosondy.info
EA1JAY-16U02205662022-12-06 12:50:5440.4287-3.091431241924864Clb=5.1m/s p=24.8hPa t=-59.4C h=1.5% 403.000MHz Type=RS41-SGP rdzTTGOsonde
EA4EKH-11U02205662022-12-06 12:50:5240.4287-3.091521281124854Clb=5.6m/s t=-59.7C h=1.4% p=24.9hPa 403.000 MHz Type=RS41-SGP ser=U0220566 Radiosonde
EA4CP-14U02205662022-12-06 12:50:4340.4288-3.091591361924834Clb=4.7m/s p=24.9hPa t=-59.6C h=5.6% 403.00MHz Type=RS41-SGP Details on http://radiosondy.info
EA4GBR-10U02205662022-12-06 12:50:3840.4289-3.091661462024826Clb=4.8m/s p=24.9hPa t=-59.5C h=1.5% 403.000MHz Type=RS41-SGP rdzTTGOsonde
EA1JAY-16U02205662022-12-06 12:50:1140.4294-3.0921741324766Clb=4.5m/s p=25.2hPa t=-60.2C h=1.5% 403.000MHz Type=RS41-SGP rdzTTGOsonde
EA4GBR-10U02205662022-12-06 12:49:5240.4302-3.092261583124717Clb=5.1m/s p=25.4hPa t=-60.0C h=1.5% 403.000MHz Type=RS41-SGP rdzTTGOsonde
EA4EKH-11U02205662022-12-06 12:49:4740.4304-3.092331702824703Clb=4.6m/s t=-59.8C h=1.5% p=25.4hPa 403.000 MHz Type=RS41-SGP ser=U0220566 Radiosonde
EA4CP-14U02205662022-12-06 12:49:3940.4307-3.09241763024682Clb=5.6m/s p=25.5hPa t=-59.8C h=5.6% 403.00MHz Type=RS41-SGP Details on http://radiosondy.info
EA1JAY-16U02205662022-12-06 12:49:2940.4311-3.092441673124664Clb=5.2m/s p=25.6hPa t=-59.8C h=1.5% 403.000MHz Type=RS41-SGP rdzTTGOsonde
EA4CP-14U02205662022-12-06 12:49:0440.4318-3.092691852224605Clb=4.4m/s p=25.8hPa t=-59.7C h=5.7% 403.00MHz Type=RS41-SGP Details on http://radiosondy.info
EA4GBR-10U02205662022-12-06 12:49:0340.4318-3.092691853124605Clb=4.4m/s p=25.8hPa t=-59.7C h=1.6% 403.000MHz Type=RS41-SGP rdzTTGOsonde
EA1JAY-16U02205662022-12-06 12:48:4440.4322-3.092791631924561Clb=5.5m/s p=26.1hPa t=-59.6C h=1.5% 403.000MHz Type=RS41-SGP rdzTTGOsonde
EA4EKH-11U02205662022-12-06 12:48:4140.4323-3.092841612424551Clb=4.4m/s t=-59.6C h=1.5% p=26.1hPa 403.000 MHz Type=RS41-SGP ser=U0220566 Radiosonde
EA4CP-14U02205662022-12-06 12:48:3040.4327-3.092851821924522Clb=4.1m/s p=26.2hPa t=-59.4C h=5.7% 403.00MHz Type=RS41-SGP TxPastBurst=8h30m batt=2.7V Details on http://radiosondy.info
EA4GBR-10U02205662022-12-06 12:48:1940.4328-3.092851651524497Clb=5.8m/s p=26.3hPa t=-59.4C h=1.5% 403.000MHz Type=RS41-SGP rdzTTGOsonde
EA1JAY-16U02205662022-12-06 12:48:0340.4332-3.092961792224462Clb=5.7m/s p=26.5hPa t=-59.1C h=1.4% 403.000MHz Type=RS41-SGP rdzTTGOsonde
EA4CP-14U02205662022-12-06 12:47:5440.4334-3.092971912024443Clb=5.7m/s p=26.5hPa t=-58.9C h=5.4% 403.00MHz Type=RS41-SGP Details on http://radiosondy.info
EA4EKH-11U02205662022-12-06 12:47:3640.4339-3.092831892024392Clb=5.6m/s t=-59.1C h=1.4% p=26.8hPa 403.000 MHz Type=RS41-SGP ser=U0220566 Radiosonde
EA4GBR-10U02205662022-12-06 12:47:3040.434-3.092821861924387Clb=5.1m/s p=26.8hPa t=-59.1C h=1.5% 403.000MHz Type=RS41-SGP rdzTTGOsonde
EA4CP-14U02205662022-12-06 12:47:2340.4341-3.09282092624368Clb=4.9m/s p=26.8hPa t=-58.9C h=5.5% 403.00MHz Type=RS41-SGP Details on http://radiosondy.info
EA1JAY-16U02205662022-12-06 12:47:1840.4342-3.092752061924359Clb=4.4m/s p=26.9hPa t=-59.0C h=1.5% 403.000MHz Type=RS41-SGP rdzTTGOsonde
EA4CP-14U02205662022-12-06 12:46:5540.4349-3.092751902224293Clb=5.1m/s p=27.1hPa t=-58.5C h=5.3% 403.00MHz Type=RS41-SGP batt=2.6V Details on http://radiosondy.info
EA4GBR-10U02205662022-12-06 12:46:4740.4352-3.092721822824272Clb=5.7m/s p=27.2hPa t=-58.6C h=1.4% 403.000MHz Type=RS41-SGP rdzTTGOsonde
EA1JAY-16U02205662022-12-06 12:46:4240.4354-3.092731712424256Clb=4.4m/s p=27.3hPa t=-58.8C h=1.4% 403.000MHz Type=RS41-SGP rdzTTGOsonde
EA4EKH-11U02205662022-12-06 12:46:3740.4356-3.092811542424240Clb=4.7m/s t=-58.7C h=1.4% p=27.4hPa 403.000 MHz Type=RS41-SGP ser=U0220566 Radiosonde
EA4CP-14U02205662022-12-06 12:46:2840.4358-3.092871721524211Clb=5.3m/s p=27.5hPa t=-59.0C h=5.3% 403.00MHz Type=RS41-SGP Details on http://radiosondy.info
EA4GBR-10U02205662022-12-06 12:46:0740.4361-3.093191551724161Clb=5.3m/s p=27.8hPa t=-59.3C h=1.5% 403.000MHz Type=RS41-SGP rdzTTGOsonde
EA1JAY-16U02205662022-12-06 12:46:0340.4362-3.09323127724151Clb=4.5m/s p=27.8hPa t=-59.4C h=1.5% 403.000MHz Type=RS41-SGP rdzTTGOsonde
EA4CP-14U02205662022-12-06 12:45:5740.4362-3.09331011124136Clb=5.0m/s p=27.8hPa t=-59.6C h=5.5% 403.00MHz Type=RS41-SGP Details on http://radiosondy.info
EA4EKH-11U02205662022-12-06 12:45:3840.4365-3.093391931124079Clb=4.6m/s t=-59.7C h=1.5% p=28.1hPa 403.000 MHz Type=RS41-SGP ser=U0220566 Radiosonde
EA4CP-14U02205662022-12-06 12:45:2240.4366-3.093471351524047Clb=4.7m/s p=28.2hPa t=-59.6C h=5.5% 403.00MHz Type=RS41-SGP batt=2.7V Details on http://radiosondy.info
EA4GBR-10U02205662022-12-06 12:45:2140.4366-3.09347136924047Clb=4.8m/s p=28.3hPa t=-59.6C h=1.5% 403.000MHz Type=RS41-SGP rdzTTGOsonde
EA4CP-14U02205662022-12-06 12:44:4540.4373-3.093541791923954Clb=4.7m/s p=28.6hPa t=-59.4C h=5.5% 403.00MHz Type=RS41-SGP Details on http://radiosondy.info
EA1JAY-16U02205662022-12-06 12:44:4040.4374-3.093522051523942Clb=5.6m/s p=28.7hPa t=-59.6C h=1.6% 403.000MHz Type=RS41-SGP rdzTTGOsonde
EA4GBR-10U02205662022-12-06 12:44:3840.4374-3.093492111723937Clb=4.8m/s p=28.8hPa t=-59.6C h=1.5% 403.000MHz Type=RS41-SGP rdzTTGOsonde
EA4EKH-11U02205662022-12-06 12:44:3240.4376-3.09341942023916Clb=5.5m/s t=-59.4C h=1.5% p=28.9hPa 403.000 MHz Type=RS41-SGP ser=U0220566 Radiosonde
EA4CP-14U02205662022-12-06 12:44:0840.4381-3.093341882623862Clb=6.0m/s p=29.1hPa t=-59.4C h=5.5% 403.00MHz Type=RS41-SGP Details on http://radiosondy.info
EA1JAY-16U02205662022-12-06 12:43:5940.4384-3.093222031923830Clb=5.2m/s p=29.2hPa t=-59.3C h=1.5% 403.000MHz Type=RS41-SGP rdzTTGOsonde
EA4EKH-11U02205662022-12-06 12:43:5840.4394-3.092921953123747Clb=6.4m/s t=-59.7C h=1.4% p=29.6hPa 403.000 MHz Type=RS41-SGP ser=U0220566 Radiosonde
EA1JAY-16U02205662022-12-06 12:43:5540.44-3.092851863923714Clb=5.2m/s p=29.8hPa t=-59.6C h=1.6% 403.000MHz Type=RS41-SGP rdzTTGOsonde
EA4CP-14U02205662022-12-06 12:43:5240.4406-3.092751913723680Clb=5.2m/s p=29.9hPa t=-59.7C h=5.5% 403.00MHz Type=RS41-SGP Details on http://radiosondy.info
EA1JAY-16U02205662022-12-06 12:43:5040.442-3.092681823723602Clb=5.0m/s p=30.4hPa t=-59.4C h=1.5% 403.000MHz Type=RS41-SGP rdzTTGOsonde
EA1JAY-16U02205662022-12-06 12:43:4940.4437-3.09251833023492Clb=4.1m/s p=30.9hPa t=-58.8C h=1.5% 403.000MHz Type=RS41-SGP rdzTTGOsonde
EA4EKH-11U02205662022-12-06 12:43:4840.4453-3.092681754623405Clb=5.6m/s t=-59.3C h=1.4% p=31.3hPa 403.000 MHz Type=RS41-SGP ser=U0220566 Radiosonde
EA1JAY-16U02205662022-12-06 12:43:4640.4459-3.09291594823378Clb=5.3m/s p=31.4hPa t=-59.4C h=1.5% 403.000MHz Type=RS41-SGP rdzTTGOsonde
EA4CP-14U02205662022-12-06 12:43:4440.4464-3.093091783923351Clb=5.4m/s p=31.5hPa t=-59.6C h=5.4% 403.00MHz Type=RS41-SGP Details on http://radiosondy.info
EA4CP-14U02205662022-12-06 12:43:3640.4478-3.093511783323275Clb=5.1m/s p=31.9hPa t=-60.8C h=5.7% 403.00MHz Type=RS41-SGP batt=2.6V Details on http://radiosondy.info
EA1JAY-16U02205662022-12-06 12:43:3540.4479-3.093511813123271Clb=4.8m/s p=32.0hPa t=-60.8C h=1.6% 403.000MHz Type=RS41-SGP rdzTTGOsonde
EA4EKH-11U02205662022-12-06 12:43:3440.4483-3.093581633723246Clb=4.7m/s t=-61.1C h=1.6% p=32.2hPa 403.000 MHz Type=RS41-SGP ser=U0220566 Radiosonde
EA4GBR-10U02205662022-12-06 12:43:3340.4485-3.093661573723237Clb=5.4m/s p=32.2hPa t=-61.0C h=1.6% 403.000MHz Type=RS41-SGP rdzTTGOsonde
EA4CP-14U02205662022-12-06 12:43:3040.449-3.093961622423203Clb=5.5m/s p=32.3hPa t=-60.9C h=6.1% 403.00MHz Type=RS41-SGP Details on http://radiosondy.info
EA1JAY-16U02205662022-12-06 12:43:2840.4494-3.094021723123175Clb=5.4m/s p=32.5hPa t=-61.4C h=1.7% 403.000MHz Type=RS41-SGP rdzTTGOsonde
EA4GBR-10U02205662022-12-06 12:43:2240.4498-3.094241712423138Clb=4.7m/s p=32.7hPa t=-61.3C h=1.6% 403.000MHz Type=RS41-SGP rdzTTGOsonde
EA4EKH-11U02205662022-12-06 12:43:1840.4505-3.094211873023099Clb=5.2m/s t=-61.2C h=1.7% p=32.9hPa 403.000 MHz Type=RS41-SGP ser=U0220566 Radiosonde
EA1JAY-16U02205662022-12-06 12:43:1240.4507-3.094151812023082Clb=5.1m/s p=33.0hPa t=-61.4C h=1.7% 403.000MHz Type=RS41-SGP rdzTTGOsonde
EA4CP-14U02205662022-12-06 12:43:0740.451-3.094211763023058Clb=3.9m/s p=33.1hPa t=-61.5C h=6.1% 403.00MHz Type=RS41-SGP TxPastBurst=8h30m batt=2.7V Details on http://radiosondy.info
EA4GBR-10U02205662022-12-06 12:43:0340.4514-3.094241803723040Clb=4.7m/s p=33.2hPa t=-61.5C h=1.7% 403.000MHz Type=RS41-SGP rdzTTGOsonde
EA1JAY-16U02205662022-12-06 12:42:4740.4522-3.094451663522991Clb=4.7m/s p=33.5hPa t=-61.5C h=1.7% 403.000MHz Type=RS41-SGP rdzTTGOsonde
EA4CP-14U02205662022-12-06 12:42:4640.4522-3.094481683022987Clb=4.3m/s p=33.4hPa t=-61.5C h=6.1% 403.00MHz Type=RS41-SGP Details on http://radiosondy.info
EA4EKH-11U02205662022-12-06 12:42:3840.4528-3.094631593122960Clb=4.9m/s t=-61.4C h=1.7% p=33.6hPa 403.000 MHz Type=RS41-SGP ser=U0220566 Radiosonde
EA4GBR-10U02205662022-12-06 12:42:3440.4529-3.09471552622951Clb=3.9m/s p=33.7hPa t=-61.3C h=1.7% 403.000MHz Type=RS41-SGP rdzTTGOsonde
EA4CP-14U02205662022-12-06 12:42:0940.4538-3.095181583322897Clb=5.1m/s p=33.9hPa t=-61.2C h=6.1% 403.00MHz Type=RS41-SGP Details on http://radiosondy.info
EA4GBR-10U02205662022-12-06 12:42:0040.4544-3.095561603322856Clb=4.9m/s p=34.2hPa t=-61.2C h=1.7% 403.000MHz Type=RS41-SGP rdzTTGOsonde
EA1JAY-16U02205662022-12-06 12:41:5940.4553-3.095961573122803Clb=4.0m/s p=34.5hPa t=-61.2C h=1.8% 403.000MHz Type=RS41-SGP rdzTTGOsonde
EA4GBR-10U02205662022-12-06 12:41:5840.4559-3.096291682222763Clb=4.3m/s p=34.7hPa t=-61.1C h=1.8% 403.000MHz Type=RS41-SGP rdzTTGOsonde
EA4CP-14U02205662022-12-06 12:41:5740.4562-3.096431532222736Clb=4.6m/s p=34.8hPa t=-61.2C h=6.1% 403.00MHz Type=RS41-SGP Details on http://radiosondy.info
EA1JAY-16U02205662022-12-06 12:41:5640.4565-3.096651551322710Clb=4.8m/s p=35.0hPa t=-61.5C h=1.7% 403.000MHz Type=RS41-SGP rdzTTGOsonde
EA4GBR-10U02205662022-12-06 12:41:5540.4569-3.096811633122674Clb=4.1m/s p=35.2hPa t=-61.9C h=1.8% 403.000MHz Type=RS41-SGP rdzTTGOsonde
EA1JAY-16U02205662022-12-06 12:41:5340.4576-3.096851732222616Clb=4.0m/s p=35.6hPa t=-62.1C h=1.8% 403.000MHz Type=RS41-SGP rdzTTGOsonde
EA4GBR-10U02205662022-12-06 12:41:5240.4581-3.096871911122566Clb=5.2m/s p=35.8hPa t=-62.8C h=1.8% 403.000MHz Type=RS41-SGP rdzTTGOsonde
EA4CP-14U02205662022-12-06 12:41:5140.4585-3.097061391322513Clb=4.0m/s p=36.1hPa t=-63.0C h=6.6% 403.00MHz Type=RS41-SGP Details on http://radiosondy.info
EA4GBR-10U02205662022-12-06 12:41:5040.4588-3.097161591922470Clb=4.1m/s p=36.4hPa t=-62.9C h=1.9% 403.000MHz Type=RS41-SGP rdzTTGOsonde
EA4EKH-11U02205662022-12-06 12:41:4940.4593-3.097091661522404Clb=4.1m/s t=-62.9C h=1.9% p=36.8hPa 403.000 MHz Type=RS41-SGP ser=U0220566 Radiosonde
EA4CP-14U02205662022-12-06 12:41:4840.4604-3.096842012022290Clb=3.7m/s p=37.4hPa t=-63.5C h=6.9% 403.00MHz Type=RS41-SGP Details on http://radiosondy.info
EA1JAY-16U02205662022-12-06 12:41:4740.4608-3.096672053022250Clb=3.5m/s p=37.7hPa t=-63.4C h=2.1% 403.000MHz Type=RS41-SGP rdzTTGOsonde
EA4GBR-10U02205662022-12-06 12:41:4640.4616-3.096531883122190Clb=4.7m/s p=38.1hPa t=-63.1C h=2.0% 403.000MHz Type=RS41-SGP rdzTTGOsonde
EA1JAY-16U02205662022-12-06 12:41:4540.462-3.096451702022160Clb=4.6m/s p=38.3hPa t=-62.7C h=1.9% 403.000MHz Type=RS41-SGP rdzTTGOsonde
EA4EKH-11U02205662022-12-06 12:41:4440.4625-3.09661742622131Clb=3.8m/s t=-62.6C h=1.9% p=38.5hPa 403.000 MHz Type=RS41-SGP ser=U0220566 Radiosonde
EA4GBR-10U02205662022-12-06 12:41:4140.4629-3.096641742222102Clb=3.9m/s p=38.6hPa t=-62.5C h=1.9% 403.000MHz Type=RS41-SGP rdzTTGOsonde
EA4CP-14U02205662022-12-06 12:41:4040.4632-3.096731603022085Clb=3.8m/s p=38.7hPa t=-62.5C h=6.5% 403.00MHz Type=RS41-SGP Details on http://radiosondy.info
EA1JAY-16U02205662022-12-06 12:41:3440.4634-3.096821682622072Clb=3.7m/s p=38.9hPa t=-62.3C h=2.0% 403.000MHz Type=RS41-SGP rdzTTGOsonde
EA4CP-14U02205662022-12-06 12:41:1940.4643-3.097231583022018Clb=4.5m/s p=39.1hPa t=-62.0C h=6.4% 403.00MHz Type=RS41-SGP Details on http://radiosondy.info
EA4GBR-10U02205662022-12-06 12:41:1740.4644-3.097261653022013Clb=4.2m/s p=39.2hPa t=-62.0C h=1.9% 403.000MHz Type=RS41-SGP rdzTTGOsonde
EA4EKH-11U02205662022-12-06 12:41:1640.4646-3.097321693121999Clb=3.8m/s t=-61.9C h=1.8% p=39.3hPa 403.000 MHz Type=RS41-SGP ser=U0220566 Radiosonde
EA1JAY-16U02205662022-12-06 12:41:1140.4649-3.09741562821982Clb=4.2m/s p=39.4hPa t=-62.0C h=1.9% 403.000MHz Type=RS41-SGP rdzTTGOsonde
EA4CP-14U02205662022-12-06 12:41:0540.4653-3.097841463121952Clb=4.7m/s p=39.5hPa t=-61.8C h=6.0% 403.00MHz Type=RS41-SGP batt=2.7V Details on http://radiosondy.info
EA1JAY-16U02205662022-12-06 12:40:4140.4661-3.098561323321895Clb=4.9m/s p=39.9hPa t=-61.8C h=1.9% 403.000MHz Type=RS41-SGP rdzTTGOsonde
EA4CP-14U02205662022-12-06 12:40:3940.4663-3.098721393121887Clb=3.2m/s p=39.9hPa t=-61.7C h=6.6% 403.00MHz Type=RS41-SGP Details on http://radiosondy.info
EA4EKH-11U02205662022-12-06 12:40:3140.4665-3.099041323021865Clb=4.6m/s t=-61.7C h=1.9% p=40.2hPa 403.000 MHz Type=RS41-SGP ser=U0220566 Radiosonde
EA4CP-14U02205662022-12-06 12:40:0840.4671-3.099961503021817Clb=4.6m/s p=40.4hPa t=-61.3C h=6.3% 403.00MHz Type=RS41-SGP Details on http://radiosondy.info
EA1JAY-16U02205662022-12-06 12:40:0240.4672-3.100051412421808Clb=4.2m/s p=40.5hPa t=-61.5C h=1.8% 403.000MHz Type=RS41-SGP rdzTTGOsonde
EA4GBR-10U02205662022-12-06 12:39:4440.4675-3.100861113321767Clb=4.5m/s p=40.9hPa t=-61.6C h=1.7% 403.000MHz Type=RS41-SGP rdzTTGOsonde
EA4CP-14U02205662022-12-06 12:39:3840.4676-3.101181152621749Clb=5.4m/s p=40.9hPa t=-61.5C h=6.1% 403.00MHz Type=RS41-SGP TxPastBurst=8h30m batt=2.6V Details on http://radiosondy.info
EA4EKH-11U02205662022-12-06 12:39:2840.4677-3.101611052621727Clb=4.5m/s t=-61.7C h=1.7% p=41.0hPa 403.000 MHz Type=RS41-SGP ser=U0220566 Radiosonde
EA1JAY-16U02205662022-12-06 12:39:1840.4677-3.101881043121714Clb=4.1m/s p=41.2hPa t=-61.8C h=1.7% 403.000MHz Type=RS41-SGP rdzTTGOsonde
EA4CP-14U02205662022-12-06 12:39:0040.4678-3.1025952421683Clb=3.8m/s p=41.4hPa t=-62.0C h=6.1% 403.00MHz Type=RS41-SGP Details on http://radiosondy.info
EA1JAY-16U02205662022-12-06 12:38:3340.4678-3.10347782021632Clb=4.4m/s p=41.8hPa t=-62.8C h=1.9% 403.000MHz Type=RS41-SGP rdzTTGOsonde
EA4CP-14U02205662022-12-06 12:38:2640.4677-3.10369852421616Clb=4.5m/s p=41.9hPa t=-62.9C h=6.7% 403.00MHz Type=RS41-SGP Details on http://radiosondy.info
EA4EKH-11U02205662022-12-06 12:38:1840.4677-3.10403893321585Clb=11.5m/s t=-62.8C h=1.9% p=42.0hPa 403.000 MHz Type=RS41-SGP ser=U0220566 Radiosonde
EA4CP-14U02205662022-12-06 12:37:4540.4676-3.10504732221519Clb=4.2m/s p=42.4hPa t=-62.3C h=6.5% 403.00MHz Type=RS41-SGP batt=2.6V Details on http://radiosondy.info
EA1JAY-16U02205662022-12-06 12:37:4440.4676-3.10504742221519Clb=4.2m/s p=42.5hPa t=-62.3C h=2.0% 403.000MHz Type=RS41-SGP rdzTTGOsonde
EA4GBR-10U02205662022-12-06 12:37:3340.4676-3.10538772221495Clb=4.9m/s p=42.6hPa t=-62.1C h=2.0% 403.000MHz Type=RS41-SGP rdzTTGOsonde
EA4CP-14U02205662022-12-06 12:37:1040.4674-3.10613821521444Clb=4.3m/s p=42.9hPa t=-62.1C h=6.5% 403.00MHz Type=RS41-SGP Details on http://radiosondy.info
EA4EKH-11U02205662022-12-06 12:37:0540.4674-3.10622811521435Clb=5.5m/s t=-62.1C h=1.8% p=43.0hPa 403.000 MHz Type=RS41-SGP ser=U0220566 Radiosonde
EA1JAY-16U02205662022-12-06 12:36:5740.4674-3.1064922221421Clb=5.8m/s p=43.1hPa t=-62.0C h=2.0% 403.000MHz Type=RS41-SGP rdzTTGOsonde
EA4GBR-10U02205662022-12-06 12:36:4340.4674-3.10673841321396Clb=4.4m/s p=43.3hPa t=-62.0C h=1.8% 403.000MHz Type=RS41-SGP rdzTTGOsonde
EA4CP-14U02205662022-12-06 12:36:3140.4674-3.107991721363Clb=5.6m/s p=43.5hPa t=-61.8C h=6.4% 403.00MHz Type=RS41-SGP Details on http://radiosondy.info
EA1JAY-16U02205662022-12-06 12:36:1040.4676-3.10758120921320Clb=5.5m/s p=43.9hPa t=-62.4C h=2.0% 403.000MHz Type=RS41-SGP rdzTTGOsonde
EA4GBR-10U02205662022-12-06 12:35:5940.4676-3.107661381521295Clb=4.1m/s p=44.0hPa t=-62.2C h=1.8% 403.000MHz Type=RS41-SGP rdzTTGOsonde
EA4CP-14U02205662022-12-06 12:35:5640.4677-3.107761251721285Clb=4.8m/s p=44.1hPa t=-62.2C h=6.4% 403.00MHz Type=RS41-SGP batt=2.7V Details on http://radiosondy.info
EA1JAY-16U02205662022-12-06 12:35:1940.4681-3.108341231521217Clb=4.1m/s p=44.6hPa t=-62.0C h=1.9% 403.000MHz Type=RS41-SGP rdzTTGOsonde
EA4CP-14U02205662022-12-06 12:35:1840.4681-3.108381251721213Clb=5.7m/s p=44.5hPa t=-62.0C h=6.4% 403.00MHz Type=RS41-SGP Details on http://radiosondy.info
EA4GBR-10U02205662022-12-06 12:35:1040.4682-3.108581182421197Clb=5.6m/s p=44.7hPa t=-62.1C h=1.7% 403.000MHz Type=RS41-SGP rdzTTGOsonde
EA4EKH-11U02205662022-12-06 12:34:3440.4685-3.109181102221135Clb=4.2m/s t=-62.2C h=1.9% p=45.2hPa 403.000 MHz Type=RS41-SGP ser=U0220566 Radiosonde
EA4CP-14U02205662022-12-06 12:34:3240.4685-3.109181112021135Clb=4.2m/s p=45.1hPa t=-62.1C h=6.6% 403.00MHz Type=RS41-SGP Details on http://radiosondy.info
EA1JAY-16U02205662022-12-06 12:34:2240.4686-3.109391252221121Clb=3.8m/s p=45.3hPa t=-62.0C h=2.0% 403.000MHz Type=RS41-SGP rdzTTGOsonde
EA4CP-14U02205662022-12-06 12:33:5240.4687-3.110161102621062Clb=3.9m/s p=45.6hPa t=-61.4C h=6.3% 403.00MHz Type=RS41-SGP TxPastBurst=8h30m batt=2.6V Details on http://radiosondy.info
EA1JAY-16U02205662022-12-06 12:33:3540.4688-3.110721072621029Clb=3.9m/s p=46.0hPa t=-61.2C h=1.8% 403.000MHz Type=RS41-SGP rdzTTGOsonde
EA4EKH-11U02205662022-12-06 12:33:1740.4688-3.11145812420992Clb=4.6m/s t=-61.2C h=1.8% p=46.2hPa 403.000 MHz Type=RS41-SGP ser=U0220566 Radiosonde
EA4CP-14U02205662022-12-06 12:33:1540.4688-3.11153803020987Clb=5.3m/s p=46.2hPa t=-61.3C h=6.1% 403.00MHz Type=RS41-SGP Details on http://radiosondy.info
EA1JAY-16U02205662022-12-06 12:32:4740.4715-3.1526753018334Clb=4.6m/s p=71.1hPa t=-65.2C h=2.9% 403.000MHz Type=RS41-SGP rdzTTGOsonde
EA4CP-14U02205662022-12-06 12:32:4140.4714-3.1529753118322Clb=4.4m/s p=71.2hPa t=-65.1C h=8.1% 403.00MHz Type=RS41-SGP Details on http://radiosondy.info
EA4EKH-11U02205662022-12-06 12:32:2940.4714-3.15344903318302Clb=4.0m/s t=-65.1C h=2.8% p=71.4hPa 403.000 MHz Type=RS41-SGP ser=U0220566 Radiosonde
EA4GBR-10U02205662022-12-06 12:32:1240.4713-3.15405843018277Clb=4.1m/s p=71.7hPa t=-64.8C h=3.0% 403.000MHz Type=RS41-SGP rdzTTGOsonde
EA4CP-14U02205662022-12-06 12:32:0340.4713-3.15446873518260Clb=4.3m/s p=71.9hPa t=-64.6C h=7.9% 403.00MHz Type=RS41-SGP Details on http://radiosondy.info
EA1JAY-16U02205662022-12-06 12:31:5440.4713-3.15477883318248Clb=4.6m/s p=72.1hPa t=-64.5C h=2.7% 403.000MHz Type=RS41-SGP rdzTTGOsonde
EA4CP-14U02205662022-12-06 12:31:2340.4712-3.1563883918192Clb=3.4m/s p=72.7hPa t=-64.2C h=7.7% 403.00MHz Type=RS41-SGP batt=2.6V Details on http://radiosondy.info
EA4GBR-10U02205662022-12-06 12:31:1940.4712-3.15653973518183Clb=3.9m/s p=72.9hPa t=-64.2C h=2.8% 403.000MHz Type=RS41-SGP rdzTTGOsonde
EA4EKH-11U02205662022-12-06 12:31:1440.4712-3.1569893918169Clb=3.9m/s t=-64.1C h=2.7% p=73.0hPa 403.000 MHz Type=RS41-SGP ser=U0220566 Radiosonde
EA1JAY-16U02205662022-12-06 12:31:0740.4713-3.15716913918161Clb=5.0m/s p=73.1hPa t=-64.1C h=2.9% 403.000MHz Type=RS41-SGP rdzTTGOsonde
EA4CP-14U02205662022-12-06 12:30:5040.4712-3.15818874418128Clb=4.4m/s p=73.5hPa t=-63.8C h=7.9% 403.00MHz Type=RS41-SGP Details on http://radiosondy.info
LETO2-14U02205662022-12-06 12:30:3940.4712-3.15875924818109Clb=5.5m/s p=73.7hPa calibration 92% 403.00MHz Type=RS41-SGP Radiosonde Tracker +Info: 403MHz@gmail.com
EA4GBR-10U02205662022-12-06 12:30:2940.4712-3.1594925018091Clb=3.5m/s p=73.9hPa t=-63.5C h=2.6% 403.000MHz Type=RS41-SGP rdzTTGOsonde
EA1JAY-16U02205662022-12-06 12:30:1940.4712-3.15997893918075Clb=4.2m/s p=74.1hPa t=-63.5C h=2.8% 403.000MHz Type=RS41-SGP rdzTTGOsonde
EA4CP-14U02205662022-12-06 12:30:1640.4712-3.16037954118062Clb=3.3m/s p=74.3hPa t=-63.4C h=7.8% 403.00MHz Type=RS41-SGP Details on http://radiosondy.info
EA4EKH-11U02205662022-12-06 12:30:0040.4712-3.16121874118035Clb=5.1m/s t=-63.7C h=2.8% p=74.6hPa 403.000 MHz Type=RS41-SGP ser=U0220566 Radiosonde
EA4GBR-10U02205662022-12-06 12:29:4140.4712-3.16206913318003Clb=3.8m/s p=75.0hPa t=-63.7C h=2.7% 403.000MHz Type=RS41-SGP rdzTTGOsonde
EA4CP-14U02205662022-12-06 12:29:3840.4712-3.16229914117994Clb=5.0m/s p=75.1hPa t=-63.6C h=7.6% 403.00MHz Type=RS41-SGP TxPastBurst=8h30m batt=2.7V Details on http://radiosondy.info
EA1JAY-16U02205662022-12-06 12:29:2940.4712-3.16266923717981Clb=4.4m/s p=75.3hPa t=-63.7C h=2.9% 403.000MHz Type=RS41-SGP rdzTTGOsonde
EA4CP-14U02205662022-12-06 12:29:0240.4712-3.16429915017930Clb=4.5m/s p=75.9hPa t=-64.0C h=7.7% 403.00MHz Type=RS41-SGP Details on http://radiosondy.info
EA4GBR-10U02205662022-12-06 12:28:5540.4712-3.16472964417917Clb=5.1m/s p=76.1hPa t=-64.1C h=3.0% 403.000MHz Type=RS41-SGP rdzTTGOsonde
EA4EKH-11U02205662022-12-06 12:28:4840.4713-3.16534894617899Clb=3.9m/s t=-64.2C h=3.0% p=76.3hPa 403.000 MHz Type=RS41-SGP ser=U0220566 Radiosonde
EA1JAY-16U02205662022-12-06 12:28:4240.4713-3.16567925217891Clb=5.3m/s p=76.4hPa t=-64.2C h=3.0% 403.000MHz Type=RS41-SGP rdzTTGOsonde
EA4CP-14U02205662022-12-06 12:28:3040.4713-3.16669924817866Clb=4.4m/s p=76.7hPa t=-64.1C h=8.2% 403.00MHz Type=RS41-SGP Details on http://radiosondy.info
EA4GBR-10U02205662022-12-06 12:28:0740.4712-3.16812854417826Clb=4.3m/s p=77.2hPa t=-63.9C h=3.0% 403.000MHz Type=RS41-SGP rdzTTGOsonde
EA1JAY-16U02205662022-12-06 12:27:5640.4712-3.16889864617806Clb=5.0m/s p=77.5hPa t=-63.8C h=3.0% 403.000MHz Type=RS41-SGP rdzTTGOsonde
EA4CP-14U02205662022-12-06 12:27:5440.4712-3.16918824317797Clb=4.0m/s p=77.5hPa t=-63.9C h=8.0% 403.00MHz Type=RS41-SGP batt=2.7V Details on http://radiosondy.info
EA4EKH-11U02205662022-12-06 12:27:3840.4711-3.17015814117768Clb=4.9m/s t=-63.9C h=3.1% p=78.0hPa 403.000 MHz Type=RS41-SGP ser=U0220566 Radiosonde
EA4GBR-10U02205662022-12-06 12:27:2440.471-3.17101824617742Clb=4.4m/s p=78.3hPa t=-64.1C h=3.1% 403.000MHz Type=RS41-SGP rdzTTGOsonde
EA4CP-14U02205662022-12-06 12:27:2140.4709-3.17131844317733Clb=5.1m/s p=78.4hPa 403.00MHz Type=RS41-SGP Details on http://radiosondy.info
EA1JAY-16U02205662022-12-06 12:27:1040.4709-3.17185774117716Clb=4.0m/s p=78.6hPa t=-64.2C h=3.2% 403.000MHz Type=RS41-SGP rdzTTGOsonde
EA4CP-14U02205662022-12-06 12:26:4940.4704-3.17344694117665Clb=3.5m/s p=79.3hPa calibration 98% 403.00MHz Type=RS41-SGP Details on http://radiosondy.info
EA4GBR-10U02205662022-12-06 12:26:4240.4703-3.1738663517653Clb=3.7m/s p=79.4hPa t=-64.3C h=3.1% 403.000MHz Type=RS41-SGP rdzTTGOsonde
EA4EKH-11U02205662022-12-06 12:26:3440.4701-3.17421563517635Clb=5.1m/s t=-64.2C h=3.3% p=79.6hPa 403.000 MHz Type=RS41-SGP ser=U0220566 Radiosonde
EA1JAY-16U02205662022-12-06 12:26:3140.47-3.17432593917631Clb=3.7m/s p=79.7hPa t=-64.1C h=3.3% 403.000MHz Type=RS41-SGP rdzTTGOsonde
EA4CP-14U02205662022-12-06 12:26:1540.4696-3.17528563717598Clb=4.4m/s p=80.1hPa calibration 98% 403.00MHz Type=RS41-SGP batt=2.6V Details on http://radiosondy.info
EA4GBR-10U02205662022-12-06 12:25:5540.4692-3.17617643717563Clb=4.4m/s p=80.6hPa t=-64.6C h=3.3% 403.000MHz Type=RS41-SGP rdzTTGOsonde
EA1JAY-16U02205662022-12-06 12:25:4440.469-3.17669553317543Clb=4.7m/s p=80.8hPa t=-64.4C h=3.4% 403.000MHz Type=RS41-SGP rdzTTGOsonde
EA4CP-14U02205662022-12-06 12:25:3740.4688-3.177453117527Clb=3.6m/s p=81.0hPa calibration 98% 403.00MHz Type=RS41-SGP Details on http://radiosondy.info
EA4EKH-11U02205662022-12-06 12:25:2640.4684-3.17757602817497Clb=4.8m/s t=-64.7C h=3.2% p=81.4hPa 403.000 MHz Type=RS41-SGP ser=U0220566 Radiosonde
EA4GBR-10U02205662022-12-06 12:25:0040.4681-3.17812512817469Clb=3.4m/s p=81.9hPa t=-64.5C h=3.6% 403.000MHz Type=RS41-SGP rdzTTGOsonde
EA4CP-14U02205662022-12-06 12:24:5640.468-3.17825522417460Clb=3.9m/s calibration 94% 403.00MHz Type=RS41-SGP Details on http://radiosondy.info
EA1JAY-16U02205662022-12-06 12:24:5340.468-3.17825522817460Clb=4.0m/s p=82.0hPa t=-64.5C h=3.5% 403.000MHz Type=RS41-SGP rdzTTGOsonde
EA4CP-14U02205662022-12-06 12:24:1840.4674-3.17916602417392Clb=4.4m/s calibration 86% 403.00MHz Type=RS41-SGP TxPastBurst=8h30m batt=2.7V Details on http://radiosondy.info
EA4GBR-10U02205662022-12-06 12:24:0440.4672-3.17948532417371Clb=4.5m/s p=83.2hPa t=-64.3C h=3.2% 403.000MHz Type=RS41-SGP rdzTTGOsonde
EA4CP-14U02205662022-12-06 12:23:4140.467-3.18023692217323Clb=4.6m/s calibration 86% 403.00MHz Type=RS41-SGP Details on http://radiosondy.info
EA1JAY-16U02205662022-12-06 12:23:1540.4667-3.181741717279Clb=4.2m/s p=84.4hPa t=-64.4C h=3.4% 403.000MHz Type=RS41-SGP rdzTTGOsonde
EA4CP-14U02205662022-12-06 12:23:0440.4667-3.18131922417257Clb=4.0m/s calibration 86% 403.00MHz Type=RS41-SGP Details on http://radiosondy.info
EA4EKH-11U02205662022-12-06 12:22:5540.4667-3.18165932617240Clb=4.5m/s t=-64.6C h=3.5% p=85.0hPa 403.000 MHz Type=RS41-SGP ser=U0220566 Radiosonde
EA4CP-14U02205662022-12-06 12:22:2240.4667-3.18257991917190Clb=3.8m/s calibration 84% 403.00MHz Type=RS41 batt=2.7V Details on http://radiosondy.info
EA1JAY-16U02205662022-12-06 12:22:2140.4667-3.182571002217190Clb=3.9m/s p=85.7hPa t=-64.6C h=3.5% 403.000MHz Type=RS41-SGP rdzTTGOsonde
EA4GBR-10U02205662022-12-06 12:22:1640.4667-3.18271962017182Clb=4.1m/s p=85.8hPa t=-64.5C h=3.5% 403.000MHz Type=RS41-SGP rdzTTGOsonde
EA4CP-14U02205662022-12-06 12:21:4540.4668-3.183551002017123Clb=3.6m/s calibration 68% 403.00MHz Type=RS41 Details on http://radiosondy.info
EA4EKH-11U02205662022-12-06 12:21:3940.4668-3.18372771917111Clb=4.2m/s t=-64.8C h=3.5% p=86.8hPa 403.000 MHz Type=RS41-SGP ser=U0220566 Radiosonde
EA1JAY-16U02205662022-12-06 12:21:3340.4668-3.18378771917107Clb=3.8m/s p=86.8hPa t=-64.7C h=3.5% 403.000MHz Type=RS41-SGP rdzTTGOsonde
EA4GBR-10U02205662022-12-06 12:21:2140.4668-3.1841832217086Clb=4.1m/s p=87.1hPa t=-65.0C h=3.6% 403.000MHz Type=RS41-SGP rdzTTGOsonde
EA4CP-14U02205662022-12-06 12:21:0440.4668-3.1846892217057Clb=4.5m/s calibration 58% 403.00MHz Type=RS41 Details on http://radiosondy.info
EA1JAY-16U02205662022-12-06 12:20:4140.4667-3.18517802217022Clb=4.2m/s p=88.0hPa t=-65.2C h=3.6% 403.000MHz Type=RS41-SGP rdzTTGOsonde
EA4CP-14U02205662022-12-06 12:20:1940.4667-3.18578902816990Clb=3.6m/s calibration 50% 403.00MHz Type=RS41 batt=2.7V Details on http://radiosondy.info
EA4GBR-10U02205662022-12-06 12:20:1740.4667-3.18578902816990Clb=3.7m/s p=88.5hPa t=-64.8C h=3.6% 403.000MHz Type=RS41-SGP rdzTTGOsonde
EA4EKH-11U02205662022-12-06 12:20:1340.4667-3.18596933016980Clb=4.1m/s t=-64.7C h=3.5% p=88.6hPa 403.000 MHz Type=RS41-SGP ser=U0220566 Radiosonde
EA1JAY-16U02205662022-12-06 12:19:1840.4666-3.18697852416935Clb=3.5m/s p=89.3hPa t=-64.6C h=3.6% 403.000MHz Type=RS41-SGP rdzTTGOsonde
EA4CP-14U02205662022-12-06 12:19:1240.4666-3.18724812816923Clb=3.7m/s calibration 35% 403.00MHz Type=RS41 Details on http://radiosondy.info
EA4GBR-10U02205662022-12-06 12:18:5140.4665-3.18792862816894Clb=3.8m/s p=89.9hPa t=-64.6C h=3.6% 403.000MHz Type=RS41-SGP rdzTTGOsonde
EA4CP-14U02205662022-12-06 12:18:3340.4664-3.18869763116856Clb=3.6m/s calibration 19% 403.00MHz Type=RS41 Details on http://radiosondy.info
EA4EKH-11U02205662022-12-06 12:18:2840.4664-3.18879773016852Clb=4.7m/s t=-64.3C h=3.3% p=90.5hPa 403.000 MHz Type=RS41-SGP ser=U0220566 Radiosonde
EA1JAY-16U02205662022-12-06 12:18:2140.4664-3.18889823116848Clb=3.8m/s p=90.6hPa t=-64.3C h=3.4% 403.000MHz Type=RS41-SGP rdzTTGOsonde
EA4GBR-10U02205662022-12-06 12:17:5740.4661-3.18996672816803Clb=3.7m/s p=91.3hPa t=-64.5C h=3.4% 403.000MHz Type=RS41-SGP rdzTTGOsonde
EA4CP-14U02205662022-12-06 12:17:5240.4661-3.19022693016790Clb=3.8m/s calibration 3% Type=RS41 batt=2.7V Details on http://radiosondy.info
EA1JAY-16U02205662022-12-06 12:17:3540.4659-3.1909733116762Clb=4.3m/s p=91.9hPa t=-64.6C h=3.6% 403.000MHz Type=RS41-SGP rdzTTGOsonde
EA4EKH-11U02205662022-12-06 12:17:1740.4656-3.19169673016724Clb=4.3m/s t=-64.7C h=3.5% p=92.5hPa 403.000 MHz Type=RS41-SGP ser=U0220566 Radiosonde
EA4GBR-10U02205662022-12-06 12:17:0640.4655-3.19207703016706Clb=5.2m/s p=92.7hPa t=-64.7C h=3.4% 403.000MHz Type=RS41-SGP rdzTTGOsonde
EA1JAY-16U02205662022-12-06 12:16:5040.4653-3.19283803316671Clb=5.1m/s p=93.2hPa t=-64.4C h=3.5% 403.000MHz Type=RS41-SGP rdzTTGOsonde
EA4GBR-10U02205662022-12-06 12:16:2140.4652-3.19432853116613Clb=3.9m/s p=94.2hPa t=-64.3C h=3.5% 403.000MHz Type=RS41-SGP rdzTTGOsonde
EA4EKH-11U02205662022-12-06 12:16:0640.4652-3.1948972816591Clb=4.3m/s t=-64.2C h=3.3% p=94.5hPa 403.000 MHz Type=RS41-SGP ser=U0220566 Radiosonde
EA1JAY-16U02205662022-12-06 12:16:0140.4652-3.19497972416581Clb=4.5m/s p=94.7hPa t=-64.3C h=3.4% 403.000MHz Type=RS41-SGP rdzTTGOsonde
EA4GBR-10U02205662022-12-06 12:15:5940.4653-3.19621042616517Clb=3.9m/s p=95.6hPa t=-64.1C h=3.5% 403.000MHz Type=RS41-SGP rdzTTGOsonde
EA4EKH-11U02205662022-12-06 12:15:5840.4655-3.197391082816456Clb=4.7m/s t=-63.9C h=3.4% p=96.6hPa 403.000 MHz Type=RS41-SGP ser=U0220566 Radiosonde
EA4GBR-10U02205662022-12-06 12:15:5740.4657-3.198341023116417Clb=3.8m/s p=97.2hPa t=-63.8C h=3.3% 403.000MHz Type=RS41-SGP rdzTTGOsonde
LETO2-14U02205662022-12-06 12:15:5540.4658-3.19988973516360Clb=4.8m/s p=98.0hPa calibration 92% 403.00MHz Type=RS41-SGP batt=2.7V Radiosonde Tracker +Info: 403MHz@gmail.com
EA4GBR-10U02205662022-12-06 12:15:5240.4661-3.20355913116229Clb=3.6m/s p=100.2hPa t=-63.8C h=3.1% 403.000MHz Type=RS41-SGP rdzTTGOsonde
LETO2-14U02205662022-12-06 12:15:5140.466-3.20483803316178Clb=4.4m/s p=101.0hPa calibration 90% 403.00MHz Type=RS41-SGP Radiosonde Tracker +Info: 403MHz@gmail.com
EA1JAY-16U02205662022-12-06 12:15:5040.466-3.205621042816146Clb=4.6m/s p=101.6hPa t=-64.0C h=3.3% 403.000MHz Type=RS41-SGP rdzTTGOsonde
LETO2-14U02205662022-12-06 12:15:4940.4663-3.20716943016082Clb=4.5m/s p=102.6hPa calibration 90% 403.00MHz Type=RS41-SGP Radiosonde Tracker +Info: 403MHz@gmail.com
EA4EKH-11U02205662022-12-06 12:15:4840.4663-3.20757953116067Clb=3.6m/s t=-64.1C h=3.3% p=102.9hPa 403.000 MHz Type=RS41-SGP ser=U0220566 Radiosonde
EA1JAY-16U02205662022-12-06 12:15:4640.4665-3.20969873015977Clb=4.6m/s p=104.4hPa t=-64.1C h=3.2% 403.000MHz Type=RS41-SGP rdzTTGOsonde
EA4EKH-11U02205662022-12-06 12:15:4540.4664-3.21051962615942Clb=4.2m/s t=-63.7C h=3.2% p=105.0hPa 403.000 MHz Type=RS41-SGP ser=U0220566 Radiosonde
EA1JAY-16U02205662022-12-06 12:15:3840.4664-3.21151882615901Clb=3.9m/s p=105.7hPa t=-63.4C h=3.3% 403.000MHz Type=RS41-SGP rdzTTGOsonde
EA4GBR-10U02205662022-12-06 12:15:3140.4664-3.21216903015872Clb=3.5m/s p=106.2hPa t=-63.3C h=3.1% 403.000MHz Type=RS41-SGP rdzTTGOsonde
EA4EKH-11U02205662022-12-06 12:15:2440.4664-3.21324912615822Clb=4.5m/s t=-63.6C h=3.2% p=107.0hPa 403.000 MHz Type=RS41-SGP ser=U0220566 Radiosonde
EA4GBR-10U02205662022-12-06 12:15:1640.4665-3.2141032615786Clb=4.3m/s p=107.7hPa t=-63.6C h=3.2% 403.000MHz Type=RS41-SGP rdzTTGOsonde
EA1JAY-16U02205662022-12-06 12:15:0340.4667-3.21523953915742Clb=4.4m/s t=-63.6C 403.000MHz Type=RS41-SGP rdzTTGOsonde
EA4EKH-11U02205662022-12-06 12:14:5240.4669-3.21669974315698Clb=4.7m/s t=-63.8C h=3.2% p=109.2hPa 403.000 MHz Type=RS41-SGP ser=U0220566 Radiosonde
EA4GBR-10U02205662022-12-06 12:14:4940.4669-3.21683944315694Clb=3.8m/s p=109.3hPa t=-63.8C h=3.3% 403.000MHz Type=RS41-SGP rdzTTGOsonde
EA1JAY-16U02205662022-12-06 12:14:3140.467-3.217991054415662Clb=4.6m/s t=-63.5C 403.000MHz Type=RS41 rdzTTGOsonde
EA4GBR-10U02205662022-12-06 12:13:5740.4671-3.2202994815604Clb=3.4m/s p=110.9hPa t=-63.2C h=3.2% 403.000MHz Type=RS41-SGP rdzTTGOsonde
EA1JAY-16U02205662022-12-06 12:13:4540.4672-3.22108934615580Clb=3.7m/s 403.000MHz Type=RS41 rdzTTGOsonde
EA4GBR-10U02205662022-12-06 12:13:1240.4674-3.223341035215517Clb=4.9m/s p=112.5hPa t=-63.1C h=3.0% 403.000MHz Type=RS41-SGP rdzTTGOsonde
EA4EKH-11U02205662022-12-06 12:12:3540.4679-3.225881024615451Clb=4.4m/s t=-63.7C h=3.0% p=113.7hPa 403.000 MHz Type=RS41-SGP ser=U0220566 Radiosonde
EA4GBR-10U02205662022-12-06 12:12:1740.468-3.22666983315426Clb=3.7m/s p=114.2hPa t=-63.4C h=3.4% 403.000MHz Type=RS41-SGP rdzTTGOsonde
LETO2-14U02205662022-12-06 12:12:0340.4681-3.22751014115397Clb=3.4m/s calibration 82% 403.00MHz Type=RS41-SGP Radiosonde Tracker +Info: 403MHz@gmail.com
LETO2-14U02205662022-12-06 12:11:4840.4682-3.228291053715373Clb=4.8m/s calibration 82% 403.00MHz Type=RS41-SGP Radiosonde Tracker +Info: 403MHz@gmail.com
LETO2-14U02205662022-12-06 12:11:3540.4683-3.228991033715348Clb=3.5m/s calibration 78% 403.00MHz Type=RS41-SGP batt=2.7V Radiosonde Tracker +Info: 403MHz@gmail.com
EA4GBR-10U02205662022-12-06 12:11:2540.4684-3.229351054115336Clb=3.3m/s p=115.9hPa t=-63.3C h=3.2% 403.000MHz Type=RS41-SGP rdzTTGOsonde
EA4EKH-11U02205662022-12-06 12:11:2140.4685-3.229741124315324Clb=3.2m/s t=-63.2C h=3.1% p=116.2hPa 403.000 MHz Type=RS41-SGP ser=U0220566 Radiosonde
LETO2-14U02205662022-12-06 12:11:1940.4685-3.229741134315324Clb=3.2m/s calibration 76% 403.00MHz Type=RS41-SGP Radiosonde Tracker +Info: 403MHz@gmail.com
LETO2-14U02205662022-12-06 12:11:0740.4687-3.230471063915299Clb=4.8m/s calibration 72% 403.00MHz Type=RS41-SGP Radiosonde Tracker +Info: 403MHz@gmail.com
LETO2-14U02205662022-12-06 12:10:4840.4689-3.231411184115267Clb=4.0m/s calibration 70% 403.00MHz Type=RS41-SGP batt=2.7V Radiosonde Tracker +Info: 403MHz@gmail.com
EA4GBR-10U02205662022-12-06 12:10:3240.4691-3.232021113715247Clb=3.3m/s p=117.6hPa t=-63.3C h=3.0% 403.000MHz Type=RS41-SGP rdzTTGOsonde
LETO2-14U02205662022-12-06 12:10:3040.4692-3.232141094315243Clb=4.4m/s calibration 70% 403.00MHz Type=RS41-SGP Radiosonde Tracker +Info: 403MHz@gmail.com
EA4GBR-10U02205662022-12-06 12:10:0140.4515-3.33756855212568Clb=4.5m/s p=180.0hPa t=-57.9C h=4.7% 403.000MHz Type=RS41-SGP rdzTTGOsonde
EA4EKH-11U02205662022-12-06 12:09:4640.4516-3.33893965212535Clb=4.3m/s t=-58.1C h=4.7% p=180.9hPa 403.000 MHz Type=RS41-SGP ser=U0220566 Radiosonde
EA4GBR-10U02205662022-12-06 12:08:5840.4516-3.34174885712474Clb=3.6m/s p=182.7hPa t=-57.7C h=4.7% 403.000MHz Type=RS41-SGP rdzTTGOsonde
EA4EKH-12U02205662022-12-06 12:08:3540.4515-3.34372906312436Clb=4.3m/s p=183.8hPa t=-57.4C h=4.7% 403.000MHz Type=RS41-SGP rdzTTGOsonde
EA4EKH-11U02205662022-12-06 12:08:2440.4515-3.34477856312415Clb=4.5m/s t=-57.3C h=4.7% p=184.5hPa 403.000 MHz Type=RS41-SGP ser=U0220566 Radiosonde
EA4GBR-10U02205662022-12-06 12:08:0240.4514-3.34612886112386Clb=4.5m/s p=185.2hPa t=-57.1C h=4.7% 403.000MHz Type=RS41-SGP rdzTTGOsonde
EA4GSU-11U02205662022-12-06 12:07:2440.4512-3.34999856512316Clb=4.6m/s t=-56.9C h=4.9% p=187.3hPa 403.000 MHz Type=RS41-SGP Radiosonde auto_rx v1.5.3
EA4GBR-10U02205662022-12-06 12:07:0440.4511-3.35105836512296Clb=4.1m/s p=187.9hPa t=-57.0C h=5.1% 403.000MHz Type=RS41-SGP rdzTTGOsonde
EA4GBR-10U02205662022-12-06 12:06:1640.4503-3.35594766712207Clb=4.2m/s p=190.6hPa t=-57.0C h=5.5% 403.000MHz Type=RS41-SGP rdzTTGOsonde
EA4EKH-11U02205662022-12-06 12:05:5440.4499-3.35809766712165Clb=4.5m/s t=-56.9C h=5.6% p=191.7hPa 403.000 MHz Type=RS41-SGP ser=U0220566 Radiosonde
EA4EKH-12U02205662022-12-06 12:05:4340.4498-3.3589746312149Clb=3.7m/s p=192.3hPa t=-57.1C h=5.9% 403.000MHz Type=RS41-SGP rdzTTGOsonde
EA4GBR-10U02205662022-12-06 12:05:2040.4494-3.3607796512112Clb=3.2m/s p=193.5hPa t=-56.9C h=6.1% 403.000MHz Type=RS41-SGP rdzTTGOsonde
EA4GSU-11U02205662022-12-06 12:05:0240.4492-3.36233746312079Clb=4.7m/s t=-56.8C h=6.1% p=194.4hPa 403.000 MHz Type=RS41-SGP Radiosonde auto_rx v1.5.3
EA4EKH-12U02205662022-12-06 12:04:4540.4489-3.36348796112055Clb=3.9m/s p=195.1hPa t=-56.8C h=6.5% 403.000MHz Type=RS41-SGP rdzTTGOsonde
EA4EKH-11U02205662022-12-06 12:04:3740.4488-3.36429756112039Clb=3.9m/s t=-57.0C h=6.9% p=195.6hPa 403.000 MHz Type=RS41-SGP ser=U0220566 Radiosonde
EA4GBR-10U02205662022-12-06 12:04:2340.4486-3.36502725612023Clb=3.7m/s p=196.2hPa t=-57.1C h=6.9% 403.000MHz Type=RS41-SGP rdzTTGOsonde
EA4GSU-11U02205662022-12-06 12:03:4740.448-3.3678745011957Clb=4.8m/s t=-57.6C h=7.9% p=198.2hPa 403.000 MHz Type=RS41-SGP Radiosonde auto_rx v1.5.3
EA4GBR-10U02205662022-12-06 12:03:2840.4478-3.36892825211928Clb=3.4m/s p=199.1hPa t=-57.6C h=8.0% 403.000MHz Type=RS41-SGP rdzTTGOsonde
EA4EKH-11U02205662022-12-06 12:03:1840.4477-3.36959794811911Clb=3.2m/s t=-57.7C h=7.9% p=199.6hPa 403.000 MHz Type=RS41-SGP ser=U0220566 Radiosonde
EA4GBR-10U02205662022-12-06 12:02:3740.4471-3.37216753911841Clb=3.8m/s p=201.9hPa t=-57.4C h=8.5% 403.000MHz Type=RS41-SGP rdzTTGOsonde
EA4EKH-11U02205662022-12-06 12:02:1140.4468-3.37383773711789Clb=2.5m/s t=-57.1C h=8.5% p=203.6hPa 403.000 MHz Type=RS41-SGP ser=U0220566 Radiosonde
EA4GBR-10U02205662022-12-06 12:01:5240.4466-3.37482814111757Clb=4.2m/s p=204.6hPa t=-56.9C h=8.9% 403.000MHz Type=RS41-SGP rdzTTGOsonde
EA4GSU-11U02205662022-12-06 12:01:3440.4464-3.37627854311714Clb=3.5m/s t=-56.6C h=9.3% p=206.0hPa 403.000 MHz Type=RS41-SGP Radiosonde auto_rx v1.5.3
EA4EKH-11U02205662022-12-06 12:01:0740.4462-3.37807814611668Clb=3.9m/s t=-57.3C h=11.1% p=207.4hPa 403.000 MHz Type=RS41-SGP ser=U0220566 Radiosonde
EA4GBR-10U02205662022-12-06 12:01:0340.4462-3.37807834811668Clb=3.9m/s p=207.4hPa t=-57.3C h=11.1% 403.000MHz Type=RS41-SGP rdzTTGOsonde
EA4GBR-10U02205662022-12-06 12:00:1240.446-3.38152924411585Clb=3.3m/s p=210.3hPa t=-57.4C h=12.3% 403.000MHz Type=RS41-SGP rdzTTGOsonde
EA4EKH-11U02205662022-12-06 11:59:5040.4461-3.38263974111555Clb=3.7m/s t=-57.0C h=12.6% p=211.3hPa 403.000 MHz Type=RS41-SGP ser=U0220566 Radiosonde
EA4GBR-10U02205662022-12-06 11:59:0640.4462-3.38481944611501Clb=2.9m/s p=213.0hPa t=-58.3C h=15.2% 403.000MHz Type=RS41-SGP rdzTTGOsonde
EA4EKH-11U02205662022-12-06 11:58:2940.4463-3.3872934611442Clb=3.5m/s t=-58.2C h=16.1% p=215.0hPa 403.000 MHz Type=RS41-SGP ser=U0220566 Radiosonde
EA4GBR-10U02205662022-12-06 11:58:0640.4464-3.38828975011418Clb=4.0m/s p=215.9hPa t=-58.4C h=16.0% 403.000MHz Type=RS41-SGP rdzTTGOsonde
EA4GSU-11U02205662022-12-06 11:57:5040.4465-3.389831035711385Clb=4.2m/s t=-58.4C h=17.2% p=217.0hPa 403.000 MHz Type=RS41-SGP Radiosonde auto_rx v1.5.3
EA4EKH-12U02205662022-12-06 11:57:2240.4468-3.391271015711356Clb=3.0m/s p=218.1hPa t=-58.5C h=17.3% 403.000MHz Type=RS41-SGP rdzTTGOsonde
EA4GBR-10U02205662022-12-06 11:57:1140.447-3.392361065711334Clb=4.1m/s p=218.8hPa t=-58.8C h=18.0% 403.000MHz Type=RS41-SGP rdzTTGOsonde
EA4GBR-10U02205662022-12-06 11:56:2440.4476-3.396621016511253Clb=3.6m/s p=221.6hPa t=-58.9C h=18.5% 403.000MHz Type=RS41-SGP rdzTTGOsonde
EA4EKH-11U02205662022-12-06 11:56:0740.448-3.398661026311215Clb=4.1m/s t=-58.7C h=18.3% p=222.8hPa 403.000 MHz Type=RS41-SGP ser=U0220566 Radiosonde
EA4GBR-10U02205662022-12-06 11:55:3940.4485-3.401121066911171Clb=4.3m/s p=224.5hPa t=-58.4C h=17.4% 403.000MHz Type=RS41-SGP rdzTTGOsonde
EA4EKH-11U02205662022-12-06 11:54:5740.4493-3.405351047011097Clb=3.3m/s t=-58.5C h=17.4% p=227.2hPa 403.000 MHz Type=RS41-SGP ser=U0220566 Radiosonde
EA4GBR-10U02205662022-12-06 11:54:4540.4495-3.406241067011082Clb=4.4m/s p=227.7hPa t=-58.4C h=17.1% 403.000MHz Type=RS41-SGP rdzTTGOsonde
EA4GBR-10U02205662022-12-06 11:53:5140.4504-3.41147996910994Clb=3.7m/s p=231.0hPa t=-57.8C h=17.2% 403.000MHz Type=RS41-SGP rdzTTGOsonde
EA4EKH-11U02205662022-12-06 11:53:4340.4505-3.41235976910978Clb=3.7m/s t=-57.8C h=16.9% p=231.5hPa 403.000 MHz Type=RS41-SGP ser=U0220566 Radiosonde
EA4GBR-10U02205662022-12-06 11:52:5040.451-3.416461006510905Clb=4.2m/s p=234.2hPa t=-57.1C h=16.0% 403.000MHz Type=RS41-SGP rdzTTGOsonde
EA4EKH-11U02205662022-12-06 11:52:2340.4513-3.41896986510859Clb=3.7m/s t=-56.8C h=15.2% p=235.9hPa 403.000 MHz Type=RS41-SGP ser=U0220566 Radiosonde
EA4GBR-10U02205662022-12-06 11:51:5640.4515-3.42128966710818Clb=4.2m/s p=237.5hPa t=-56.6C h=14.7% 403.000MHz Type=RS41-SGP rdzTTGOsonde
EA4EKH-11U02205662022-12-06 11:51:4540.4517-3.42563946910742Clb=3.1m/s t=-56.3C h=14.3% p=240.2hPa 403.000 MHz Type=RS41-SGP ser=U0220566 Radiosonde
EA4GBR-10U02205662022-12-06 11:51:1640.4519-3.43118956510647Clb=4.0m/s p=243.9hPa t=-55.8C h=14.6% 403.000MHz Type=RS41-SGP rdzTTGOsonde
EA4EKH-11U02205662022-12-06 11:51:0740.452-3.4325896710625Clb=4.1m/s t=-55.6C h=14.8% p=244.7hPa 403.000 MHz Type=RS41-SGP ser=U0220566 Radiosonde
EA4GSU-11U02205662022-12-06 11:51:0040.4521-3.43492916710581Clb=4.0m/s t=-55.3C h=15.1% p=246.3hPa 403.000 MHz Type=RS41-SGP Radiosonde auto_rx v1.5.3
EA4GBR-10U02205662022-12-06 11:50:4840.4521-3.43626926910558Clb=3.6m/s p=247.3hPa t=-55.3C h=15.3% 403.000MHz Type=RS41-SGP rdzTTGOsonde
EA4EKH-11U02205662022-12-06 11:50:4740.4522-3.43928906510504Clb=4.0m/s t=-55.1C h=16.7% p=249.3hPa 403.000 MHz Type=RS41-SGP ser=U0220566 Radiosonde
EA4GBR-10U02205662022-12-06 11:50:3640.4522-3.44118906310470Clb=4.5m/s p=250.7hPa t=-54.8C h=17.3% 403.000MHz Type=RS41-SGP rdzTTGOsonde
EA4EKH-11U02205662022-12-06 11:50:1040.4521-3.44557865710382Clb=4.9m/s t=-54.3C h=16.6% p=254.2hPa 403.000 MHz Type=RS41-SGP ser=U0220566 Radiosonde
EA4GBR-10U02205662022-12-06 11:50:0940.4521-3.44556885710382Clb=4.9m/s p=254.2hPa t=-54.3C h=16.6% 403.000MHz Type=RS41-SGP rdzTTGOsonde
EA4GSU-11U02205662022-12-06 11:50:0540.4521-3.44687885610353Clb=3.9m/s t=-54.0C h=16.7% p=255.4hPa 403.000 MHz Type=RS41-SGP Radiosonde auto_rx v1.5.3
EA4GBR-10U02205662022-12-06 11:49:5940.452-3.44969855210292Clb=3.4m/s p=257.9hPa t=-53.5C h=16.6% 403.000MHz Type=RS41-SGP rdzTTGOsonde
EA4EKH-11U02205662022-12-06 11:49:5740.4519-3.45114855610259Clb=4.5m/s t=-53.2C h=15.9% p=259.1hPa 403.000 MHz Type=RS41-SGP ser=U0220566 Radiosonde
EA4GSU-11U02205662022-12-06 11:49:5640.4518-3.45224855410235Clb=4.1m/s t=-53.1C h=16.0% p=260.1hPa 403.000 MHz Type=RS41-SGP Radiosonde auto_rx v1.5.3
EA4GBR-10U02205662022-12-06 11:49:5240.4517-3.45387875910199Clb=5.0m/s p=261.5hPa t=-52.7C h=16.8% 403.000MHz Type=RS41-SGP rdzTTGOsonde
EA4EKH-11U02205662022-12-06 11:49:4740.4515-3.45679845210134Clb=4.0m/s t=-52.2C h=19.4% p=264.3hPa 403.000 MHz Type=RS41-SGP ser=U0220566 Radiosonde
EA4GBR-10U02205662022-12-06 11:49:4540.4513-3.45789786110109Clb=4.0m/s p=265.2hPa t=-51.9C h=20.1% 403.000MHz Type=RS41-SGP rdzTTGOsonde
EA4GBR-10U02205662022-12-06 11:49:2440.4508-3.46183765010003Clb=2.0m/s p=269.6hPa t=-51.1C h=20.2% 403.000MHz Type=RS41-SGP rdzTTGOsonde
EA4EKH-11U02205662022-12-06 11:49:2340.4507-3.4621475449993Clb=5.0m/s t=-51.0C h=20.0% p=270.0hPa 403.000 MHz Type=RS41-SGP ser=U0220566 Radiosonde
EA4GSU-11U02205662022-12-06 11:49:2240.4507-3.4625887469979Clb=5.4m/s t=-50.8C h=19.5% p=270.7hPa 403.000 MHz Type=RS41-SGP Radiosonde auto_rx v1.5.3
EA4GBR-10U02205662022-12-06 11:49:0040.4503-3.4651479449900Clb=3.7m/s p=273.7hPa t=-50.2C h=15.3% 403.000MHz Type=RS41-SGP rdzTTGOsonde
EA4EKH-11U02205662022-12-06 11:48:5740.4501-3.4666478439855Clb=3.1m/s t=-50.0C h=11.7% p=275.7hPa 403.000 MHz Type=RS41-SGP ser=U0220566 Radiosonde
EA4GBR-10U02205662022-12-06 11:48:5040.4498-3.4691791379779Clb=3.8m/s p=278.9hPa t=-49.7C h=8.1% 403.000MHz Type=RS41-SGP rdzTTGOsonde
EA4EKH-11U02205662022-12-06 11:48:4940.4498-3.470789339730Clb=3.6m/s t=-49.4C h=8.0% p=281.1hPa 403.000 MHz Type=RS41-SGP ser=U0220566 Radiosonde
EA4GBR-10U02205662022-12-06 11:48:4740.4499-3.4738894339629Clb=3.7m/s p=285.5hPa t=-48.6C h=8.2% 403.000MHz Type=RS41-SGP rdzTTGOsonde
EA4GBR-10U02205662022-12-06 11:48:4540.45-3.4762892399557Clb=4.1m/s p=288.6hPa t=-48.0C h=9.1% 403.000MHz Type=RS41-SGP rdzTTGOsonde
EA4EKH-11U02205662022-12-06 11:48:4440.45-3.4781495399507Clb=2.3m/s t=-47.5C h=9.4% p=290.8hPa 403.000 MHz Type=RS41-SGP ser=U0220566 Radiosonde
EA4GBR-10U02205662022-12-06 11:48:4340.4501-3.4790298399482Clb=3.1m/s p=291.9hPa t=-47.4C h=9.6% 403.000MHz Type=RS41-SGP rdzTTGOsonde
EA4GBR-10U02205662022-12-06 11:48:4240.4504-3.4817597399404Clb=3.1m/s p=295.4hPa t=-46.9C h=9.6% 403.000MHz Type=RS41-SGP rdzTTGOsonde
EA4GBR-10U02205662022-12-06 11:48:4040.4508-3.48469106419324Clb=3.7m/s p=298.8hPa t=-46.6C h=8.7% 403.000MHz Type=RS41-SGP rdzTTGOsonde
EA4GBR-10U02205662022-12-06 11:48:3940.4513-3.48762103449250Clb=2.7m/s p=302.3hPa t=-46.0C h=8.4% 403.000MHz Type=RS41-SGP rdzTTGOsonde
EA4GSU-11U02205662022-12-06 11:48:3840.4515-3.4895698439203Clb=3.7m/s t=-45.7C h=8.0% p=304.4hPa 403.000 MHz Type=RS41-SGP Radiosonde auto_rx v1.5.3
EA4GBR-10U02205662022-12-06 11:48:3740.4517-3.49072102439175Clb=2.8m/s p=305.7hPa t=-45.3C h=8.1% 403.000MHz Type=RS41-SGP rdzTTGOsonde
EA4GSU-11U02205662022-12-06 11:48:3540.452-3.4938595469099Clb=3.6m/s t=-44.6C h=7.8% p=309.2hPa 403.000 MHz Type=RS41-SGP Radiosonde auto_rx v1.5.3
EA4GBR-10U02205662022-12-06 11:48:3440.452-3.49498489096Clb=3.1m/s p=309.3hPa t=-44.6C h=7.8% 403.000MHz Type=RS41-SGP rdzTTGOsonde
EA4EKH-11U02205662022-12-06 11:48:3240.4521-3.4947897469078Clb=2.5m/s t=-44.6C h=7.7% p=310.1hPa 403.000 MHz Type=RS41-SGP ser=U0220566 Radiosonde
EA4GBR-10U02205662022-12-06 11:48:0040.4523-3.497695489017Clb=2.9m/s p=313.0hPa t=-43.9C h=7.6% 403.000MHz Type=RS41-SGP rdzTTGOsonde
EA4GSU-11U02205662022-12-06 11:47:5140.4524-3.498498489000Clb=3.8m/s t=-43.8C h=7.1% p=313.8hPa 403.000 MHz Type=RS41-SGP Radiosonde auto_rx v1.5.3
EA4EKH-11U02205662022-12-06 11:47:3540.4526-3.4997197528973Clb=3.1m/s t=-43.5C h=6.9% p=315.1hPa 403.000 MHz Type=RS41-SGP ser=U0220566 Radiosonde
EA4GBR-10U02205662022-12-06 11:47:1140.4527-3.5013499528940Clb=2.5m/s p=316.7hPa t=-43.2C h=6.8% 403.000MHz Type=RS41-SGP rdzTTGOsonde
EA4GSU-11U02205662022-12-06 11:46:4840.453-3.5042591528876Clb=2.9m/s t=-42.6C h=6.8% p=319.6hPa 403.000 MHz Type=RS41-SGP Radiosonde auto_rx v1.5.3
EA4EKH-12U02205662022-12-06 11:46:3140.453-3.5045993528870Clb=3.2m/s p=319.9hPa t=-42.6C h=6.8% 403.000MHz Type=RS41-SGP rdzTTGOsonde
EA4GBR-10U02205662022-12-06 11:46:2540.453-3.505198528861Clb=3.4m/s p=320.4hPa t=-42.5C h=6.8% 403.000MHz Type=RS41-SGP rdzTTGOsonde
EA4GBR-10U02205662022-12-06 11:45:4140.4534-3.5091689548778Clb=2.8m/s p=324.2hPa t=-42.1C h=6.5% 403.000MHz Type=RS41-SGP rdzTTGOsonde
EA4EKH-11U02205662022-12-06 11:45:3140.4535-3.5102106618754Clb=2.7m/s t=-41.9C h=6.3% p=325.3hPa 403.000 MHz Type=RS41-SGP ser=U0220566 Radiosonde
EA4GBR-10U02205662022-12-06 11:44:5840.4537-3.51237109418680Clb=3.8m/s p=329.0hPa t=-41.2C h=6.1% 403.000MHz Type=RS41-SGP rdzTTGOsonde
EA4GSU-11U02205662022-12-06 11:44:5340.4537-3.5133289548643Clb=4.7m/s t=-40.9C h=6.4% p=330.8hPa 403.000 MHz Type=RS41-SGP Radiosonde auto_rx v1.5.3
EA4EKH-11U02205662022-12-06 11:44:3040.454-3.5146105288601Clb=6.2m/s t=-40.8C h=6.7% p=332.9hPa 403.000 MHz Type=RS41-SGP ser=U0220566 Radiosonde
EA4GBR-10U02205662022-12-06 11:44:1440.4543-3.51529108528562Clb=8.0m/s p=334.9hPa t=-40.3C h=7.1% 403.000MHz Type=RS41-SGP rdzTTGOsonde
EA4EKH-12U02205662022-12-06 11:44:0140.4543-3.5164497308517Clb=6.9m/s p=337.0hPa t=-40.1C h=7.5% 403.000MHz Type=RS41-SGP rdzTTGOsonde
EA4GSU-11U02205662022-12-06 11:43:5240.4546-3.51698121338481Clb=7.9m/s t=-39.7C h=7.8% p=338.6hPa 403.000 MHz Type=RS41-SGP Radiosonde auto_rx v1.5.3
EA4GBR-10U02205662022-12-06 11:43:3040.4547-3.51793111338415Clb=6.7m/s p=341.9hPa t=-39.1C h=7.5% 403.000MHz Type=RS41-SGP rdzTTGOsonde
EA4EKH-11U02205662022-12-06 11:43:2940.4547-3.51803107358409Clb=5.2m/s t=-39.0C h=7.5% p=342.2hPa 403.000 MHz Type=RS41-SGP ser=U0220566 Radiosonde
EA4GSU-11U02205662022-12-06 11:42:5340.4551-3.51988103318332Clb=4.6m/s t=-38.5C h=8.1% p=346.1hPa 403.000 MHz Type=RS41-SGP Radiosonde auto_rx v1.5.3
EA4EKH-12U02205662022-12-06 11:42:4840.4551-3.51998102318328Clb=3.8m/s p=346.3hPa t=-38.5C h=8.2% 403.000MHz Type=RS41-SGP rdzTTGOsonde
EA4GBR-10U02205662022-12-06 11:42:4340.4552-3.52018103338320Clb=3.5m/s p=346.7hPa t=-38.4C h=8.2% 403.000MHz Type=RS41-SGP rdzTTGOsonde
EA4EKH-11U02205662022-12-06 11:42:2340.4554-3.52124109338281Clb=4.5m/s t=-38.3C h=8.9% p=348.7hPa 403.000 MHz Type=RS41-SGP ser=U0220566 Radiosonde
EA4GBR-10U02205662022-12-06 11:41:5640.4558-3.5226112358232Clb=2.8m/s p=351.2hPa t=-38.1C h=11.9% 403.000MHz Type=RS41-SGP rdzTTGOsonde
EA4EKH-12U02205662022-12-06 11:41:4340.4559-3.52324105358207Clb=4.3m/s p=352.5hPa t=-38.0C h=12.6% 403.000MHz Type=RS41-SGP rdzTTGOsonde
EA4EKH-11U02205662022-12-06 11:41:2340.4561-3.5246397338157Clb=3.0m/s t=-37.6C h=13.5% p=354.9hPa 403.000 MHz Type=RS41-SGP ser=U0220566 Radiosonde
EA4GBR-10U02205662022-12-06 11:41:1440.4562-3.52509102398142Clb=3.6m/s p=355.7hPa t=-37.5C h=13.7% 403.000MHz Type=RS41-SGP rdzTTGOsonde
EA4EKH-12U02205662022-12-06 11:40:5640.4563-3.5262496338110Clb=3.4m/s p=357.4hPa t=-37.2C h=14.1% 403.000MHz Type=RS41-SGP rdzTTGOsonde
EA4GBR-10U02205662022-12-06 11:40:3140.4563-3.5278694338058Clb=3.7m/s p=360.1hPa t=-36.8C h=15.0% 403.000MHz Type=RS41-SGP rdzTTGOsonde
EA4EKH-11U02205662022-12-06 11:40:2540.4563-3.5283286358044Clb=4.7m/s t=-36.8C h=15.2% p=360.9hPa 403.000 MHz Type=RS41-SGP ser=U0220566 Radiosonde
EA4EKH-12U02205662022-12-06 11:40:0540.4563-3.5295587358003Clb=2.5m/s p=363.1hPa t=-36.5C h=17.0% 403.000MHz Type=RS41-SGP rdzTTGOsonde
EA4GBR-10U02205662022-12-06 11:39:5640.4562-3.5303587307976Clb=2.6m/s p=364.4hPa t=-36.4C h=17.6% 403.000MHz Type=RS41-SGP rdzTTGOsonde
EA4EKH-11U02205662022-12-06 11:39:4340.4561-3.5315886307924Clb=4.3m/s t=-36.0C h=21.3% p=367.0hPa 403.000 MHz Type=RS41-SGP ser=U0220566 Radiosonde
EA4EKH-12U02205662022-12-06 11:39:4240.4561-3.5315887317924Clb=4.3m/s p=367.0hPa t=-36.0C h=21.3% 403.000MHz Type=RS41-SGP rdzTTGOsonde
EA4GBR-10U02205662022-12-06 11:39:3640.456-3.5324684307892Clb=3.3m/s p=368.8hPa t=-35.7C h=21.6% 403.000MHz Type=RS41-SGP rdzTTGOsonde
EA4GSU-11U02205662022-12-06 11:39:3240.456-3.5332179287865Clb=2.8m/s t=-35.4C h=21.5% p=370.2hPa 403.000 MHz Type=RS41-SGP Radiosonde auto_rx v1.5.3
EA4EKH-12U02205662022-12-06 11:39:2340.4559-3.5335881307851Clb=3.7m/s p=370.9hPa t=-35.3C h=21.5% 403.000MHz Type=RS41-SGP rdzTTGOsonde
EA4EKH-11U02205662022-12-06 11:39:1340.4559-3.5344981287815Clb=2.8m/s t=-35.0C h=21.9% p=372.9hPa 403.000 MHz Type=RS41-SGP ser=U0220566 Radiosonde
EA4GBR-10U02205662022-12-06 11:39:1140.4559-3.5345982307812Clb=4.1m/s p=373.0hPa t=-35.0C h=21.9% 403.000MHz Type=RS41-SGP rdzTTGOsonde
EA4EKH-12U02205662022-12-06 11:38:5740.4557-3.5357981307766Clb=2.7m/s p=375.5hPa t=-34.6C h=21.6% 403.000MHz Type=RS41-SGP rdzTTGOsonde
EA4GBR-10U02205662022-12-06 11:38:4740.4556-3.5366985307733Clb=3.5m/s p=377.3hPa t=-34.3C h=22.6% 403.000MHz Type=RS41-SGP rdzTTGOsonde
EA4EKH-11U02205662022-12-06 11:38:4140.4555-3.5373680267708Clb=5.1m/s t=-34.1C h=22.3% p=378.6hPa 403.000 MHz Type=RS41-SGP ser=U0220566 Radiosonde
EA4EKH-12U02205662022-12-06 11:38:3640.4555-3.5377885267689Clb=4.1m/s p=379.8hPa t=-33.9C h=22.1% 403.000MHz Type=RS41-SGP rdzTTGOsonde
EA4GSU-11U02205662022-12-06 11:38:3040.4554-3.5385581287658Clb=3.7m/s t=-33.6C h=21.9% p=381.4hPa 403.000 MHz Type=RS41-SGP Radiosonde auto_rx v1.5.3
EA4GBR-10U02205662022-12-06 11:38:2440.4554-3.5388282287648Clb=4.2m/s p=381.9hPa t=-33.5C h=21.8% 403.000MHz Type=RS41-SGP rdzTTGOsonde
EA4EKH-12U02205662022-12-06 11:38:1540.4553-3.5397286287612Clb=2.7m/s p=383.9hPa t=-33.1C h=22.3% 403.000MHz Type=RS41-SGP rdzTTGOsonde
EA4EKH-11U02205662022-12-06 11:38:1140.4552-3.5402983307592Clb=2.7m/s t=-32.9C h=22.2% p=385.1hPa 403.000 MHz Type=RS41-SGP ser=U0220566 Radiosonde
EA4GBR-10U02205662022-12-06 11:38:0140.4552-3.5409784307565Clb=2.9m/s p=386.5hPa t=-32.7C h=22.0% 403.000MHz Type=RS41-SGP rdzTTGOsonde
EA4GSU-11U02205662022-12-06 11:38:0040.4552-3.5412584267553Clb=4.2m/s t=-32.6C h=21.9% p=387.1hPa 403.000 MHz Type=RS41-SGP Radiosonde auto_rx v1.5.3
EA4EKH-12U02205662022-12-06 11:37:5440.4551-3.5416286287540Clb=3.9m/s p=387.9hPa t=-32.4C h=21.8% 403.000MHz Type=RS41-SGP rdzTTGOsonde
EA4GBR-10U02205662022-12-06 11:37:4240.455-3.5430675307485Clb=4.3m/s p=390.9hPa t=-31.9C h=22.3% 403.000MHz Type=RS41-SGP rdzTTGOsonde
EA4EKH-11U02205662022-12-06 11:37:4140.455-3.5432476287477Clb=3.5m/s t=-31.9C h=22.3% p=391.4hPa 403.000 MHz Type=RS41-SGP ser=U0220566 Radiosonde
EA4EKH-12U02205662022-12-06 11:37:3840.4549-3.543685307461Clb=4.3m/s p=392.2hPa t=-31.8C h=22.3% 403.000MHz Type=RS41-SGP rdzTTGOsonde
EA4GBR-10U02205662022-12-06 11:37:1940.4548-3.5452685357399Clb=3.7m/s p=395.6hPa t=-31.3C h=24.4% 403.000MHz Type=RS41-SGP rdzTTGOsonde
EA4EKH-11U02205662022-12-06 11:37:0840.4548-3.5462287287362Clb=4.4m/s t=-31.0C h=24.4% p=397.7hPa 403.000 MHz Type=RS41-SGP ser=U0220566 Radiosonde
EA4EKH-12U02205662022-12-06 11:37:0640.4548-3.5463193307358Clb=3.2m/s p=397.9hPa t=-30.9C h=24.4% 403.000MHz Type=RS41-SGP rdzTTGOsonde
EA4GBR-10U02205662022-12-06 11:36:5540.4548-3.5475194287315Clb=4.4m/s p=400.4hPa t=-30.6C h=25.2% 403.000MHz Type=RS41-SGP rdzTTGOsonde
EA4EKH-12U02205662022-12-06 11:36:4440.4548-3.5484990317268Clb=3.5m/s p=402.9hPa t=-30.3C h=29.1% 403.000MHz Type=RS41-SGP rdzTTGOsonde
EA4EKH-11U02205662022-12-06 11:36:3740.4549-3.5494489337229Clb=7.4m/s t=-30.0C h=31.8% p=405.3hPa 403.000 MHz Type=RS41-SGP ser=U0220566 Radiosonde
EA4GBR-10U02205662022-12-06 11:36:3340.4549-3.5497495287209Clb=5.3m/s p=406.1hPa t=-29.9C h=32.4% 403.000MHz Type=RS41-SGP rdzTTGOsonde
EA4EKH-12U02205662022-12-06 11:36:2940.4549-3.550599337171Clb=8.1m/s p=408.6hPa t=-29.6C h=34.0% 403.000MHz Type=RS41-SGP rdzTTGOsonde
EA4GBR-10U02205662022-12-06 11:36:2840.4551-3.55196101287081Clb=5.6m/s p=413.3hPa t=-29.0C h=37.3% 403.000MHz Type=RS41-SGP rdzTTGOsonde
EA4GBR-10U02205662022-12-06 11:36:2740.4554-3.55398105246956Clb=4.0m/s p=420.5hPa t=-28.0C h=39.6% 403.000MHz Type=RS41-SGP rdzTTGOsonde
EA4EKH-11U02205662022-12-06 11:36:2640.4556-3.55511104306900Clb=4.2m/s t=-27.5C h=40.5% p=424.2hPa 403.000 MHz Type=RS41-SGP ser=U0220566 Radiosonde
EA4GBR-10U02205662022-12-06 11:36:2540.4558-3.55601106226853Clb=7.9m/s p=427.0hPa t=-27.1C h=41.8% 403.000MHz Type=RS41-SGP rdzTTGOsonde
EA4EKH-11U02205662022-12-06 11:36:2440.4562-3.55763112226733Clb=3.6m/s t=-26.1C h=39.8% p=433.6hPa 403.000 MHz Type=RS41-SGP ser=U0220566 Radiosonde
EA4EKH-12U02205662022-12-06 11:36:2040.4565-3.55924112246632Clb=3.5m/s p=439.8hPa t=-25.3C h=44.5% 403.000MHz Type=RS41-SGP rdzTTGOsonde
EA4GBR-10U02205662022-12-06 11:36:1940.4566-3.55946121196616Clb=4.1m/s p=441.0hPa t=-25.2C h=44.2% 403.000MHz Type=RS41-SGP rdzTTGOsonde
EA4EKH-11U02205662022-12-06 11:36:1740.4568-3.55987115196574Clb=5.5m/s t=-24.8C h=43.8% p=443.3hPa 403.000 MHz Type=RS41-SGP ser=U0220566 Radiosonde
EA4EKH-12U02205662022-12-06 11:36:1240.457-3.56049122206527Clb=4.5m/s p=446.2hPa t=-24.4C h=46.8% 403.000MHz Type=RS41-SGP rdzTTGOsonde
EA4EKH-11U02205662022-12-06 11:35:4340.4575-3.56167109176429Clb=4.7m/s t=-23.5C h=47.6% p=452.9hPa 403.000 MHz Type=RS41-SGP ser=U0220566 Radiosonde
EA4EKH-12U02205662022-12-06 11:35:4140.4575-3.56166110196429Clb=4.7m/s p=452.9hPa t=-23.5C h=47.6% 403.000MHz Type=RS41-SGP rdzTTGOsonde
EA4EKH-12U02205662022-12-06 11:35:0540.4579-3.56292106226313Clb=3.0m/s p=459.7hPa t=-22.5C h=45.2% 403.000MHz Type=RS41-SGP rdzTTGOsonde
EA4EKH-11U02205662022-12-06 11:34:4840.4581-3.56357110226266Clb=5.8m/s t=-22.0C h=44.0% p=463.0hPa 403.000 MHz Type=RS41-SGP ser=U0220566 Radiosonde
EA4EKH-12U02205662022-12-06 11:34:2640.4583-3.56427111176221Clb=7.7m/s p=466.4hPa t=-21.5C h=42.9% 403.000MHz Type=RS41-SGP rdzTTGOsonde
EA4EKH-11U02205662022-12-06 11:33:4840.4587-3.56545121136121Clb=7.3m/s t=-20.6C h=37.4% p=472.8hPa 403.000 MHz Type=RS41-SGP ser=U0220566 Radiosonde
EA4EKH-12U02205662022-12-06 11:33:4740.4587-3.56545123156121Clb=7.3m/s p=472.8hPa t=-20.6C h=37.4% 403.000MHz Type=RS41-SGP rdzTTGOsonde
EA4GBR-9U02205662022-12-06 11:33:1740.4591-3.56641102206019Clb=4.1m/s p=478.3hPa t=-19.9C h=35.9% 403.000MHz Type=RS41-SGP rdzTTGOsonde
EA4EKH-12U02205662022-12-06 11:33:1040.4591-3.56667112206005Clb=3.5m/s p=479.5hPa t=-19.7C h=36.3% 403.000MHz Type=RS41-SGP rdzTTGOsonde
EA4EKH-11U02205662022-12-06 11:32:5240.4593-3.56724115205948Clb=3.6m/s t=-19.5C h=46.9% p=482.8hPa 403.000 MHz Type=RS41-SGP ser=U0220566 Radiosonde
EA4GBR-9U02205662022-12-06 11:32:3640.4593-3.5676189135915Clb=4.2m/s p=485.2hPa t=-19.3C h=50.2% 403.000MHz Type=RS41-SGP rdzTTGOsonde
EA4EKH-12U02205662022-12-06 11:32:3040.4593-3.5677692155905Clb=3.7m/s p=486.0hPa t=-19.2C h=49.8% 403.000MHz Type=RS41-SGP rdzTTGOsonde
EA4GBR-9U02205662022-12-06 11:32:0040.4595-3.5685696155813Clb=3.7m/s p=491.6hPa t=-18.5C h=46.4% 403.000MHz Type=RS41-SGP rdzTTGOsonde
EA4EKH-12U02205662022-12-06 11:31:5840.4595-3.5687104155800Clb=4.8m/s p=492.5hPa t=-18.4C h=46.7% 403.000MHz Type=RS41-SGP rdzTTGOsonde
EA4EKH-12U02205662022-12-06 11:31:3640.4598-3.5696132155701Clb=6.3m/s p=499.3hPa t=-17.6C h=44.4% 403.000MHz Type=RS41-SGP rdzTTGOsonde
EA4GSU-11U02205662022-12-06 11:31:3040.4599-3.56995108175660Clb=5.2m/s t=-17.4C h=44.9% p=501.9hPa 403.000 MHz Type=RS41-SGP Radiosonde auto_rx v1.5.3
EA4EKH-11U02205662022-12-06 11:31:2640.4599-3.57007111205651Clb=4.5m/s t=-17.3C h=45.2% p=502.6hPa 403.000 MHz Type=RS41-SGP ser=U0220566 Radiosonde
EA4GBR-9U02205662022-12-06 11:31:2340.46-3.57019113205642Clb=4.9m/s p=503.1hPa t=-17.2C h=44.9% 403.000MHz Type=RS41-SGP rdzTTGOsonde
EA4EKH-12U02205662022-12-06 11:31:1640.4601-3.57059123205607Clb=3.9m/s p=505.5hPa t=-17.0C h=45.6% 403.000MHz Type=RS41-SGP rdzTTGOsonde
EA4GSU-11U02205662022-12-06 11:31:1340.4608-3.57135129195515Clb=4.9m/s t=-16.3C h=45.3% p=511.6hPa 403.000 MHz Type=RS41-SGP Radiosonde auto_rx v1.5.3
EA4GBR-10U02205662022-12-06 11:31:1240.4611-3.57175140155466Clb=4.2m/s p=515.3hPa t=-15.8C h=44.5% 403.000MHz Type=RS41-SGP rdzTTGOsonde
EA4GSU-11U02205662022-12-06 11:31:1140.4618-3.57251144135371Clb=6.3m/s t=-14.9C h=43.7% p=522.1hPa 403.000 MHz Type=RS41-SGP Radiosonde auto_rx v1.5.3
EA4GBR-9U02205662022-12-06 11:31:1040.4622-3.57314114195293Clb=6.8m/s p=527.7hPa t=-14.5C h=50.5% 403.000MHz Type=RS41-SGP rdzTTGOsonde
EA4GSU-11U02205662022-12-06 11:31:0740.4626-3.57359129175226Clb=7.7m/s t=-13.9C h=50.6% p=532.6hPa 403.000 MHz Type=RS41-SGP Radiosonde auto_rx v1.5.3
EA4EKH-12U02205662022-12-06 11:31:0240.4628-3.57374146205203Clb=6.4m/s p=533.9hPa t=-13.7C h=50.3% 403.000MHz Type=RS41-SGP rdzTTGOsonde
EA4EKH-11U02205662022-12-06 11:31:0140.4628-3.57381145175191Clb=5.5m/s t=-13.6C h=50.0% p=534.5hPa 403.000 MHz Type=RS41-SGP ser=U0220566 Radiosonde
EA4GBR-9U02205662022-12-06 11:30:5840.4629-3.57388139175181Clb=4.2m/s p=535.3hPa t=-13.5C h=49.9% 403.000MHz Type=RS41-SGP rdzTTGOsonde
EA4GBR-10U02205662022-12-06 11:30:4240.4634-3.57432129175111Clb=3.6m/s p=539.3hPa t=-13.0C h=48.9% 403.000MHz Type=RS41-SGP rdzTTGOsonde
EA4EKH-12U02205662022-12-06 11:30:3240.4636-3.5746131195089Clb=6.3m/s p=541.5hPa t=-12.8C h=47.8% 403.000MHz Type=RS41-SGP rdzTTGOsonde
EA4GBR-9U02205662022-12-06 11:30:2740.4636-3.57472139175065Clb=6.5m/s p=542.7hPa t=-12.6C h=47.5% 403.000MHz Type=RS41-SGP rdzTTGOsonde
EA4GSU-11U02205662022-12-06 11:30:2640.4637-3.57479137175052Clb=5.9m/s t=-12.5C h=47.3% p=543.5hPa 403.000 MHz Type=RS41-SGP Radiosonde auto_rx v1.5.3
EA4EKH-11U02205662022-12-06 11:30:1540.4639-3.57512130195015Clb=5.1m/s t=-12.1C h=46.0% p=546.2hPa 403.000 MHz Type=RS41-SGP ser=U0220566 Radiosonde
EA4GBR-10U02205662022-12-06 11:30:0740.4641-3.57532141224996Clb=5.1m/s p=547.6hPa t=-11.9C h=45.3% 403.000MHz Type=RS41-SGP rdzTTGOsonde
EA4EKH-12U02205662022-12-06 11:29:5840.4643-3.57555126204975Clb=2.8m/s p=549.5hPa t=-11.7C h=45.1% 403.000MHz Type=RS41-SGP rdzTTGOsonde
EA4GBR-9U02205662022-12-06 11:29:5440.4644-3.5757124204966Clb=3.7m/s p=550.6hPa 403.000MHz Type=RS41-SGP rdzTTGOsonde
EA4GSU-11U02205662022-12-06 11:29:3940.4647-3.57619147154897Clb=6.6m/s t=-11.3C h=45.5% p=554.5hPa 403.000 MHz Type=RS41-SGP Radiosonde auto_rx v1.5.3
EA4GBR-10U02205662022-12-06 11:29:3140.4648-3.57634138154875Clb=4.8m/s p=556.1hPa t=-11.2C h=47.2% 403.000MHz Type=RS41-SGP rdzTTGOsonde
EA4EKH-12U02205662022-12-06 11:29:2840.4649-3.57641143174864Clb=4.2m/s p=556.7hPa t=-11.2C h=48.7% 403.000MHz Type=RS41-SGP rdzTTGOsonde
EA4EKH-11U02205662022-12-06 11:29:2540.465-3.57647137154856Clb=3.4m/s t=-11.2C h=51.0% p=557.5hPa 403.000 MHz Type=RS41-SGP ser=U0220566 Radiosonde
EA4GBR-9U02205662022-12-06 11:29:2040.465-3.57653149154848Clb=4.2m/s p=558.3hPa 403.000MHz Type=RS41-SGP rdzTTGOsonde
EA4GBR-10U02205662022-12-06 11:28:5140.4656-3.57691159204777Clb=5.2m/s p=563.7hPa t=-11.2C h=59.0% 403.000MHz Type=RS41-SGP rdzTTGOsonde
EA4EKH-12U02205662022-12-06 11:28:5040.4657-3.57694151224772Clb=4.0m/s p=564.1hPa t=-11.2C h=59.1% 403.000MHz Type=RS41-SGP rdzTTGOsonde
EA4GSU-11U02205662022-12-06 11:28:4740.4658-3.57705156194760Clb=4.9m/s t=-11.2C h=60.1% p=565.1hPa 403.000 MHz Type=RS41-SGP Radiosonde auto_rx v1.5.3
EA4EKH-11U02205662022-12-06 11:28:3240.4663-3.57723153244706Clb=5.2m/s t=-10.8C h=59.2% p=568.6hPa 403.000 MHz Type=RS41-SGP ser=U0220566 Radiosonde
EA4GBR-10U02205662022-12-06 11:28:1640.4667-3.57749165244666Clb=3.9m/s p=571.6hPa t=-10.4C h=57.4% 403.000MHz Type=RS41-SGP rdzTTGOsonde
EA4GSU-11U02205662022-12-06 11:28:0040.4673-3.57797152204613Clb=3.0m/s t=-10.1C h=58.5% p=576.7hPa 403.000 MHz Type=RS41-SGP Radiosonde auto_rx v1.5.3
EA4EKH-12U02205662022-12-06 11:27:5040.4676-3.57819137224578Clb=5.6m/s p=579.2hPa t=-10.1C h=62.9% 403.000MHz Type=RS41-SGP rdzTTGOsonde
EA4GBR-9U02205662022-12-06 11:27:4940.4677-3.57824131244573Clb=6.4m/s p=579.6hPa 403.000MHz Type=RS41-SGP rdzTTGOsonde
EA4GBR-10U02205662022-12-06 11:27:4840.4678-3.57836134244561Clb=5.4m/s p=580.4hPa t=-10.0C h=64.1% 403.000MHz Type=RS41-SGP rdzTTGOsonde
EA4EKH-12U02205662022-12-06 11:27:3040.4685-3.57927135154471Clb=4.0m/s p=587.3hPa t=-9.7C h=67.8% 403.000MHz Type=RS41-SGP rdzTTGOsonde
EA4GBR-10U02205662022-12-06 11:27:2840.4685-3.57934130154466Clb=4.3m/s p=588.1hPa t=-9.6C h=67.8% 403.000MHz Type=RS41-SGP rdzTTGOsonde
EA4EKH-11U02205662022-12-06 11:27:1940.4689-3.57987132224410Clb=5.9m/s t=-9.4C h=68.7% p=592.0hPa 403.000 MHz Type=RS41-SGP ser=U0220566 Radiosonde
EA4EKH-12U02205662022-12-06 11:27:1040.4691-3.58032122224372Clb=3.4m/s p=595.1hPa t=-9.1C h=67.9% 403.000MHz Type=RS41-SGP rdzTTGOsonde
EA4GBR-10U02205662022-12-06 11:27:0840.4691-3.58038120204369Clb=3.4m/s p=595.4hPa t=-9.0C h=67.9% 403.000MHz Type=RS41-SGP rdzTTGOsonde
EA4GBR-9U02205662022-12-06 11:27:0340.4692-3.58066117264353Clb=6.6m/s 403.000MHz Type=RS41 rdzTTGOsonde
EA4EKH-12U02205662022-12-06 11:26:4840.4697-3.58177130284272Clb=5.8m/s p=602.3hPa t=-8.3C h=65.7% 403.000MHz Type=RS41-SGP rdzTTGOsonde
EA4GBR-10U02205662022-12-06 11:26:4740.4698-3.58185125284267Clb=4.4m/s p=602.7hPa t=-8.2C h=65.7% 403.000MHz Type=RS41-SGP rdzTTGOsonde
EA4GBR-9U02205662022-12-06 11:26:4240.47-3.58223122264242Clb=5.5m/s 403.000MHz Type=RS41 rdzTTGOsonde
EA4GBR-10U02205662022-12-06 11:26:2740.4703-3.58335104224170Clb=6.7m/s p=610.7hPa t=-7.9C h=72.3% 403.000MHz Type=RS41-SGP rdzTTGOsonde
EA4EKH-11U02205662022-12-06 11:26:1940.4704-3.584158294099Clb=7.0m/s t=-7.5C h=72.6% p=616.1hPa 403.000 MHz Type=RS41-SGP ser=U0220566 Radiosonde
EA4EKH-12U02205662022-12-06 11:26:1840.4706-3.58574110203954Clb=6.0m/s p=627.3hPa t=-6.9C h=75.7% 403.000MHz Type=RS41-SGP rdzTTGOsonde
EA4EKH-12U02205662022-12-06 11:26:0840.4708-3.58666139133857Clb=5.1m/s p=635.5hPa t=-6.3C h=71.9% 403.000MHz Type=RS41-SGP rdzTTGOsonde
EA4GBR-10U02205662022-12-06 11:26:0640.4709-3.58672140153845Clb=7.0m/s p=636.1hPa t=-6.2C h=71.3% 403.000MHz Type=RS41-SGP rdzTTGOsonde
EA4EKH-11U02205662022-12-06 11:25:5040.4711-3.58719148113774Clb=6.7m/s t=-7.6C h=87.6% p=641.9hPa 403.000 MHz Type=RS41-SGP ser=U0220566 Radiosonde
EA4GBR-9U02205662022-12-06 11:25:4940.4711-3.58719149113774Clb=6.7m/s 403.000MHz Type=RS41 rdzTTGOsonde
EA4GBR-10U02205662022-12-06 11:25:3740.4713-3.587272043728Clb=3.9m/s p=645.5hPa t=-7.4C h=89.1% 403.000MHz Type=RS41-SGP rdzTTGOsonde
EA4GSU-11U02205662022-12-06 11:25:2940.4712-3.5873311243705Clb=3.2m/s t=-7.2C h=88.8% p=648.0hPa 403.000 MHz Type=RS41-SGP Radiosonde auto_rx v1.5.3
EA4EKH-12U02205662022-12-06 11:25:0640.4713-3.587321923636Clb=4.1m/s p=653.4hPa t=-6.7C h=86.7% 403.000MHz Type=RS41-SGP rdzTTGOsonde
EA4EKH-11U02205662022-12-06 11:25:0240.4712-3.5873330523619Clb=3.9m/s t=-6.5C h=85.8% p=655.3hPa 403.000 MHz Type=RS41-SGP ser=U0220566 Radiosonde
EA4GSU-11U02205662022-12-06 11:24:4440.4713-3.587131163556Clb=6.0m/s t=-5.9C h=82.8% p=660.7hPa 403.000 MHz Type=RS41-SGP Radiosonde auto_rx v1.5.3
EA4EKH-12U02205662022-12-06 11:24:3540.4712-3.5870432173533Clb=4.9m/s p=662.4hPa t=-5.7C h=82.1% 403.000MHz Type=RS41-SGP rdzTTGOsonde
EA4GBR-10U02205662022-12-06 11:24:3440.4712-3.5870332973528Clb=5.3m/s p=662.9hPa t=-5.7C h=81.8% 403.000MHz Type=RS41-SGP rdzTTGOsonde
EA4EKH-11U02205662022-12-06 11:24:1540.4711-3.5869321543457Clb=5.7m/s t=-5.1C h=79.2% p=668.7hPa 403.000 MHz Type=RS41-SGP ser=U0220566 Radiosonde
EA4EKH-12U02205662022-12-06 11:24:0640.4711-3.58682325113420Clb=5.9m/s p=671.0hPa t=-4.9C h=78.6% 403.000MHz Type=RS41-SGP rdzTTGOsonde
EA4GBR-10U02205662022-12-06 11:24:0340.471-3.5867931773410Clb=4.0m/s p=672.0hPa t=-4.8C h=78.7% 403.000MHz Type=RS41-SGP rdzTTGOsonde
EA4GSU-11U02205662022-12-06 11:24:0040.471-3.5867128263387Clb=8.7m/s t=-4.7C h=78.4% p=674.6hPa 403.000 MHz Type=RS41-SGP Radiosonde auto_rx v1.5.3
EA4EKH-12U02205662022-12-06 11:23:4340.4708-3.58623278193314Clb=7.4m/s p=680.6hPa t=-4.2C h=77.4% 403.000MHz Type=RS41-SGP rdzTTGOsonde
EA4GBR-10U02205662022-12-06 11:23:4140.4708-3.58612287173302Clb=4.3m/s p=681.4hPa t=-4.1C h=77.6% 403.000MHz Type=RS41-SGP rdzTTGOsonde
EA4EKH-11U02205662022-12-06 11:23:4040.4708-3.58603300133293Clb=4.3m/s t=-4.1C h=77.8% p=682.4hPa 403.000 MHz Type=RS41-SGP ser=U0220566 Radiosonde
EA4GSU-11U02205662022-12-06 11:23:3040.4707-3.58555307203239Clb=6.4m/s t=-3.7C h=76.0% p=687.4hPa 403.000 MHz Type=RS41-SGP Radiosonde auto_rx v1.5.3
EA4EKH-12U02205662022-12-06 11:23:2240.4705-3.58519289193200Clb=4.1m/s p=690.1hPa t=-3.5C h=76.1% 403.000MHz Type=RS41-SGP rdzTTGOsonde
EA4GBR-10U02205662022-12-06 11:23:2140.4705-3.58508295193192Clb=4.1m/s p=691.0hPa t=-3.4C h=76.2% 403.000MHz Type=RS41-SGP rdzTTGOsonde
EA4EKH-11U02205662022-12-06 11:23:1040.4702-3.58436302243135Clb=4.4m/s t=-3.1C h=75.6% p=696.5hPa 403.000 MHz Type=RS41-SGP ser=U0220566 Radiosonde
EA4EKH-12U02205662022-12-06 11:23:0240.4701-3.58397292193096Clb=5.8m/s p=699.3hPa t=-2.9C h=74.9% 403.000MHz Type=RS41-SGP rdzTTGOsonde
EA4GSU-11U02205662022-12-06 11:23:0040.4701-3.5837289223074Clb=4.8m/s t=-2.8C h=75.4% p=700.8hPa 403.000 MHz Type=RS41-SGP Radiosonde auto_rx v1.5.3
EA4EKH-12U02205662022-12-06 11:22:4140.4697-3.58246308243006Clb=5.0m/s p=707.3hPa t=-2.6C h=85.3% 403.000MHz Type=RS41-SGP rdzTTGOsonde
EA4EKH-11U02205662022-12-06 11:22:3840.4695-3.58224299172984Clb=3.8m/s t=-2.5C h=86.3% p=709.4hPa 403.000 MHz Type=RS41-SGP ser=U0220566 Radiosonde
EA4GBR-10U02205662022-12-06 11:22:3340.4695-3.58204291172961Clb=7.2m/s p=711.1hPa t=-2.3C h=85.8% 403.000MHz Type=RS41-SGP rdzTTGOsonde
EA4GSU-11U02205662022-12-06 11:22:3040.4693-3.58182320112932Clb=4.8m/s t=-2.1C h=86.2% p=713.7hPa 403.000 MHz Type=RS41-SGP Radiosonde auto_rx v1.5.3
EA4EKH-12U02205662022-12-06 11:22:2040.4692-3.58155313172889Clb=5.4m/s p=717.4hPa t=-1.9C h=87.6% 403.000MHz Type=RS41-SGP rdzTTGOsonde
EA4GBR-10U02205662022-12-06 11:22:1340.469-3.58136339172858Clb=5.0m/s p=720.5hPa t=-1.7C h=89.3% 403.000MHz Type=RS41-SGP rdzTTGOsonde
EA4EKH-11U02205662022-12-06 11:22:0840.4687-3.5812319132826Clb=5.2m/s t=-1.6C h=90.7% p=724.1hPa 403.000 MHz Type=RS41-SGP ser=U0220566 Radiosonde
EA4EKH-12U02205662022-12-06 11:21:5940.4686-3.58102319112791Clb=6.1m/s p=726.9hPa t=-1.5C h=91.6% 403.000MHz Type=RS41-SGP rdzTTGOsonde
EA4GBR-10U02205662022-12-06 11:21:5240.4684-3.58082330192759Clb=3.2m/s p=729.9hPa t=-1.4C h=92.6% 403.000MHz Type=RS41-SGP rdzTTGOsonde
EA4EKH-12U02205662022-12-06 11:21:5140.4679-3.58049332152707Clb=7.4m/s p=734.9hPa t=-1.1C h=92.6% 403.000MHz Type=RS41-SGP rdzTTGOsonde
EA4GSU-11U02205662022-12-06 11:21:5040.4674-3.58008345192639Clb=3.9m/s t=-0.7C h=91.4% p=740.5hPa 403.000 MHz Type=RS41-SGP Radiosonde auto_rx v1.5.3
EA4EKH-12U02205662022-12-06 11:21:4340.4672-3.5799330472607Clb=6.6m/s p=744.4hPa t=-0.4C h=91.3% 403.000MHz Type=RS41-SGP rdzTTGOsonde
EA4GBR-10U02205662022-12-06 11:21:3540.467-3.57973335192573Clb=5.7m/s t=-0.4C 403.000MHz Type=RS41-SGP rdzTTGOsonde
EA4EKH-11U02205662022-12-06 11:21:2440.4667-3.5795633372527Clb=8.0m/s t=-1.0C h=100.0% p=751.7hPa 403.000 MHz Type=RS41-SGP ser=U0220566 Radiosonde
EA4GSU-11U02205662022-12-06 11:21:1740.4667-3.5794628542487Clb=6.8m/s t=-0.7C h=99.9% p=755.3hPa 403.000 MHz Type=RS41-SGP Radiosonde auto_rx v1.5.3
EA4EKH-12U02205662022-12-06 11:21:1540.4667-3.5794628742487Clb=6.8m/s p=755.3hPa t=-0.6C h=99.9% 403.000MHz Type=RS41-SGP rdzTTGOsonde
EA4GBR-10U02205662022-12-06 11:21:0640.4666-3.57932762449Clb=5.9m/s 403.000MHz Type=RS41-SGP rdzTTGOsonde
EA4EKH-12U02205662022-12-06 11:20:4940.4667-3.5791626372380Clb=6.3m/s p=765.7hPa t=-0.1C h=100.5% 403.000MHz Type=RS41-SGP rdzTTGOsonde
EA4GBR-10U02205662022-12-06 11:20:4040.4667-3.5790717042338Clb=7.5m/s 403.000MHz Type=RS41-SGP rdzTTGOsonde
EA4GSU-11U02205662022-12-06 11:20:3740.4667-3.57902294112312Clb=7.0m/s t=0.3C h=100.0% p=772.1hPa 403.000 MHz Type=RS41-SGP Radiosonde auto_rx v1.5.3
EA4EKH-12U02205662022-12-06 11:20:2240.4665-3.5788731062255Clb=5.6m/s p=777.6hPa t=0.6C h=100.2% 403.000MHz Type=RS41-SGP rdzTTGOsonde
EA4GBR-10U02205662022-12-06 11:20:1340.4664-3.57879347132218Clb=6.1m/s 403.000MHz Type=RS41-SGP rdzTTGOsonde
EA4EKH-11U02205662022-12-06 11:20:0340.4663-3.578696042176Clb=4.1m/s t=1.1C h=99.5% p=785.6hPa 403.000 MHz Type=RS41-SGP ser=U0220566 Radiosonde
EA4GSU-11U02205662022-12-06 11:20:0040.4662-3.5787234172157Clb=3.1m/s t=1.2C h=99.5% p=787.4hPa 403.000 MHz Type=RS41-SGP Radiosonde auto_rx v1.5.3
EA4EKH-12U02205662022-12-06 11:19:5640.4662-3.5786932162147Clb=5.2m/s p=788.3hPa t=1.3C h=99.0% 403.000MHz Type=RS41-SGP rdzTTGOsonde
EA4GBR-10U02205662022-12-06 11:19:5040.4661-3.5786433862117Clb=7.7m/s 403.000MHz Type=RS41-SGP rdzTTGOsonde
EA4EKH-12U02205662022-12-06 11:19:3540.4658-3.5786231642053Clb=3.3m/s p=797.4hPa t=1.9C h=96.2% 403.000MHz Type=RS41-SGP rdzTTGOsonde
EA4EKH-11U02205662022-12-06 11:19:3240.4657-3.5785834792035Clb=3.7m/s t=2.1C h=95.2% p=798.9hPa 403.000 MHz Type=RS41-SGP ser=U0220566 Radiosonde
EA4GBR-10U02205662022-12-06 11:19:3040.4657-3.57857792031Clb=3.6m/s 403.000MHz Type=RS41 rdzTTGOsonde
EA4EKH-12U02205662022-12-06 11:19:1540.4656-3.5785511771960Clb=3.9m/s p=806.5hPa t=2.5C h=100.3% 403.000MHz Type=RS41-SGP rdzTTGOsonde
EA4EKH-11U02205662022-12-06 11:19:0140.4656-3.578819571883Clb=3.4m/s t=2.9C h=100.0% p=814.5hPa 403.000 MHz Type=RS41-SGP ser=U0220566 Radiosonde
EA4GSU-11U02205662022-12-06 11:19:0040.4656-3.5788787111873Clb=5.5m/s t=3.0C h=-1.0% p=-1.0hPa 403.000 MHz Type=RS41-SGP Radiosonde auto_rx v1.5.3
EA4EKH-12U02205662022-12-06 11:18:5440.4656-3.579036491852Clb=5.3m/s p=817.4hPa t=3.1C h=100.1% 403.000MHz Type=RS41-SGP rdzTTGOsonde
EA4EKH-12U02205662022-12-06 11:18:3440.4657-3.5794812561749Clb=4.8m/s p=827.6hPa t=3.7C h=100.7% 403.000MHz Type=RS41-SGP rdzTTGOsonde
EA4GSU-11U02205662022-12-06 11:18:3240.4658-3.5795614561718Clb=3.6m/s t=3.9C h=-1.0% p=-1.0hPa 403.000 MHz Type=RS41 Radiosonde auto_rx v1.5.3
EA4EKH-11U02205662022-12-06 11:18:3040.4658-3.5795614561718Clb=3.6m/s t=3.9C h=100.0% p=830.9hPa 403.000 MHz Type=RS41-SGP ser=U0220566 Radiosonde
EA4EKH-12U02205662022-12-06 11:18:1440.466-3.5797814371650Clb=6.1m/s p=838.0hPa t=4.2C h=99.6% 403.000MHz Type=RS41-SGP rdzTTGOsonde
EA4EKH-11U02205662022-12-06 11:17:5940.4661-3.5799517621563Clb=4.8m/s t=4.8C h=98.3% p=847.1hPa 403.000 MHz Type=RS41-SGP ser=U0220566 Radiosonde
EA4EKH-12U02205662022-12-06 11:17:5340.4662-3.5799420191546Clb=5.4m/s p=849.1hPa t=4.9C h=97.7% 403.000MHz Type=RS41-SGP rdzTTGOsonde
EA4EKH-12U02205662022-12-06 11:17:3340.4664-3.5797122491438Clb=7.3m/s p=860.0hPa t=5.5C h=97.7% 403.000MHz Type=RS41-SGP rdzTTGOsonde
EA4EKH-12U02205662022-12-06 11:17:2840.4663-3.5795823921326Clb=5.8m/s p=871.5hPa t=6.2C h=98.2% 403.000MHz Type=RS41-SGP rdzTTGOsonde